Darstellungsparameter: Aktuell verwendete Einstellungen:
Skalierung der Graphiken ... ?
xyx+y,   Skalierungsfaktor:      Skalierung: Modus: x, Faktor: 1
Darstellungszeitraum ... ?
Vom - - bis: - -   Zeitraum: 07.03.2009 - 06.09.2009
Min/Max/Avg-Anzeige ... ?
Zeige MMA aktuell
Zeige MMA Monat
Zeige MMA alles
Zeige --A aktuell
Zeige --A Monat
Zeige --A alles
Keine MMA-Anzeige
MMA:
Keine MMA-Graphiken
MMA-Basis: 07.03.2009 - 06.09.2009
Quicknavigation für Darstellung... ?
Tage:      1T, 2T, 3T, 5T -1T -2T -3T -5T +1T +2T +3T +5T
Wochen: 1W, 2W, 3W -1W -2W -3W +1W +2W +3W
Monate: 1M, 3M, 6M -1M -3M -6M +1M +3M +6M
Jahre:    1J, 3J, 5J, 10J -1J -3J -5J -10J +1J +3J +5J +10J
Nutze für die Darstellung ... ?
Originaldaten oder Mittelwerte auf ...
Stundenbasis Tagesbasis Wochenbasis
Monatsbasis Jahresbasis      Datenbasis: Original-Daten
Darstellen als:
Statistik (Auto) Statistik J:M      Darstellung:
Zur Graphik,    zurück zur Übersicht aller Sensoren.
 
Tabellarische Datenbersicht: ?
 
Sensor: Nr:Datum:Temp:Abs-Feuchte:Windchill:Wind:
Aussen-T/F 1 07-03-2009 00:09:58 3.7 C 3.99 g/m*3 3.7 C 0 km/h
2 07-03-2009 00:21:58 3.8 C 3.89 g/m*3 3.8 C 0 km/h
3 07-03-2009 00:33:58 3.8 C 3.83 g/m*3 3.8 C 0 km/h
4 07-03-2009 00:45:58 3.8 C 3.76 g/m*3 3.8 C 0 km/h
5 07-03-2009 00:57:58 3.7 C 3.8 g/m*3 3.7 C 0 km/h
6 07-03-2009 01:09:58 3.6 C 3.9 g/m*3 3.6 C 0 km/h
7 07-03-2009 01:21:58 3.6 C 3.84 g/m*3 3.6 C 0 km/h
8 07-03-2009 01:33:58 3.6 C 3.84 g/m*3 3.6 C 0 km/h
9 07-03-2009 01:45:58 3.5 C 3.81 g/m*3 3.5 C 0 km/h
10 07-03-2009 01:57:58 3.4 C 3.85 g/m*3 3.4 C 0 km/h
11 07-03-2009 02:09:58 3.4 C 3.85 g/m*3 3.4 C 0 km/h
12 07-03-2009 02:21:58 3.4 C 3.85 g/m*3 3.4 C 0 km/h
13 07-03-2009 02:33:58 3.3 C 3.82 g/m*3 3.3 C 0 km/h
14 07-03-2009 02:45:58 3.3 C 3.88 g/m*3 3.3 C 0 km/h
15 07-03-2009 02:57:58 3.2 C 3.86 g/m*3 3.2 C 0 km/h
16 07-03-2009 03:09:58 3.1 C 3.89 g/m*3 3.1 C 0 km/h
17 07-03-2009 03:21:58 3.2 C 3.86 g/m*3 3.2 C 0 km/h
18 07-03-2009 03:33:58 3.2 C 3.86 g/m*3 3.2 C 0 km/h
19 07-03-2009 03:45:58 3.2 C 3.86 g/m*3 3.2 C 0 km/h
20 07-03-2009 03:57:58 3.2 C 3.86 g/m*3 3.2 C 0 km/h
21 07-03-2009 04:09:59 3.2 C 3.86 g/m*3 3.2 C 0 km/h
22 07-03-2009 04:21:59 3.2 C 3.86 g/m*3 3.2 C 0 km/h
23 07-03-2009 04:33:59 3.1 C 3.83 g/m*3 3.1 C 0 km/h
24 07-03-2009 04:45:59 3.1 C 3.83 g/m*3 3.1 C 0 km/h
25 07-03-2009 04:57:59 3.2 C 3.8 g/m*3 3.2 C 0 km/h
Sensor: Nr:Datum:Temp:Abs-Feuchte:Windchill:Wind:
Aussen-T/F 26 07-03-2009 05:09:59 3.2 C 3.8 g/m*3 3.2 C 0 km/h
27 07-03-2009 05:21:59 3.2 C 3.74 g/m*3 3.2 C 0 km/h
28 07-03-2009 05:33:59 3.1 C 3.77 g/m*3 3.1 C 0 km/h
29 07-03-2009 05:45:59 3 C 3.75 g/m*3 3 C 0 km/h
30 07-03-2009 05:57:59 3 C 3.69 g/m*3 3 C 0 km/h
31 07-03-2009 06:09:59 3 C 3.63 g/m*3 3 C 0 km/h
32 07-03-2009 06:21:58 3 C 3.57 g/m*3 3 C 0 km/h
33 07-03-2009 06:33:57 3 C 3.63 g/m*3 3 C 0 km/h
34 07-03-2009 06:45:57 3 C 3.63 g/m*3 3 C 0 km/h
35 07-03-2009 06:57:57 3 C 3.63 g/m*3 3 C 0 km/h
36 07-03-2009 07:09:57 2.9 C 3.66 g/m*3 2.9 C 0 km/h
37 07-03-2009 07:21:57 2.9 C 3.72 g/m*3 2.9 C 0 km/h
38 07-03-2009 07:33:57 2.7 C 3.73 g/m*3 2.7 C 0 km/h
39 07-03-2009 07:45:57 2.6 C 3.76 g/m*3 2.6 C 0 km/h
40 07-03-2009 07:57:57 2.7 C 3.79 g/m*3 2.7 C 0 km/h
41 07-03-2009 08:09:57 2.7 C 3.73 g/m*3 2.7 C 0 km/h
42 07-03-2009 08:21:56 2.7 C 3.73 g/m*3 2.7 C 0 km/h
43 07-03-2009 08:33:56 2.6 C 3.65 g/m*3 2.6 C 0 km/h
44 07-03-2009 08:45:56 2.6 C 3.65 g/m*3 2.6 C 0 km/h
45 07-03-2009 08:57:56 2.7 C 3.67 g/m*3 2.7 C 0 km/h
46 07-03-2009 09:09:56 2.7 C 3.67 g/m*3 2.7 C 0 km/h
47 07-03-2009 09:21:56 3 C 3.69 g/m*3 3 C 0 km/h
48 07-03-2009 09:33:56 3.3 C 3.7 g/m*3 3.3 C 0 km/h
49 07-03-2009 09:45:56 3.2 C 3.62 g/m*3 3.2 C 0 km/h
50 07-03-2009 09:57:56 3.1 C 3.71 g/m*3 3.1 C 0 km/h
Sensor: Nr:Datum:Temp:Abs-Feuchte:Windchill:Wind:
Aussen-T/F 51 07-03-2009 10:09:56 3.2 C 3.8 g/m*3 3.2 C 0 km/h
52 07-03-2009 10:21:55 3.5 C 3.87 g/m*3 3.5 C 0 km/h
53 07-03-2009 10:33:55 3.9 C 3.85 g/m*3 3.9 C 0 km/h
54 07-03-2009 10:45:55 4.5 C 3.94 g/m*3 4.5 C 0 km/h
55 07-03-2009 10:57:55 5 C 3.87 g/m*3 5 C 0 km/h
56 07-03-2009 11:09:55 5.1 C 3.97 g/m*3 5.1 C 0 km/h
57 07-03-2009 11:21:54 5.9 C 3.97 g/m*3 5.9 C 0 km/h
58 07-03-2009 11:33:55 6.6 C 3.85 g/m*3 6.6 C 0 km/h
59 07-03-2009 11:45:54 7.2 C 3.77 g/m*3 7.2 C 0 km/h
60 07-03-2009 11:57:54 7.4 C 3.9 g/m*3 7.4 C 0 km/h
61 07-03-2009 12:09:54 7.5 C 3.76 g/m*3 7.5 C 0 km/h
62 07-03-2009 12:21:55 7.6 C 3.63 g/m*3 7.6 C 0 km/h
63 07-03-2009 12:33:54 7.8 C 3.59 g/m*3 7.8 C 0 km/h
64 07-03-2009 12:45:54 8.2 C 3.43 g/m*3 8.2 C 0 km/h
65 07-03-2009 12:57:54 7.9 C 3.37 g/m*3 7.9 C 0 km/h
66 07-03-2009 13:09:54 8.5 C 3.24 g/m*3 8.5 C 0 km/h
67 07-03-2009 13:21:54 8.4 C 3.22 g/m*3 8.4 C 0 km/h
68 07-03-2009 13:33:54 9 C 3.26 g/m*3 9 C 0 km/h
69 07-03-2009 13:45:53 8.5 C 3.07 g/m*3 8.5 C 0 km/h
70 07-03-2009 13:57:53 9.4 C 3.26 g/m*3 9.4 C 0 km/h
71 07-03-2009 14:09:54 10 C 3.01 g/m*3 10 C 0 km/h
72 07-03-2009 14:21:53 10.8 C 3.06 g/m*3 10.8 C 0 km/h
73 07-03-2009 14:33:53 11.3 C 2.96 g/m*3 11.3 C 0 km/h
74 07-03-2009 14:45:53 11.4 C 2.77 g/m*3 11.4 C 0 km/h
75 07-03-2009 14:57:53 11.3 C 2.86 g/m*3 11.3 C 0 km/h
Sensor: Nr:Datum:Temp:Abs-Feuchte:Windchill:Wind:
Aussen-T/F 76 07-03-2009 15:09:53 11.8 C 2.74 g/m*3 11.8 C 0 km/h
77 07-03-2009 15:21:52 11.9 C 2.65 g/m*3 11.9 C 0 km/h
78 07-03-2009 15:33:52 11 C 3.2 g/m*3 11 C 0 km/h
79 07-03-2009 15:45:52 10.8 C 3.36 g/m*3 10.8 C 0 km/h
80 07-03-2009 15:57:52 11 C 3 g/m*3 11 C 0 km/h
81 07-03-2009 16:09:52 10.7 C 2.75 g/m*3 10.7 C 0 km/h
82 07-03-2009 16:21:52 10.2 C 2.85 g/m*3 10.2 C 0 km/h
83 07-03-2009 16:33:52 10.4 C 2.89 g/m*3 10.4 C 0 km/h
84 07-03-2009 16:45:52 10.6 C 2.73 g/m*3 10.6 C 0 km/h
85 07-03-2009 16:57:52 10.4 C 2.6 g/m*3 10.4 C 0 km/h
86 07-03-2009 17:09:51 9.6 C 3.57 g/m*3 9.6 C 0 km/h
87 07-03-2009 17:21:52 9.2 C 3.75 g/m*3 9.2 C 0 km/h
88 07-03-2009 17:33:51 8.7 C 3.89 g/m*3 8.7 C 0 km/h
89 07-03-2009 17:45:51 8.4 C 3.99 g/m*3 8.4 C 0 km/h
90 07-03-2009 17:57:51 8 C 4.05 g/m*3 8 C 0 km/h
91 07-03-2009 18:09:51 7.8 C 4.08 g/m*3 7.8 C 0 km/h
92 07-03-2009 18:21:51 7.5 C 4.16 g/m*3 7.5 C 0 km/h
93 07-03-2009 18:33:51 7.2 C 4.16 g/m*3 7.2 C 0 km/h
94 07-03-2009 18:45:50 6.8 C 4.21 g/m*3 6.8 C 0 km/h
95 07-03-2009 18:57:50 6.4 C 4.17 g/m*3 6.4 C 0 km/h
96 07-03-2009 19:09:51 6.2 C 4.27 g/m*3 6.2 C 0 km/h
97 07-03-2009 19:21:50 5.8 C 4.3 g/m*3 5.8 C 0 km/h
98 07-03-2009 19:33:50 5.6 C 4.31 g/m*3 5.6 C 0 km/h
99 07-03-2009 19:45:50 5.3 C 4.23 g/m*3 5.3 C 0 km/h
100 07-03-2009 19:57:50 5.3 C 4.3 g/m*3 5.3 C 0 km/h
Sensor: Nr:Datum:Temp:Abs-Feuchte:Windchill:Wind:
Aussen-T/F 101 07-03-2009 20:09:50 5.2 C 4.27 g/m*3 5.2 C 0 km/h
102 07-03-2009 20:21:49 5.6 C 4.38 g/m*3 5.6 C 0 km/h
103 07-03-2009 20:33:50 6 C 4.28 g/m*3 6 C 0 km/h
104 07-03-2009 20:45:50 6 C 4.21 g/m*3 6 C 0 km/h
105 07-03-2009 20:57:50 5.9 C 4.25 g/m*3 5.9 C 0 km/h
106 07-03-2009 21:09:50 5.9 C 4.25 g/m*3 5.9 C 0 km/h
107 07-03-2009 21:21:49 5.9 C 4.25 g/m*3 5.9 C 0 km/h
108 07-03-2009 21:33:49 6 C 4.14 g/m*3 6 C 0 km/h
109 07-03-2009 21:45:49 6.1 C 4.09 g/m*3 6.1 C 0 km/h
110 07-03-2009 21:57:49 6.2 C 4.04 g/m*3 6.2 C 0 km/h
111 07-03-2009 22:09:49 6.4 C 4.1 g/m*3 6.4 C 0 km/h
112 07-03-2009 22:21:48 6.2 C 4.04 g/m*3 6.2 C 0 km/h
113 07-03-2009 22:33:49 6.4 C 4.1 g/m*3 6.4 C 0 km/h
114 07-03-2009 22:46:50 6.4 C 4.17 g/m*3 6.4 C 0 km/h
115 07-03-2009 22:58:50 6.2 C 4.19 g/m*3 6.2 C 0 km/h
116 07-03-2009 23:10:50 6.3 C 4.22 g/m*3 6.3 C 0 km/h
117 07-03-2009 23:22:50 6.3 C 4.29 g/m*3 6.3 C 0 km/h
118 07-03-2009 23:34:50 6.5 C 4.12 g/m*3 6.5 C 0 km/h
119 07-03-2009 23:46:50 6.5 C 4.2 g/m*3 6.5 C 0 km/h
120 07-03-2009 23:58:50 6.4 C 4.25 g/m*3 6.4 C 0 km/h
121 08-03-2009 00:10:50 6.3 C 4.22 g/m*3 6.3 C 0 km/h
122 08-03-2009 00:22:50 6.4 C 4.25 g/m*3 6.4 C 0 km/h
123 08-03-2009 00:34:50 6.3 C 4.22 g/m*3 6.3 C 0 km/h
124 08-03-2009 00:46:50 6.3 C 4.29 g/m*3 6.3 C 0 km/h
125 08-03-2009 00:58:51 6.1 C 4.31 g/m*3 6.1 C 0 km/h
Sensor: Nr:Datum:Temp:Abs-Feuchte:Windchill:Wind:
Aussen-T/F 126 08-03-2009 01:10:51 5.9 C 4.4 g/m*3 5.9 C 0 km/h
127 08-03-2009 01:22:51 6.1 C 4.38 g/m*3 6.1 C 0 km/h
128 08-03-2009 01:34:51 6.3 C 4.44 g/m*3 6.3 C 0 km/h
129 08-03-2009 01:46:51 6.3 C 4.44 g/m*3 6.3 C 0 km/h
130 08-03-2009 01:58:51 6.5 C 4.35 g/m*3 6.5 C 0 km/h
131 08-03-2009 02:10:51 6.4 C 4.4 g/m*3 6.4 C 0 km/h
132 08-03-2009 02:22:51 6.4 C 4.4 g/m*3 6.4 C 0 km/h
133 08-03-2009 02:34:51 6.4 C 4.4 g/m*3 6.4 C 0 km/h
134 08-03-2009 02:46:51 6.5 C 4.57 g/m*3 6.5 C 0 km/h
135 08-03-2009 02:58:51 6.7 C 4.64 g/m*3 6.7 C 0 km/h
136 08-03-2009 03:10:51 6.6 C 4.6 g/m*3 6.6 C 0 km/h
137 08-03-2009 03:22:51 6.6 C 4.68 g/m*3 6.6 C 0 km/h
138 08-03-2009 03:34:51 6.7 C 4.71 g/m*3 6.7 C 0 km/h
139 08-03-2009 03:46:51 6.9 C 4.77 g/m*3 6.9 C 0 km/h
140 08-03-2009 03:58:51 7 C 4.65 g/m*3 7 C 0 km/h
141 08-03-2009 04:10:51 7.1 C 4.76 g/m*3 7.1 C 0 km/h
142 08-03-2009 04:22:51 7.1 C 4.76 g/m*3 7.1 C 0 km/h
143 08-03-2009 04:34:51 7.1 C 4.76 g/m*3 7.1 C 0 km/h
144 08-03-2009 04:46:52 7.2 C 4.79 g/m*3 7.2 C 0 km/h
145 08-03-2009 04:58:52 7.2 C 4.79 g/m*3 7.2 C 0 km/h
146 08-03-2009 05:10:52 7.2 C 4.71 g/m*3 7.2 C 0 km/h
147 08-03-2009 05:22:52 7.3 C 4.74 g/m*3 7.3 C 0 km/h
148 08-03-2009 05:34:52 7.2 C 4.71 g/m*3 7.2 C 0 km/h
149 08-03-2009 05:46:52 7.3 C 4.74 g/m*3 7.3 C 0 km/h
150 08-03-2009 05:58:52 7.3 C 4.74 g/m*3 7.3 C 0 km/h
Sensor: Nr:Datum:Temp:Abs-Feuchte:Windchill:Wind:
Aussen-T/F 151 08-03-2009 06:10:52 7.2 C 4.79 g/m*3 7.2 C 0 km/h
152 08-03-2009 06:22:52 7.2 C 4.71 g/m*3 7.2 C 0 km/h
153 08-03-2009 06:34:52 7.3 C 4.82 g/m*3 7.3 C 0 km/h
154 08-03-2009 06:46:52 7.3 C 4.82 g/m*3 7.3 C 0 km/h
155 08-03-2009 06:58:52 7.3 C 4.9 g/m*3 7.3 C 0 km/h
156 08-03-2009 07:10:52 7.3 C 4.9 g/m*3 7.3 C 0 km/h
157 08-03-2009 07:22:52 7.3 C 4.98 g/m*3 7.3 C 0 km/h
158 08-03-2009 07:34:52 7.3 C 4.98 g/m*3 7.3 C 0 km/h
159 08-03-2009 07:46:49 7.3 C 5.06 g/m*3 7.3 C 0 km/h
160 08-03-2009 07:58:49 7.4 C 5.17 g/m*3 7.4 C 0 km/h
161 08-03-2009 08:10:50 7.5 C 5.2 g/m*3 7.5 C 0 km/h
162 08-03-2009 08:22:50 7.8 C 5.3 g/m*3 7.8 C 0 km/h
163 08-03-2009 08:34:49 8 C 5.21 g/m*3 8 C 0 km/h
164 08-03-2009 08:46:49 8.1 C 5.16 g/m*3 8.1 C 0 km/h
165 08-03-2009 08:58:49 8 C 5.21 g/m*3 8 C 0 km/h
166 08-03-2009 09:10:49 8 C 5.21 g/m*3 8 C 0 km/h
167 08-03-2009 09:22:49 8.2 C 5.28 g/m*3 8.2 C 0 km/h
168 08-03-2009 09:34:48 8.2 C 5.28 g/m*3 8.2 C 0 km/h
169 08-03-2009 09:46:49 8.2 C 5.28 g/m*3 8.2 C 0 km/h
170 08-03-2009 09:58:49 8.2 C 5.28 g/m*3 8.2 C 0 km/h
171 08-03-2009 10:10:48 8.3 C 5.31 g/m*3 8.3 C 0 km/h
172 08-03-2009 10:22:48 8.3 C 5.31 g/m*3 8.3 C 0 km/h
173 08-03-2009 10:34:48 8.3 C 5.39 g/m*3 8.3 C 0 km/h
174 08-03-2009 10:46:48 8.5 C 5.46 g/m*3 8.5 C 0 km/h
175 08-03-2009 10:58:48 8.5 C 5.55 g/m*3 8.5 C 0 km/h
Sensor: Nr:Datum:Temp:Abs-Feuchte:Windchill:Wind:
Aussen-T/F 176 08-03-2009 11:10:47 8.5 C 5.64 g/m*3 8.5 C 0 km/h
177 08-03-2009 11:22:48 8.5 C 5.64 g/m*3 8.5 C 0 km/h
178 08-03-2009 11:34:48 8.7 C 5.71 g/m*3 8.7 C 0 km/h
179 08-03-2009 11:46:47 8.6 C 5.67 g/m*3 8.6 C 0 km/h
180 08-03-2009 11:58:47 8.6 C 5.76 g/m*3 8.6 C 0 km/h
181 08-03-2009 12:10:48 8.8 C 5.83 g/m*3 8.8 C 0 km/h
182 08-03-2009 12:22:47 9.1 C 5.68 g/m*3 9.1 C 0 km/h
183 08-03-2009 12:34:47 9.3 C 5.66 g/m*3 9.3 C 0 km/h
184 08-03-2009 12:46:46 9.3 C 5.57 g/m*3 9.3 C 0 km/h
185 08-03-2009 12:58:46 9.1 C 5.77 g/m*3 9.1 C 0 km/h
186 08-03-2009 13:10:47 8.9 C 6.13 g/m*3 8.9 C 0 km/h
187 08-03-2009 13:22:46 8.7 C 6.31 g/m*3 8.7 C 0 km/h
188 08-03-2009 13:34:46 8.9 C 6.48 g/m*3 8.9 C 0 km/h
189 08-03-2009 13:46:47 9.6 C 6.32 g/m*3 9.6 C 0 km/h
190 08-03-2009 13:58:47 10.2 C 6.09 g/m*3 10.2 C 0 km/h
191 08-03-2009 14:10:46 10.2 C 6 g/m*3 10.2 C 0 km/h
192 08-03-2009 14:22:46 10.1 C 5.96 g/m*3 10.1 C 0 km/h
193 08-03-2009 14:34:46 10.4 C 5.98 g/m*3 10.4 C 0 km/h
194 08-03-2009 14:46:46 10.5 C 5.92 g/m*3 10.5 C 0 km/h
195 08-03-2009 14:58:46 10.3 C 5.94 g/m*3 10.3 C 0 km/h
196 08-03-2009 15:10:45 10.2 C 5.9 g/m*3 10.2 C 0 km/h
197 08-03-2009 15:22:46 9.9 C 6.16 g/m*3 9.9 C 0 km/h
198 08-03-2009 15:34:45 9.7 C 6.36 g/m*3 9.7 C 0 km/h
199 08-03-2009 15:46:45 10.1 C 6.24 g/m*3 10.1 C 0 km/h
200 08-03-2009 15:58:45 9.8 C 6.31 g/m*3 9.8 C 0 km/h
Sensor: Nr:Datum:Temp:Abs-Feuchte:Windchill:Wind:
Aussen-T/F 201 08-03-2009 16:10:45 9.3 C 6.56 g/m*3 9.3 C 0 km/h
202 08-03-2009 16:22:45 9 C 6.88 g/m*3 9 C 0 km/h
203 08-03-2009 16:34:45 8.7 C 7.09 g/m*3 8.7 C 0 km/h
204 08-03-2009 16:46:44 8.5 C 6.92 g/m*3 8.5 C 0 km/h
205 08-03-2009 16:58:44 8.5 C 6.92 g/m*3 8.5 C 0 km/h
206 08-03-2009 17:10:45 8.5 C 6.83 g/m*3 8.5 C 0 km/h
207 08-03-2009 17:22:44 8.4 C 6.87 g/m*3 8.4 C 0 km/h
208 08-03-2009 17:34:45 8.3 C 6.91 g/m*3 8.3 C 0 km/h
209 08-03-2009 17:46:44 8.4 C 7.04 g/m*3 8.4 C 0 km/h
210 08-03-2009 17:58:44 8.3 C 7.08 g/m*3 8.3 C 0 km/h
211 08-03-2009 18:10:44 8.2 C 7.03 g/m*3 8.2 C 0 km/h
212 08-03-2009 18:22:44 8.1 C 6.99 g/m*3 8.1 C 0 km/h
213 08-03-2009 18:34:44 8.1 C 7.07 g/m*3 8.1 C 0 km/h
214 08-03-2009 18:46:43 8.2 C 6.45 g/m*3 8.2 C 0 km/h
215 08-03-2009 18:58:43 8.1 C 6.24 g/m*3 8.1 C 0 km/h
216 08-03-2009 19:10:44 8.1 C 6.32 g/m*3 8.1 C 0 km/h
217 08-03-2009 19:22:43 7.7 C 6.24 g/m*3 7.7 C 0 km/h
218 08-03-2009 19:34:43 7.1 C 6.16 g/m*3 7.1 C 0 km/h
219 08-03-2009 19:46:43 6.9 C 6.31 g/m*3 6.9 C 0 km/h
220 08-03-2009 19:58:43 7 C 6.43 g/m*3 7 C 0 km/h
221 08-03-2009 20:10:43 6.9 C 6.47 g/m*3 6.9 C 0 km/h
222 08-03-2009 20:22:43 6.9 C 6.54 g/m*3 6.9 C 0 km/h
223 08-03-2009 20:34:42 6.6 C 6.34 g/m*3 6.6 C 0 km/h
224 08-03-2009 20:46:43 6.2 C 6.1 g/m*3 6.2 C 0 km/h
225 08-03-2009 20:58:43 5.8 C 6.02 g/m*3 5.8 C 0 km/h
Sensor: Nr:Datum:Temp:Abs-Feuchte:Windchill:Wind:
Aussen-T/F 226 08-03-2009 21:10:43 5.4 C 5.86 g/m*3 5.4 C 0 km/h
227 08-03-2009 21:22:42 5.2 C 5.78 g/m*3 5.2 C 0 km/h
228 08-03-2009 21:34:42 5.1 C 5.75 g/m*3 5.1 C 0 km/h
229 08-03-2009 21:46:42 5.1 C 5.75 g/m*3 5.1 C 0 km/h
230 08-03-2009 21:58:42 5 C 5.71 g/m*3 5 C 0 km/h
231 08-03-2009 22:10:42 4.8 C 5.63 g/m*3 4.8 C 0 km/h
232 08-03-2009 22:22:41 4.7 C 5.6 g/m*3 4.7 C 0 km/h
233 08-03-2009 22:34:41 4.6 C 5.56 g/m*3 4.6 C 0 km/h
234 08-03-2009 22:46:41 4.8 C 5.5 g/m*3 4.8 C 0 km/h
235 08-03-2009 22:58:41 5.3 C 4.92 g/m*3 5.3 C 0 km/h
236 08-03-2009 23:10:41 5.3 C 4.71 g/m*3 5.3 C 0 km/h
237 08-03-2009 23:23:43 4.7 C 4.8 g/m*3 4.7 C 0 km/h
238 08-03-2009 23:35:43 4.6 C 4.83 g/m*3 4.6 C 0 km/h
239 08-03-2009 23:47:43 4.5 C 4.8 g/m*3 4.5 C 0 km/h
240 08-03-2009 23:59:43 4.4 C 4.77 g/m*3 4.4 C 0 km/h
241 09-03-2009 00:11:43 4.4 C 4.83 g/m*3 4.4 C 0 km/h
242 09-03-2009 00:23:43 4.8 C 4.96 g/m*3 4.8 C 0 km/h
243 09-03-2009 00:35:43 5.1 C 4.79 g/m*3 5.1 C 0 km/h
244 09-03-2009 00:47:43 5 C 4.69 g/m*3 5 C 0 km/h
245 09-03-2009 00:59:43 5 C 4.69 g/m*3 5 C 0 km/h
246 09-03-2009 01:11:43 4.7 C 4.73 g/m*3 4.7 C 0 km/h
247 09-03-2009 01:23:43 4.7 C 4.2 g/m*3 4.7 C 0 km/h
248 09-03-2009 01:35:43 4.7 C 4.46 g/m*3 4.7 C 0 km/h
249 09-03-2009 01:47:43 4.7 C 4.46 g/m*3 4.7 C 0 km/h
250 09-03-2009 01:59:44 4.7 C 4.06 g/m*3 4.7 C 0 km/h
Sensor: Nr:Datum:Temp:Abs-Feuchte:Windchill:Wind:
Aussen-T/F 251 09-03-2009 02:11:44 4.7 C 3.73 g/m*3 4.7 C 0 km/h
252 09-03-2009 02:23:44 4.7 C 3.66 g/m*3 4.7 C 0 km/h
253 09-03-2009 02:35:44 4.3 C 3.63 g/m*3 4.3 C 0 km/h
254 09-03-2009 02:47:44 3.9 C 3.79 g/m*3 3.9 C 0 km/h
255 09-03-2009 02:59:44 3.7 C 3.74 g/m*3 3.7 C 0 km/h
256 09-03-2009 03:11:44 3.6 C 3.71 g/m*3 3.6 C 0 km/h
257 09-03-2009 03:23:44 3.5 C 3.75 g/m*3 3.5 C 0 km/h
258 09-03-2009 03:35:44 3.3 C 3.76 g/m*3 3.3 C 0 km/h
259 09-03-2009 03:47:44 3.3 C 3.94 g/m*3 3.3 C 0 km/h
260 09-03-2009 03:59:44 3.4 C 4.03 g/m*3 3.4 C 0 km/h
261 09-03-2009 04:11:44 3.4 C 4.09 g/m*3 3.4 C 0 km/h
262 09-03-2009 04:23:44 3.6 C 4.15 g/m*3 3.6 C 0 km/h
263 09-03-2009 04:35:44 3.7 C 4.3 g/m*3 3.7 C 0 km/h
264 09-03-2009 04:47:44 3.3 C 4.49 g/m*3 3.3 C 0 km/h
265 09-03-2009 04:59:44 3.2 C 4.64 g/m*3 3.2 C 0 km/h
266 09-03-2009 05:11:44 3.1 C 4.67 g/m*3 3.1 C 0 km/h
267 09-03-2009 05:23:44 3.1 C 4.73 g/m*3 3.1 C 0 km/h
268 09-03-2009 05:35:44 3 C 4.64 g/m*3 3 C 0 km/h
269 09-03-2009 05:47:45 3.2 C 4.64 g/m*3 3.2 C 0 km/h
270 09-03-2009 05:59:45 3.3 C 4.61 g/m*3 3.3 C 0 km/h
271 09-03-2009 06:11:45 3.1 C 4.67 g/m*3 3.1 C 0 km/h
272 09-03-2009 06:23:45 2.5 C 4.66 g/m*3 2.5 C 0 km/h
273 09-03-2009 06:35:45 2.3 C 4.71 g/m*3 2.3 C 0 km/h
274 09-03-2009 06:47:45 2.1 C 4.7 g/m*3 2.1 C 0 km/h
275 09-03-2009 06:59:42 2.2 C 4.79 g/m*3 2.2 C 0 km/h
Sensor: Nr:Datum:Temp:Abs-Feuchte:Windchill:Wind:
Aussen-T/F 276 09-03-2009 07:11:42 2.2 C 4.73 g/m*3 2.2 C 0 km/h
277 09-03-2009 07:23:42 2.1 C 4.42 g/m*3 2.1 C 0 km/h
278 09-03-2009 07:35:41 2.1 C 4.2 g/m*3 2.1 C 0 km/h
279 09-03-2009 07:47:42 2 C 3.95 g/m*3 2 C 0 km/h
280 09-03-2009 07:59:41 2.1 C 3.92 g/m*3 2.1 C 0 km/h
281 09-03-2009 08:11:41 2.2 C 3.89 g/m*3 2.2 C 0 km/h
282 09-03-2009 08:23:41 2.6 C 3.82 g/m*3 2.6 C 0 km/h
283 09-03-2009 08:35:42 2.5 C 3.91 g/m*3 2.5 C 0 km/h
284 09-03-2009 08:47:41 3 C 3.92 g/m*3 3 C 0 km/h
285 09-03-2009 08:59:41 3.4 C 3.97 g/m*3 3.4 C 0 km/h
286 09-03-2009 09:11:41 3.5 C 4 g/m*3 3.5 C 0 km/h
287 09-03-2009 09:23:40 3.3 C 4 g/m*3 3.3 C 0 km/h
288 09-03-2009 09:35:41 3.7 C 4.11 g/m*3 3.7 C 0 km/h
289 09-03-2009 09:47:40 4.2 C 3.99 g/m*3 4.2 C 0 km/h
290 09-03-2009 09:59:40 4.5 C 4.01 g/m*3 4.5 C 0 km/h
291 09-03-2009 10:11:41 4.7 C 4.13 g/m*3 4.7 C 0 km/h
292 09-03-2009 10:23:40 5.1 C 3.97 g/m*3 5.1 C 0 km/h
293 09-03-2009 10:35:40 5.3 C 4.02 g/m*3 5.3 C 0 km/h
294 09-03-2009 10:47:39 5.6 C 4.03 g/m*3 5.6 C 0 km/h
295 09-03-2009 10:59:40 5.6 C 3.96 g/m*3 5.6 C 0 km/h
296 09-03-2009 11:11:40 6 C 3.92 g/m*3 6 C 0 km/h
297 09-03-2009 11:23:40 5.8 C 3.94 g/m*3 5.8 C 0 km/h
298 09-03-2009 11:35:39 6.4 C 3.95 g/m*3 6.4 C 0 km/h
299 09-03-2009 11:47:40 6.1 C 3.8 g/m*3 6.1 C 0 km/h
300 09-03-2009 11:59:39 6.5 C 3.97 g/m*3 6.5 C 0 km/h
Sensor: Nr:Datum:Temp:Abs-Feuchte:Windchill:Wind:
Aussen-T/F 301 09-03-2009 12:11:39 7.2 C 3.92 g/m*3 7.2 C 0 km/h
302 09-03-2009 12:23:39 7 C 3.56 g/m*3 7 C 0 km/h
303 09-03-2009 12:35:38 7 C 3.64 g/m*3 7 C 0 km/h
304 09-03-2009 12:47:39 7.2 C 3.69 g/m*3 7.2 C 0 km/h
305 09-03-2009 12:59:39 7.7 C 3.49 g/m*3 7.7 C 0 km/h
306 09-03-2009 13:11:39 7.7 C 3.49 g/m*3 7.7 C 0 km/h
307 09-03-2009 13:23:38 7.4 C 3.42 g/m*3 7.4 C 0 km/h
308 09-03-2009 13:35:39 7.5 C 3.52 g/m*3 7.5 C 0 km/h
309 09-03-2009 13:47:38 7.7 C 3.24 g/m*3 7.7 C 0 km/h
310 09-03-2009 13:59:38 8 C 3.22 g/m*3 8 C 0 km/h
311 09-03-2009 14:11:38 7.7 C 3.24 g/m*3 7.7 C 0 km/h
312 09-03-2009 14:23:38 8.2 C 3.35 g/m*3 8.2 C 0 km/h
313 09-03-2009 14:35:38 8.4 C 3.48 g/m*3 8.4 C 0 km/h
314 09-03-2009 14:47:37 8.3 C 3.46 g/m*3 8.3 C 0 km/h
315 09-03-2009 14:59:38 7.2 C 3.69 g/m*3 7.2 C 0 km/h
316 09-03-2009 15:11:38 6.3 C 4 g/m*3 6.3 C 0 km/h
317 09-03-2009 15:23:37 6.9 C 4.16 g/m*3 6.9 C 0 km/h
318 09-03-2009 15:35:37 8.1 C 3.83 g/m*3 8.1 C 0 km/h
319 09-03-2009 15:47:38 8.7 C 3.63 g/m*3 8.7 C 0 km/h
320 09-03-2009 15:59:37 8.6 C 3.52 g/m*3 8.6 C 0 km/h
321 09-03-2009 16:11:37 9.5 C 3.55 g/m*3 9.5 C 0 km/h
322 09-03-2009 16:23:37 8.7 C 3.55 g/m*3 8.7 C 0 km/h
323 09-03-2009 16:35:36 8.7 C 3.72 g/m*3 8.7 C 0 km/h
324 09-03-2009 16:47:37 8.8 C 3.74 g/m*3 8.8 C 0 km/h
325 09-03-2009 16:59:36 9.1 C 3.37 g/m*3 9.1 C 0 km/h
Sensor: Nr:Datum:Temp:Abs-Feuchte:Windchill:Wind:
Aussen-T/F 326 09-03-2009 17:11:36 8.3 C 3.37 g/m*3 8.3 C 0 km/h
327 09-03-2009 17:23:36 8 C 3.47 g/m*3 8 C 0 km/h
328 09-03-2009 17:35:37 7.9 C 3.61 g/m*3 7.9 C 0 km/h
329 09-03-2009 17:47:36 7.5 C 3.68 g/m*3 7.5 C 0 km/h
330 09-03-2009 17:59:36 7.4 C 3.66 g/m*3 7.4 C 0 km/h
331 09-03-2009 18:11:36 7.4 C 3.74 g/m*3 7.4 C 0 km/h
332 09-03-2009 18:23:36 7.3 C 3.71 g/m*3 7.3 C 0 km/h
333 09-03-2009 18:35:36 7 C 3.87 g/m*3 7 C 0 km/h
334 09-03-2009 18:47:35 6.7 C 4.1 g/m*3 6.7 C 0 km/h
335 09-03-2009 18:59:35 6.4 C 4.17 g/m*3 6.4 C 0 km/h
336 09-03-2009 19:11:35 6.4 C 4.1 g/m*3 6.4 C 0 km/h
337 09-03-2009 19:23:35 6.2 C 3.82 g/m*3 6.2 C 0 km/h
338 09-03-2009 19:35:35 6 C 3.85 g/m*3 6 C 0 km/h
339 09-03-2009 19:47:34 5.8 C 4.01 g/m*3 5.8 C 0 km/h
340 09-03-2009 19:59:35 5.8 C 4.08 g/m*3 5.8 C 0 km/h
341 09-03-2009 20:11:35 5.8 C 4.23 g/m*3 5.8 C 0 km/h
342 09-03-2009 20:23:35 5.5 C 4.28 g/m*3 5.5 C 0 km/h
343 09-03-2009 20:35:34 5.2 C 4.34 g/m*3 5.2 C 0 km/h
344 09-03-2009 20:47:35 4.9 C 4.46 g/m*3 4.9 C 0 km/h
345 09-03-2009 20:59:34 4.8 C 4.56 g/m*3 4.8 C 0 km/h
346 09-03-2009 21:11:34 4.6 C 4.57 g/m*3 4.6 C 0 km/h
347 09-03-2009 21:23:34 4.4 C 4.64 g/m*3 4.4 C 0 km/h
348 09-03-2009 21:35:34 4 C 4.77 g/m*3 4 C 0 km/h
349 09-03-2009 21:48:35 3.8 C 4.89 g/m*3 3.8 C 0 km/h
350 09-03-2009 22:00:35 3.8 C 4.89 g/m*3 3.8 C 0 km/h
Sensor: Nr:Datum:Temp:Abs-Feuchte:Windchill:Wind:
Aussen-T/F 351 09-03-2009 22:12:35 4.1 C 4.86 g/m*3 4.1 C 0 km/h
352 09-03-2009 22:24:35 3.7 C 4.8 g/m*3 3.7 C 0 km/h
353 09-03-2009 22:36:35 4 C 4.58 g/m*3 4 C 0 km/h
354 09-03-2009 22:48:35 3.9 C 4.61 g/m*3 3.9 C 0 km/h
355 09-03-2009 23:00:35 3.7 C 4.61 g/m*3 3.7 C 0 km/h
356 09-03-2009 23:12:35 3.5 C 4.61 g/m*3 3.5 C 0 km/h
357 09-03-2009 23:24:35 3.3 C 4.67 g/m*3 3.3 C 0 km/h
358 09-03-2009 23:36:35 3.2 C 4.7 g/m*3 3.2 C 0 km/h
359 09-03-2009 23:48:35 3.4 C 4.83 g/m*3 3.4 C 0 km/h
360 10-03-2009 00:00:35 3.4 C 4.83 g/m*3 3.4 C 0 km/h
361 10-03-2009 00:12:35 3.3 C 4.79 g/m*3 3.3 C 0 km/h
362 10-03-2009 00:24:35 3.4 C 4.89 g/m*3 3.4 C 0 km/h
363 10-03-2009 00:36:35 3.7 C 4.92 g/m*3 3.7 C 0 km/h
364 10-03-2009 00:48:35 3.9 C 4.86 g/m*3 3.9 C 0 km/h
365 10-03-2009 01:00:35 4.1 C 4.8 g/m*3 4.1 C 0 km/h
366 10-03-2009 01:12:35 4.2 C 4.77 g/m*3 4.2 C 0 km/h
367 10-03-2009 01:24:36 4.3 C 4.67 g/m*3 4.3 C 0 km/h
368 10-03-2009 01:36:36 4.3 C 4.67 g/m*3 4.3 C 0 km/h
369 10-03-2009 01:48:36 4.4 C 4.64 g/m*3 4.4 C 0 km/h
370 10-03-2009 02:00:36 4.5 C 4.6 g/m*3 4.5 C 0 km/h
371 10-03-2009 02:12:36 4.4 C 4.64 g/m*3 4.4 C 0 km/h
372 10-03-2009 02:24:36 4.6 C 4.57 g/m*3 4.6 C 0 km/h
373 10-03-2009 02:36:36 4.7 C 4.46 g/m*3 4.7 C 0 km/h
374 10-03-2009 02:48:36 4.7 C 4.4 g/m*3 4.7 C 0 km/h
375 10-03-2009 03:00:36 4.7 C 4.4 g/m*3 4.7 C 0 km/h
Sensor: Nr:Datum:Temp:Abs-Feuchte:Windchill:Wind:
Aussen-T/F 376 10-03-2009 03:12:36 4.5 C 4.4 g/m*3 4.5 C 0 km/h
377 10-03-2009 03:24:36 4.5 C 4.4 g/m*3 4.5 C 0 km/h
378 10-03-2009 03:36:36 4.5 C 4.4 g/m*3 4.5 C 0 km/h
379 10-03-2009 03:48:36 4.5 C 4.47 g/m*3 4.5 C 0 km/h
380 10-03-2009 04:00:36 4.6 C 4.43 g/m*3 4.6 C 0 km/h
381 10-03-2009 04:12:36 4.5 C 4.4 g/m*3 4.5 C 0 km/h
382 10-03-2009 04:24:36 4.6 C 4.43 g/m*3 4.6 C 0 km/h
383 10-03-2009 04:36:36 4.5 C 4.4 g/m*3 4.5 C 0 km/h
384 10-03-2009 04:48:36 4.4 C 4.44 g/m*3 4.4 C 0 km/h
385 10-03-2009 05:00:36 4.4 C 4.37 g/m*3 4.4 C 0 km/h
386 10-03-2009 05:12:37 4.4 C 4.44 g/m*3 4.4 C 0 km/h
387 10-03-2009 05:24:37 4.4 C 4.44 g/m*3 4.4 C 0 km/h
388 10-03-2009 05:36:37 4.3 C 4.48 g/m*3 4.3 C 0 km/h
389 10-03-2009 05:48:37 4.3 C 4.54 g/m*3 4.3 C 0 km/h
390 10-03-2009 06:00:37 4.3 C 4.61 g/m*3 4.3 C 0 km/h
391 10-03-2009 06:12:37 4.1 C 4.61 g/m*3 4.1 C 0 km/h
392 10-03-2009 06:24:37 4.2 C 4.64 g/m*3 4.2 C 0 km/h
393 10-03-2009 06:36:37 4.2 C 4.64 g/m*3 4.2 C 0 km/h
394 10-03-2009 06:48:37 4.3 C 4.67 g/m*3 4.3 C 0 km/h
395 10-03-2009 07:00:35 4.3 C 4.61 g/m*3 4.3 C 0 km/h
396 10-03-2009 07:12:35 4.3 C 4.61 g/m*3 4.3 C 0 km/h
397 10-03-2009 07:24:34 4.2 C 4.64 g/m*3 4.2 C 0 km/h
398 10-03-2009 07:36:35 4.2 C 4.64 g/m*3 4.2 C 0 km/h
399 10-03-2009 07:48:34 4.3 C 4.74 g/m*3 4.3 C 0 km/h
400 10-03-2009 08:00:34 4.5 C 4.73 g/m*3 4.5 C 0 km/h
Sensor: Nr:Datum:Temp:Abs-Feuchte:Windchill:Wind:
Aussen-T/F 401 10-03-2009 08:12:34 4.7 C 4.73 g/m*3 4.7 C 0 km/h
402 10-03-2009 08:24:35 4.8 C 4.76 g/m*3 4.8 C 0 km/h
403 10-03-2009 08:36:34 4.9 C 4.73 g/m*3 4.9 C 0 km/h
404 10-03-2009 08:48:34 5 C 4.69 g/m*3 5 C 0 km/h
405 10-03-2009 09:00:33 5 C 4.69 g/m*3 5 C 0 km/h
406 10-03-2009 09:12:33 5.2 C 4.75 g/m*3 5.2 C 0 km/h
407 10-03-2009 09:24:34 5.2 C 4.68 g/m*3 5.2 C 0 km/h
408 10-03-2009 09:36:34 5.3 C 4.64 g/m*3 5.3 C 0 km/h
409 10-03-2009 09:48:33 5.3 C 4.64 g/m*3 5.3 C 0 km/h
410 10-03-2009 10:00:34 5.4 C 4.6 g/m*3 5.4 C 0 km/h
411 10-03-2009 10:12:34 5.5 C 4.64 g/m*3 5.5 C 0 km/h
412 10-03-2009 10:24:33 5.6 C 4.67 g/m*3 5.6 C 0 km/h
413 10-03-2009 10:36:33 5.7 C 4.63 g/m*3 5.7 C 0 km/h
414 10-03-2009 10:48:33 5.9 C 4.69 g/m*3 5.9 C 0 km/h
415 10-03-2009 11:00:33 6.1 C 4.6 g/m*3 6.1 C 0 km/h
416 10-03-2009 11:12:33 6.3 C 4.59 g/m*3 6.3 C 0 km/h
417 10-03-2009 11:24:32 6.4 C 4.62 g/m*3 6.4 C 0 km/h
418 10-03-2009 11:36:33 6.3 C 4.66 g/m*3 6.3 C 0 km/h
419 10-03-2009 11:48:32 6.3 C 4.66 g/m*3 6.3 C 0 km/h
420 10-03-2009 12:00:32 6.4 C 4.69 g/m*3 6.4 C 0 km/h
421 10-03-2009 12:12:32 6.5 C 4.65 g/m*3 6.5 C 0 km/h
422 10-03-2009 12:24:32 6.6 C 4.6 g/m*3 6.6 C 0 km/h
423 10-03-2009 12:36:32 6.5 C 4.57 g/m*3 6.5 C 0 km/h
424 10-03-2009 12:48:32 6.5 C 4.57 g/m*3 6.5 C 0 km/h
425 10-03-2009 13:00:31 6.6 C 4.6 g/m*3 6.6 C 0 km/h
Sensor: Nr:Datum:Temp:Abs-Feuchte:Windchill:Wind:
Aussen-T/F 426 10-03-2009 13:12:31 6.7 C 4.64 g/m*3 6.7 C 0 km/h
427 10-03-2009 13:24:32 6.8 C 4.67 g/m*3 6.8 C 0 km/h
428 10-03-2009 13:36:31 6.8 C 4.67 g/m*3 6.8 C 0 km/h
429 10-03-2009 13:48:31 7 C 4.65 g/m*3 7 C 0 km/h
430 10-03-2009 14:00:31 7.1 C 4.6 g/m*3 7.1 C 0 km/h
431 10-03-2009 14:12:31 7.1 C 4.52 g/m*3 7.1 C 0 km/h
432 10-03-2009 14:24:31 7.1 C 4.6 g/m*3 7.1 C 0 km/h
433 10-03-2009 14:36:31 6.9 C 4.7 g/m*3 6.9 C 0 km/h
434 10-03-2009 14:48:31 6.8 C 4.74 g/m*3 6.8 C 0 km/h
435 10-03-2009 15:00:31 6.8 C 4.67 g/m*3 6.8 C 0 km/h
436 10-03-2009 15:12:31 6.8 C 4.67 g/m*3 6.8 C 0 km/h
437 10-03-2009 15:24:30 6.6 C 4.6 g/m*3 6.6 C 0 km/h
438 10-03-2009 15:36:30 6.4 C 4.62 g/m*3 6.4 C 0 km/h
439 10-03-2009 15:48:30 6.4 C 4.55 g/m*3 6.4 C 0 km/h
440 10-03-2009 16:00:30 6.4 C 4.32 g/m*3 6.4 C 0 km/h
441 10-03-2009 16:12:30 6.4 C 4.47 g/m*3 6.4 C 0 km/h
442 10-03-2009 16:24:29 5.9 C 4.47 g/m*3 5.9 C 0 km/h
443 10-03-2009 16:36:30 5.7 C 4.7 g/m*3 5.7 C 0 km/h
444 10-03-2009 16:48:30 5.4 C 4.74 g/m*3 5.4 C 0 km/h
445 10-03-2009 17:00:29 5.6 C 4.88 g/m*3 5.6 C 0 km/h
446 10-03-2009 17:12:29 5.6 C 4.81 g/m*3 5.6 C 0 km/h
447 10-03-2009 17:24:30 5.8 C 4.87 g/m*3 5.8 C 0 km/h
448 10-03-2009 17:36:29 5.7 C 4.91 g/m*3 5.7 C 0 km/h
449 10-03-2009 17:48:29 5.7 C 4.91 g/m*3 5.7 C 0 km/h
450 10-03-2009 18:00:28 5.8 C 5.01 g/m*3 5.8 C 0 km/h
Sensor: Nr:Datum:Temp:Abs-Feuchte:Windchill:Wind:
Aussen-T/F 451 10-03-2009 18:12:28 5.7 C 5.05 g/m*3 5.7 C 0 km/h
452 10-03-2009 18:24:29 5.8 C 5.09 g/m*3 5.8 C 0 km/h
453 10-03-2009 18:36:29 5.8 C 5.09 g/m*3 5.8 C 0 km/h
454 10-03-2009 18:48:28 5.9 C 5.19 g/m*3 5.9 C 0 km/h
455 10-03-2009 19:00:29 6 C 5.15 g/m*3 6 C 0 km/h
456 10-03-2009 19:12:29 6 C 5.23 g/m*3 6 C 0 km/h
457 10-03-2009 19:24:28 6 C 5.3 g/m*3 6 C 0 km/h
458 10-03-2009 19:36:28 6 C 5.37 g/m*3 6 C 0 km/h
459 10-03-2009 19:48:28 5.8 C 5.73 g/m*3 5.8 C 0 km/h
460 10-03-2009 20:00:28 5.8 C 5.87 g/m*3 5.8 C 0 km/h
461 10-03-2009 20:12:28 5.8 C 5.95 g/m*3 5.8 C 0 km/h
462 10-03-2009 20:24:27 5.9 C 5.98 g/m*3 5.9 C 0 km/h
463 10-03-2009 20:36:27 6.5 C 5.92 g/m*3 6.5 C 0 km/h
464 10-03-2009 20:48:27 6.9 C 5.62 g/m*3 6.9 C 0 km/h
465 10-03-2009 21:00:27 7.2 C 5.34 g/m*3 7.2 C 0 km/h
466 10-03-2009 21:12:27 7.3 C 5.21 g/m*3 7.3 C 0 km/h
467 10-03-2009 21:24:27 7.3 C 5.21 g/m*3 7.3 C 0 km/h
468 10-03-2009 21:36:27 6.8 C 5.51 g/m*3 6.8 C 0 km/h
469 10-03-2009 21:49:28 6.2 C 5.44 g/m*3 6.2 C 0 km/h
470 10-03-2009 22:01:28 5.7 C 5.34 g/m*3 5.7 C 0 km/h
471 10-03-2009 22:13:28 5.6 C 5.3 g/m*3 5.6 C 0 km/h
472 10-03-2009 22:25:28 5.4 C 5.37 g/m*3 5.4 C 0 km/h
473 10-03-2009 22:37:28 5.3 C 5.34 g/m*3 5.3 C 0 km/h
474 10-03-2009 22:49:28 5.2 C 5.51 g/m*3 5.2 C 0 km/h
475 10-03-2009 23:01:28 5.1 C 5.47 g/m*3 5.1 C 0 km/h
Sensor: Nr:Datum:Temp:Abs-Feuchte:Windchill:Wind:
Aussen-T/F 476 10-03-2009 23:13:28 5.1 C 5.47 g/m*3 5.1 C 0 km/h
477 10-03-2009 23:25:28 5.2 C 5.37 g/m*3 5.2 C 0 km/h
478 10-03-2009 23:37:28 5.4 C 5.02 g/m*3 5.4 C 0 km/h
479 10-03-2009 23:49:28 5.4 C 4.81 g/m*3 5.4 C 0 km/h
480 11-03-2009 00:01:28 5.5 C 4.64 g/m*3 5.5 C 0 km/h
481 11-03-2009 00:13:28 5.5 C 4.78 g/m*3 5.5 C 0 km/h
482 11-03-2009 00:25:28 5.3 C 4.78 g/m*3 5.3 C 0 km/h
483 11-03-2009 00:37:28 5.1 C 4.72 g/m*3 5.1 C 0 km/h
484 11-03-2009 00:49:28 5 C 4.69 g/m*3 5 C 0 km/h
485 11-03-2009 01:01:28 4.8 C 4.69 g/m*3 4.8 C 0 km/h
486 11-03-2009 01:13:29 4.8 C 4.69 g/m*3 4.8 C 0 km/h
487 11-03-2009 01:25:29 4.9 C 4.66 g/m*3 4.9 C 0 km/h
488 11-03-2009 01:37:29 4.9 C 4.66 g/m*3 4.9 C 0 km/h
489 11-03-2009 01:49:29 4.8 C 4.63 g/m*3 4.8 C 0 km/h
490 11-03-2009 02:01:29 4.9 C 4.59 g/m*3 4.9 C 0 km/h
491 11-03-2009 02:13:29 5 C 4.48 g/m*3 5 C 0 km/h
492 11-03-2009 02:25:29 4.9 C 4.52 g/m*3 4.9 C 0 km/h
493 11-03-2009 02:37:29 4.9 C 4.59 g/m*3 4.9 C 0 km/h
494 11-03-2009 02:49:29 4.8 C 4.56 g/m*3 4.8 C 0 km/h
495 11-03-2009 03:01:29 4.6 C 4.5 g/m*3 4.6 C 0 km/h
496 11-03-2009 03:13:29 4.5 C 4.54 g/m*3 4.5 C 0 km/h
497 11-03-2009 03:25:29 4.5 C 4.54 g/m*3 4.5 C 0 km/h
498 11-03-2009 03:37:29 4.6 C 4.57 g/m*3 4.6 C 0 km/h
499 11-03-2009 03:49:29 4.7 C 4.46 g/m*3 4.7 C 0 km/h
500 11-03-2009 04:01:29 4.7 C 4.46 g/m*3 4.7 C 0 km/h
Sensor: Nr:Datum:Temp:Abs-Feuchte:Windchill:Wind:
Aussen-T/F 501 11-03-2009 04:13:29 4.7 C 4.4 g/m*3 4.7 C 0 km/h
502 11-03-2009 04:25:29 4.7 C 4.33 g/m*3 4.7 C 0 km/h
503 11-03-2009 04:37:29 4.7 C 4.33 g/m*3 4.7 C 0 km/h
504 11-03-2009 04:49:29 4.7 C 4.33 g/m*3 4.7 C 0 km/h
505 11-03-2009 05:01:30 4.7 C 4.26 g/m*3 4.7 C 0 km/h
506 11-03-2009 05:13:30 4.6 C 4.23 g/m*3 4.6 C 0 km/h
507 11-03-2009 05:25:30 4.6 C 4.23 g/m*3 4.6 C 0 km/h
508 11-03-2009 05:37:30 4.6 C 4.17 g/m*3 4.6 C 0 km/h
509 11-03-2009 05:49:30 4.6 C 4.17 g/m*3 4.6 C 0 km/h
510 11-03-2009 06:01:30 4.6 C 4.1 g/m*3 4.6 C 0 km/h
511 11-03-2009 06:13:30 4.1 C 4.22 g/m*3 4.1 C 0 km/h
512 11-03-2009 06:25:30 3.9 C 4.55 g/m*3 3.9 C 0 km/h
513 11-03-2009 06:37:30 3.6 C 4.7 g/m*3 3.6 C 0 km/h
514 11-03-2009 06:49:30 3.6 C 4.83 g/m*3 3.6 C 0 km/h
515 11-03-2009 07:01:27 3.7 C 4.86 g/m*3 3.7 C 0 km/h
516 11-03-2009 07:13:28 3.9 C 4.86 g/m*3 3.9 C 0 km/h
517 11-03-2009 07:25:28 3.9 C 4.86 g/m*3 3.9 C 0 km/h
518 11-03-2009 07:37:27 3.8 C 4.89 g/m*3 3.8 C 0 km/h
519 11-03-2009 07:49:27 4 C 4.83 g/m*3 4 C 0 km/h
520 11-03-2009 08:01:27 4.3 C 4.74 g/m*3 4.3 C 0 km/h
521 11-03-2009 08:13:27 4.5 C 4.6 g/m*3 4.5 C 0 km/h
522 11-03-2009 08:25:27 4.5 C 4.6 g/m*3 4.5 C 0 km/h
523 11-03-2009 08:37:26 4.7 C 4.6 g/m*3 4.7 C 0 km/h
524 11-03-2009 08:49:27 4.9 C 4.59 g/m*3 4.9 C 0 km/h
525 11-03-2009 09:01:26 4.8 C 4.69 g/m*3 4.8 C 0 km/h
Sensor: Nr:Datum:Temp:Abs-Feuchte:Windchill:Wind:
Aussen-T/F 526 11-03-2009 09:13:26 4.6 C 4.83 g/m*3 4.6 C 0 km/h
527 11-03-2009 09:25:26 4.6 C 4.83 g/m*3 4.6 C 0 km/h
528 11-03-2009 09:37:26 4.8 C 4.9 g/m*3 4.8 C 0 km/h
529 11-03-2009 09:49:26 4.9 C 4.93 g/m*3 4.9 C 0 km/h
530 11-03-2009 10:01:25 4.9 C 4.79 g/m*3 4.9 C 0 km/h
531 11-03-2009 10:13:26 5 C 4.69 g/m*3 5 C 0 km/h
532 11-03-2009 10:25:26 4.8 C 4.69 g/m*3 4.8 C 0 km/h
533 11-03-2009 10:37:25 4.8 C 4.69 g/m*3 4.8 C 0 km/h
534 11-03-2009 10:49:25 4.8 C 4.63 g/m*3 4.8 C 0 km/h
535 11-03-2009 11:01:26 5.2 C 4.54 g/m*3 5.2 C 0 km/h
536 11-03-2009 11:13:25 5.2 C 4.54 g/m*3 5.2 C 0 km/h
537 11-03-2009 11:25:25 5.2 C 4.48 g/m*3 5.2 C 0 km/h
538 11-03-2009 11:37:25 5.4 C 4.47 g/m*3 5.4 C 0 km/h
539 11-03-2009 11:49:25 5.9 C 4.54 g/m*3 5.9 C 0 km/h
540 11-03-2009 12:01:25 6.7 C 4.33 g/m*3 6.7 C 0 km/h
541 11-03-2009 12:13:24 7.1 C 4.21 g/m*3 7.1 C 0 km/h
542 11-03-2009 12:25:24 7.4 C 4.29 g/m*3 7.4 C 0 km/h
543 11-03-2009 12:37:24 7.3 C 3.95 g/m*3 7.3 C 0 km/h
544 11-03-2009 12:49:24 7.4 C 4.06 g/m*3 7.4 C 0 km/h
545 11-03-2009 13:01:24 7.1 C 4.06 g/m*3 7.1 C 0 km/h
546 11-03-2009 13:13:24 6.2 C 4.63 g/m*3 6.2 C 0 km/h
547 11-03-2009 13:25:24 6.5 C 4.87 g/m*3 6.5 C 0 km/h
548 11-03-2009 13:37:24 7.3 C 4.82 g/m*3 7.3 C 0 km/h
549 11-03-2009 13:49:24 7.9 C 4.19 g/m*3 7.9 C 0 km/h
550 11-03-2009 14:01:23 8 C 3.72 g/m*3 8 C 0 km/h
Sensor: Nr:Datum:Temp:Abs-Feuchte:Windchill:Wind:
Aussen-T/F 551 11-03-2009 14:13:24 8.1 C 3.91 g/m*3 8.1 C 0 km/h
552 11-03-2009 14:25:24 7.6 C 3.79 g/m*3 7.6 C 0 km/h
553 11-03-2009 14:37:23 8.5 C 3.5 g/m*3 8.5 C 0 km/h
554 11-03-2009 14:49:23 8.5 C 3.42 g/m*3 8.5 C 0 km/h
555 11-03-2009 15:01:23 8.6 C 3.52 g/m*3 8.6 C 0 km/h
556 11-03-2009 15:13:23 9.3 C 3.5 g/m*3 9.3 C 0 km/h
557 11-03-2009 15:25:23 9.4 C 3.62 g/m*3 9.4 C 0 km/h
558 11-03-2009 15:37:23 9.7 C 3.69 g/m*3 9.7 C 0 km/h
559 11-03-2009 15:49:22 9.1 C 3.64 g/m*3 9.1 C 0 km/h
560 11-03-2009 16:01:23 8.5 C 3.59 g/m*3 8.5 C 0 km/h
561 11-03-2009 16:13:22 8.4 C 3.73 g/m*3 8.4 C 0 km/h
562 11-03-2009 16:25:22 8.5 C 3.84 g/m*3 8.5 C 0 km/h
563 11-03-2009 16:37:22 8.6 C 3.95 g/m*3 8.6 C 0 km/h
564 11-03-2009 16:49:22 8.3 C 3.88 g/m*3 8.3 C 0 km/h
565 11-03-2009 17:01:22 9.1 C 4.08 g/m*3 9.1 C 0 km/h
566 11-03-2009 17:13:21 8.5 C 3.67 g/m*3 8.5 C 0 km/h
567 11-03-2009 17:25:21 8.4 C 3.82 g/m*3 8.4 C 0 km/h
568 11-03-2009 17:37:22 8.3 C 3.71 g/m*3 8.3 C 0 km/h
569 11-03-2009 17:49:21 8.3 C 3.71 g/m*3 8.3 C 0 km/h
570 11-03-2009 18:01:21 8.1 C 3.66 g/m*3 8.1 C 0 km/h
571 11-03-2009 18:13:22 7.6 C 3.79 g/m*3 7.6 C 0 km/h
572 11-03-2009 18:25:22 7.1 C 3.9 g/m*3 7.1 C 0 km/h
573 11-03-2009 18:37:21 6.8 C 4.13 g/m*3 6.8 C 0 km/h
574 11-03-2009 18:49:21 6.5 C 4.12 g/m*3 6.5 C 0 km/h
575 11-03-2009 19:01:20 6.4 C 4.17 g/m*3 6.4 C 0 km/h
Sensor: Nr:Datum:Temp:Abs-Feuchte:Windchill:Wind:
Aussen-T/F 576 11-03-2009 19:13:21 6.3 C 4.22 g/m*3 6.3 C 0 km/h
577 11-03-2009 19:25:21 6.1 C 4.02 g/m*3 6.1 C 0 km/h
578 11-03-2009 19:37:20 5.8 C 4.01 g/m*3 5.8 C 0 km/h
579 11-03-2009 19:49:20 5.6 C 4.03 g/m*3 5.6 C 0 km/h
580 11-03-2009 20:01:20 5.7 C 4.06 g/m*3 5.7 C 0 km/h
581 11-03-2009 20:13:20 5.8 C 4.01 g/m*3 5.8 C 0 km/h
582 11-03-2009 20:25:20 5.5 C 4 g/m*3 5.5 C 0 km/h
583 11-03-2009 20:37:20 5.3 C 4.02 g/m*3 5.3 C 0 km/h
584 11-03-2009 20:49:20 5.1 C 4.04 g/m*3 5.1 C 0 km/h
585 11-03-2009 21:01:20 4.8 C 4.09 g/m*3 4.8 C 0 km/h
586 11-03-2009 21:13:20 4.6 C 4.1 g/m*3 4.6 C 0 km/h
587 11-03-2009 21:25:20 4.3 C 4.15 g/m*3 4.3 C 0 km/h
588 11-03-2009 21:37:19 4.2 C 4.19 g/m*3 4.2 C 0 km/h
589 11-03-2009 21:49:20 4 C 4.13 g/m*3 4 C 0 km/h
590 11-03-2009 22:02:20 4.1 C 4.16 g/m*3 4.1 C 0 km/h
591 11-03-2009 22:14:20 3.7 C 4.18 g/m*3 3.7 C 0 km/h
592 11-03-2009 22:26:20 3.5 C 4.18 g/m*3 3.5 C 0 km/h
593 11-03-2009 22:38:20 3.4 C 4.15 g/m*3 3.4 C 0 km/h
594 11-03-2009 22:50:21 3.1 C 4.13 g/m*3 3.1 C 0 km/h
595 11-03-2009 23:02:21 3.3 C 4.19 g/m*3 3.3 C 0 km/h
596 11-03-2009 23:14:21 3 C 4.16 g/m*3 3 C 0 km/h
597 11-03-2009 23:26:21 2.8 C 4.22 g/m*3 2.8 C 0 km/h
598 11-03-2009 23:38:21 2.8 C 4.28 g/m*3 2.8 C 0 km/h
599 11-03-2009 23:50:21 3.1 C 4.25 g/m*3 3.1 C 0 km/h
600 12-03-2009 00:02:21 3.4 C 4.28 g/m*3 3.4 C 0 km/h
Sensor: Nr:Datum:Temp:Abs-Feuchte:Windchill:Wind:
Aussen-T/F 601 12-03-2009 00:14:21 3.5 C 4.24 g/m*3 3.5 C 0 km/h
602 12-03-2009 00:26:21 3.5 C 4.18 g/m*3 3.5 C 0 km/h
603 12-03-2009 00:38:21 3.5 C 4.18 g/m*3 3.5 C 0 km/h
604 12-03-2009 00:50:21 3.5 C 4.18 g/m*3 3.5 C 0 km/h
605 12-03-2009 01:02:21 3.5 C 4.18 g/m*3 3.5 C 0 km/h
606 12-03-2009 01:14:21 3.4 C 4.15 g/m*3 3.4 C 0 km/h
607 12-03-2009 01:26:21 3.4 C 4.15 g/m*3 3.4 C 0 km/h
608 12-03-2009 01:38:21 3.4 C 4.21 g/m*3 3.4 C 0 km/h
609 12-03-2009 01:50:21 3.4 C 4.15 g/m*3 3.4 C 0 km/h
610 12-03-2009 02:02:21 3.5 C 4.18 g/m*3 3.5 C 0 km/h
611 12-03-2009 02:14:21 3.4 C 4.15 g/m*3 3.4 C 0 km/h
612 12-03-2009 02:26:21 3.5 C 4.18 g/m*3 3.5 C 0 km/h
613 12-03-2009 02:38:22 3.6 C 4.15 g/m*3 3.6 C 0 km/h
614 12-03-2009 02:50:22 3.6 C 4.15 g/m*3 3.6 C 0 km/h
615 12-03-2009 03:02:22 3.8 C 4.08 g/m*3 3.8 C 0 km/h
616 12-03-2009 03:14:22 3.8 C 4.02 g/m*3 3.8 C 0 km/h
617 12-03-2009 03:26:22 3.8 C 4.02 g/m*3 3.8 C 0 km/h
618 12-03-2009 03:38:22 3.9 C 4.04 g/m*3 3.9 C 0 km/h
619 12-03-2009 03:50:22 4.1 C 3.9 g/m*3 4.1 C 0 km/h
620 12-03-2009 04:02:22 4 C 3.94 g/m*3 4 C 0 km/h
621 12-03-2009 04:14:22 4 C 3.94 g/m*3 4 C 0 km/h
622 12-03-2009 04:26:22 4.1 C 3.97 g/m*3 4.1 C 0 km/h
623 12-03-2009 04:38:22 4.2 C 3.93 g/m*3 4.2 C 0 km/h
624 12-03-2009 04:50:22 4.2 C 3.93 g/m*3 4.2 C 0 km/h
625 12-03-2009 05:02:22 4.4 C 3.92 g/m*3 4.4 C 0 km/h
Sensor: Nr:Datum:Temp:Abs-Feuchte:Windchill:Wind:
Aussen-T/F 626 12-03-2009 05:14:22 4.3 C 3.89 g/m*3 4.3 C 0 km/h
627 12-03-2009 05:26:22 4.5 C 3.81 g/m*3 4.5 C 0 km/h
628 12-03-2009 05:38:22 4.6 C 3.9 g/m*3 4.6 C 0 km/h
629 12-03-2009 05:50:22 4.4 C 3.92 g/m*3 4.4 C 0 km/h
630 12-03-2009 06:02:22 4.4 C 3.98 g/m*3 4.4 C 0 km/h
631 12-03-2009 06:14:22 4.5 C 4.01 g/m*3 4.5 C 0 km/h
632 12-03-2009 06:26:23 4.7 C 4 g/m*3 4.7 C 0 km/h
633 12-03-2009 06:38:23 4.8 C 3.96 g/m*3 4.8 C 0 km/h
634 12-03-2009 06:50:23 4.8 C 3.96 g/m*3 4.8 C 0 km/h
635 12-03-2009 07:02:20 4.7 C 3.93 g/m*3 4.7 C 0 km/h
636 12-03-2009 07:14:20 4.7 C 4 g/m*3 4.7 C 0 km/h
637 12-03-2009 07:26:20 4.7 C 4 g/m*3 4.7 C 0 km/h
638 12-03-2009 07:38:20 4.8 C 4.02 g/m*3 4.8 C 0 km/h
639 12-03-2009 07:50:19 4.9 C 3.98 g/m*3 4.9 C 0 km/h
640 12-03-2009 08:02:19 5 C 4.01 g/m*3 5 C 0 km/h
641 12-03-2009 08:14:20 5.1 C 3.97 g/m*3 5.1 C 0 km/h
642 12-03-2009 08:26:20 5.1 C 3.97 g/m*3 5.1 C 0 km/h
643 12-03-2009 08:38:19 5.2 C 3.99 g/m*3 5.2 C 0 km/h
644 12-03-2009 08:50:19 5.1 C 4.24 g/m*3 5.1 C 0 km/h
645 12-03-2009 09:02:19 5 C 4.42 g/m*3 5 C 0 km/h
646 12-03-2009 09:14:19 4.9 C 4.66 g/m*3 4.9 C 0 km/h
647 12-03-2009 09:26:19 4.8 C 4.76 g/m*3 4.8 C 0 km/h
648 12-03-2009 09:38:18 4.7 C 4.86 g/m*3 4.7 C 0 km/h
649 12-03-2009 09:50:19 4.8 C 4.83 g/m*3 4.8 C 0 km/h
650 12-03-2009 10:02:18 4.6 C 4.83 g/m*3 4.6 C 0 km/h
Sensor: Nr:Datum:Temp:Abs-Feuchte:Windchill:Wind:
Aussen-T/F 651 12-03-2009 10:14:18 4.6 C 4.9 g/m*3 4.6 C 0 km/h
652 12-03-2009 10:26:18 4.5 C 4.93 g/m*3 4.5 C 0 km/h
653 12-03-2009 10:38:18 4.7 C 4.93 g/m*3 4.7 C 0 km/h
654 12-03-2009 10:50:18 5.1 C 4.79 g/m*3 5.1 C 0 km/h
655 12-03-2009 11:02:18 5.4 C 4.74 g/m*3 5.4 C 0 km/h
656 12-03-2009 11:14:17 5.5 C 4.64 g/m*3 5.5 C 0 km/h
657 12-03-2009 11:26:17 5.5 C 4.64 g/m*3 5.5 C 0 km/h
658 12-03-2009 11:38:18 5.5 C 4.78 g/m*3 5.5 C 0 km/h
659 12-03-2009 11:50:17 5.7 C 4.7 g/m*3 5.7 C 0 km/h
660 12-03-2009 12:02:17 6.1 C 4.68 g/m*3 6.1 C 0 km/h
661 12-03-2009 12:14:18 6.5 C 4.72 g/m*3 6.5 C 0 km/h
662 12-03-2009 12:26:18 6.5 C 4.72 g/m*3 6.5 C 0 km/h
663 12-03-2009 12:38:17 6.5 C 4.8 g/m*3 6.5 C 0 km/h
664 12-03-2009 12:50:17 6.6 C 4.83 g/m*3 6.6 C 0 km/h
665 12-03-2009 13:02:16 6.7 C 4.86 g/m*3 6.7 C 0 km/h
666 12-03-2009 13:14:17 6.8 C 4.89 g/m*3 6.8 C 0 km/h
667 12-03-2009 13:26:17 6.8 C 4.89 g/m*3 6.8 C 0 km/h
668 12-03-2009 13:38:16 6.8 C 4.89 g/m*3 6.8 C 0 km/h
669 12-03-2009 13:50:17 6.9 C 4.93 g/m*3 6.9 C 0 km/h
670 12-03-2009 14:02:16 6.9 C 5 g/m*3 6.9 C 0 km/h
671 12-03-2009 14:14:16 6.8 C 5.05 g/m*3 6.8 C 0 km/h
672 12-03-2009 14:26:16 6.9 C 5.16 g/m*3 6.9 C 0 km/h
673 12-03-2009 14:38:16 6.9 C 5.16 g/m*3 6.9 C 0 km/h
674 12-03-2009 14:50:16 7 C 5.35 g/m*3 7 C 0 km/h
675 12-03-2009 15:02:16 6.8 C 5.51 g/m*3 6.8 C 0 km/h
Sensor: Nr:Datum:Temp:Abs-Feuchte:Windchill:Wind:
Aussen-T/F 676 12-03-2009 15:14:15 6.5 C 5.55 g/m*3 6.5 C 0 km/h
677 12-03-2009 15:26:15 6.4 C 5.74 g/m*3 6.4 C 0 km/h
678 12-03-2009 15:38:16 6.8 C 6.04 g/m*3 6.8 C 0 km/h
679 12-03-2009 15:50:15 6.9 C 6 g/m*3 6.9 C 0 km/h
680 12-03-2009 16:02:15 7 C 5.81 g/m*3 7 C 0 km/h
681 12-03-2009 16:14:14 7.1 C 5.85 g/m*3 7.1 C 0 km/h
682 12-03-2009 16:26:14 7.1 C 5.85 g/m*3 7.1 C 0 km/h
683 12-03-2009 16:38:15 7.2 C 5.89 g/m*3 7.2 C 0 km/h
684 12-03-2009 16:50:14 7.1 C 5.85 g/m*3 7.1 C 0 km/h
685 12-03-2009 17:02:14 7.1 C 5.85 g/m*3 7.1 C 0 km/h
686 12-03-2009 17:14:15 6.9 C 6 g/m*3 6.9 C 0 km/h
687 12-03-2009 17:26:15 6.9 C 6.16 g/m*3 6.9 C 0 km/h
688 12-03-2009 17:38:14 6.9 C 6.16 g/m*3 6.9 C 0 km/h
689 12-03-2009 17:50:14 6.9 C 6.16 g/m*3 6.9 C 0 km/h
690 12-03-2009 18:02:14 6.8 C 6.19 g/m*3 6.8 C 0 km/h
691 12-03-2009 18:14:14 6.7 C 6.31 g/m*3 6.7 C 0 km/h
692 12-03-2009 18:26:14 6.7 C 6.38 g/m*3 6.7 C 0 km/h
693 12-03-2009 18:38:14 6.7 C 6.53 g/m*3 6.7 C 0 km/h
694 12-03-2009 18:50:13 6.7 C 6.61 g/m*3 6.7 C 0 km/h
695 12-03-2009 19:02:13 6.7 C 6.69 g/m*3 6.7 C 0 km/h
696 12-03-2009 19:14:13 6.7 C 6.76 g/m*3 6.7 C 0 km/h
697 12-03-2009 19:26:13 6.9 C 6.93 g/m*3 6.9 C 0 km/h
698 12-03-2009 19:38:13 6.9 C 7.01 g/m*3 6.9 C 0 km/h
699 12-03-2009 19:50:13 7.1 C 7.02 g/m*3 7.1 C 0 km/h
700 12-03-2009 20:02:13 7.2 C 7.14 g/m*3 7.2 C 0 km/h
Sensor: Nr:Datum:Temp:Abs-Feuchte:Windchill:Wind:
Aussen-T/F 701 12-03-2009 20:14:13 7.1 C 7.1 g/m*3 7.1 C 0 km/h
702 12-03-2009 20:26:13 7.2 C 7.14 g/m*3 7.2 C 0 km/h
703 12-03-2009 20:38:12 7.1 C 7.1 g/m*3 7.1 C 0 km/h
704 12-03-2009 20:50:13 7.2 C 7.14 g/m*3 7.2 C 0 km/h
705 12-03-2009 21:02:13 7.1 C 7.1 g/m*3 7.1 C 0 km/h
706 12-03-2009 21:14:12 7.1 C 7.1 g/m*3 7.1 C 0 km/h
707 12-03-2009 21:26:12 7.1 C 7.1 g/m*3 7.1 C 0 km/h
708 12-03-2009 21:38:12 7.2 C 7.14 g/m*3 7.2 C 0 km/h
709 12-03-2009 21:50:12 7.2 C 7.14 g/m*3 7.2 C 0 km/h
710 12-03-2009 22:03:12 7.2 C 7.06 g/m*3 7.2 C 0 km/h
711 12-03-2009 22:15:12 7.2 C 7.06 g/m*3 7.2 C 0 km/h
712 12-03-2009 22:27:12 7.3 C 7.11 g/m*3 7.3 C 0 km/h
713 12-03-2009 22:39:12 7.4 C 7.08 g/m*3 7.4 C 0 km/h
714 12-03-2009 22:51:12 7.4 C 7 g/m*3 7.4 C 0 km/h
715 12-03-2009 23:03:12 7.5 C 7.04 g/m*3 7.5 C 0 km/h
716 12-03-2009 23:15:12 7.6 C 7.01 g/m*3 7.6 C 0 km/h
717 12-03-2009 23:27:12 7.7 C 6.97 g/m*3 7.7 C 0 km/h
718 12-03-2009 23:39:12 7.7 C 6.97 g/m*3 7.7 C 0 km/h
719 12-03-2009 23:51:12 7.8 C 7.02 g/m*3 7.8 C 0 km/h
720 13-03-2009 00:03:12 7.8 C 6.94 g/m*3 7.8 C 0 km/h
721 13-03-2009 00:15:12 7.8 C 7.02 g/m*3 7.8 C 0 km/h
722 13-03-2009 00:27:12 7.8 C 7.02 g/m*3 7.8 C 0 km/h
723 13-03-2009 00:39:12 7.8 C 7.02 g/m*3 7.8 C 0 km/h
724 13-03-2009 00:51:12 7.7 C 7.05 g/m*3 7.7 C 0 km/h
725 13-03-2009 01:03:12 7.7 C 7.05 g/m*3 7.7 C 0 km/h
Sensor: Nr:Datum:Temp:Abs-Feuchte:Windchill:Wind:
Aussen-T/F 726 13-03-2009 01:15:12 7.7 C 7.14 g/m*3 7.7 C 0 km/h
727 13-03-2009 01:27:12 7.6 C 7.09 g/m*3 7.6 C 0 km/h
728 13-03-2009 01:39:12 7.6 C 7.09 g/m*3 7.6 C 0 km/h
729 13-03-2009 01:51:12 7.5 C 7.12 g/m*3 7.5 C 0 km/h
730 13-03-2009 02:03:13 7.5 C 7.12 g/m*3 7.5 C 0 km/h
731 13-03-2009 02:15:13 7.5 C 7.2 g/m*3 7.5 C 0 km/h
732 13-03-2009 02:27:13 7.5 C 7.2 g/m*3 7.5 C 0 km/h
733 13-03-2009 02:39:13 7.4 C 7.16 g/m*3 7.4 C 0 km/h
734 13-03-2009 02:51:13 7.4 C 7.24 g/m*3 7.4 C 0 km/h
735 13-03-2009 03:03:13 7.3 C 7.19 g/m*3 7.3 C 0 km/h
736 13-03-2009 03:15:13 7.5 C 7.28 g/m*3 7.5 C 0 km/h
737 13-03-2009 03:27:13 7.5 C 7.12 g/m*3 7.5 C 0 km/h
738 13-03-2009 03:39:13 7.4 C 7 g/m*3 7.4 C 0 km/h
739 13-03-2009 03:51:13 7.3 C 6.87 g/m*3 7.3 C 0 km/h
740 13-03-2009 04:03:13 7.3 C 6.79 g/m*3 7.3 C 0 km/h
741 13-03-2009 04:15:13 7.3 C 6.87 g/m*3 7.3 C 0 km/h
742 13-03-2009 04:27:13 7.3 C 6.87 g/m*3 7.3 C 0 km/h
743 13-03-2009 04:39:13 7.1 C 6.79 g/m*3 7.1 C 0 km/h
744 13-03-2009 04:51:13 7.2 C 6.75 g/m*3 7.2 C 0 km/h
745 13-03-2009 05:03:13 7.3 C 6.72 g/m*3 7.3 C 0 km/h
746 13-03-2009 05:15:13 6.9 C 6.47 g/m*3 6.9 C 0 km/h
747 13-03-2009 05:27:13 6.6 C 6.42 g/m*3 6.6 C 0 km/h
748 13-03-2009 05:39:13 6.3 C 6.29 g/m*3 6.3 C 0 km/h
749 13-03-2009 05:51:14 6.1 C 6.28 g/m*3 6.1 C 0 km/h
750 13-03-2009 06:03:14 5.9 C 6.27 g/m*3 5.9 C 0 km/h
Sensor: Nr:Datum:Temp:Abs-Feuchte:Windchill:Wind:
Aussen-T/F 751 13-03-2009 06:15:14 5.7 C 6.19 g/m*3 5.7 C 0 km/h
752 13-03-2009 06:27:14 5.6 C 6.22 g/m*3 5.6 C 0 km/h
753 13-03-2009 06:39:14 5.5 C 6.18 g/m*3 5.5 C 0 km/h
754 13-03-2009 06:51:14 5.4 C 6.14 g/m*3 5.4 C 0 km/h
755 13-03-2009 07:03:12 5.4 C 6.14 g/m*3 5.4 C 0 km/h
756 13-03-2009 07:15:12 5.4 C 6.21 g/m*3 5.4 C 0 km/h
757 13-03-2009 07:27:12 5.4 C 6.21 g/m*3 5.4 C 0 km/h
758 13-03-2009 07:39:12 5.4 C 6.21 g/m*3 5.4 C 0 km/h
759 13-03-2009 07:51:12 5.5 C 6.25 g/m*3 5.5 C 0 km/h
760 13-03-2009 08:03:11 5.7 C 6.33 g/m*3 5.7 C 0 km/h
761 13-03-2009 08:15:12 5.9 C 6.49 g/m*3 5.9 C 0 km/h
762 13-03-2009 08:27:12 5.9 C 6.49 g/m*3 5.9 C 0 km/h
763 13-03-2009 08:39:11 5.9 C 6.49 g/m*3 5.9 C 0 km/h
764 13-03-2009 08:51:11 5.9 C 6.42 g/m*3 5.9 C 0 km/h
765 13-03-2009 09:03:11 5.9 C 6.42 g/m*3 5.9 C 0 km/h
766 13-03-2009 09:15:11 6.4 C 6.63 g/m*3 6.4 C 0 km/h
767 13-03-2009 09:27:11 7.3 C 7.11 g/m*3 7.3 C 0 km/h
768 13-03-2009 09:39:11 7.4 C 6.84 g/m*3 7.4 C 0 km/h
769 13-03-2009 09:51:10 8 C 6.78 g/m*3 8 C 0 km/h
770 13-03-2009 10:03:11 8.6 C 6.7 g/m*3 8.6 C 0 km/h
771 13-03-2009 10:15:10 8.8 C 6.35 g/m*3 8.8 C 0 km/h
772 13-03-2009 10:27:10 9.3 C 5.84 g/m*3 9.3 C 0 km/h
773 13-03-2009 10:39:10 9.5 C 5.73 g/m*3 9.5 C 0 km/h
774 13-03-2009 10:51:10 9.7 C 5.53 g/m*3 9.7 C 0 km/h
775 13-03-2009 11:03:10 10 C 5.54 g/m*3 10 C 0 km/h
Sensor: Nr:Datum:Temp:Abs-Feuchte:Windchill:Wind:
Aussen-T/F 776 13-03-2009 11:15:10 10.3 C 5.36 g/m*3 10.3 C 0 km/h
777 13-03-2009 11:27:10 10.2 C 5.23 g/m*3 10.2 C 0 km/h
778 13-03-2009 11:39:09 10.7 C 5.5 g/m*3 10.7 C 0 km/h
779 13-03-2009 11:51:10 11.7 C 5.12 g/m*3 11.7 C 0 km/h
780 13-03-2009 12:03:09 11.6 C 4.89 g/m*3 11.6 C 0 km/h
781 13-03-2009 12:15:09 11.9 C 4.77 g/m*3 11.9 C 0 km/h
782 13-03-2009 12:27:10 11.3 C 4.49 g/m*3 11.3 C 0 km/h
783 13-03-2009 12:39:09 10.9 C 4.28 g/m*3 10.9 C 0 km/h
784 13-03-2009 12:51:09 11.7 C 4.81 g/m*3 11.7 C 0 km/h
785 13-03-2009 13:03:08 11.9 C 4.24 g/m*3 11.9 C 0 km/h
786 13-03-2009 13:15:09 11.8 C 4.32 g/m*3 11.8 C 0 km/h
787 13-03-2009 13:27:09 12.1 C 3.75 g/m*3 12.1 C 0 km/h
788 13-03-2009 13:39:09 12.5 C 3.85 g/m*3 12.5 C 0 km/h
789 13-03-2009 13:51:08 14.1 C 3.88 g/m*3 14.1 C 0 km/h
790 13-03-2009 14:03:09 13.9 C 3.72 g/m*3 13.9 C 0 km/h
791 13-03-2009 14:15:08 13.1 C 3.65 g/m*3 13.1 C 0 km/h
792 13-03-2009 14:27:08 13.2 C 3.44 g/m*3 13.2 C 0 km/h
793 13-03-2009 14:39:08 13.4 C 3.49 g/m*3 13.4 C 0 km/h
794 13-03-2009 14:51:07 13.6 C 3.65 g/m*3 13.6 C 0 km/h
795 13-03-2009 15:03:08 14 C 3.5 g/m*3 14 C 0 km/h
796 13-03-2009 15:15:08 13.7 C 3.32 g/m*3 13.7 C 0 km/h
797 13-03-2009 15:27:08 13.9 C 3.48 g/m*3 13.9 C 0 km/h
798 13-03-2009 15:39:07 14.1 C 3.52 g/m*3 14.1 C 0 km/h
799 13-03-2009 15:51:08 13.6 C 3.3 g/m*3 13.6 C 0 km/h
800 13-03-2009 16:03:07 13.8 C 3.46 g/m*3 13.8 C 0 km/h
Sensor: Nr:Datum:Temp:Abs-Feuchte:Windchill:Wind:
Aussen-T/F 801 13-03-2009 16:15:07 13.5 C 3.28 g/m*3 13.5 C 0 km/h
802 13-03-2009 16:27:07 13.3 C 3.35 g/m*3 13.3 C 0 km/h
803 13-03-2009 16:39:07 13.1 C 3.42 g/m*3 13.1 C 0 km/h
804 13-03-2009 16:51:07 13.2 C 3.56 g/m*3 13.2 C 0 km/h
805 13-03-2009 17:03:06 13 C 3.4 g/m*3 13 C 0 km/h
806 13-03-2009 17:15:07 12.9 C 3.38 g/m*3 12.9 C 0 km/h
807 13-03-2009 17:27:07 12.8 C 3.81 g/m*3 12.8 C 0 km/h
808 13-03-2009 17:39:06 12.6 C 3.98 g/m*3 12.6 C 0 km/h
809 13-03-2009 17:51:06 12.4 C 4.48 g/m*3 12.4 C 0 km/h
810 13-03-2009 18:03:06 11.7 C 4.39 g/m*3 11.7 C 0 km/h
811 13-03-2009 18:15:06 11.1 C 4.33 g/m*3 11.1 C 0 km/h
812 13-03-2009 18:27:06 10.4 C 4.24 g/m*3 10.4 C 0 km/h
813 13-03-2009 18:39:05 9.8 C 4.27 g/m*3 9.8 C 0 km/h
814 13-03-2009 18:51:06 9.2 C 4.29 g/m*3 9.2 C 0 km/h
815 13-03-2009 19:03:06 9 C 4.23 g/m*3 9 C 0 km/h
816 13-03-2009 19:15:05 8.6 C 4.47 g/m*3 8.6 C 0 km/h
817 13-03-2009 19:27:05 8.3 C 4.55 g/m*3 8.3 C 0 km/h
818 13-03-2009 19:39:05 8.1 C 4.49 g/m*3 8.1 C 0 km/h
819 13-03-2009 19:51:05 8 C 4.46 g/m*3 8 C 0 km/h
820 13-03-2009 20:03:05 7.8 C 4.65 g/m*3 7.8 C 0 km/h
821 13-03-2009 20:15:04 7.6 C 4.75 g/m*3 7.6 C 0 km/h
822 13-03-2009 20:27:04 7.4 C 4.77 g/m*3 7.4 C 0 km/h
823 13-03-2009 20:39:05 7.2 C 4.79 g/m*3 7.2 C 0 km/h
824 13-03-2009 20:51:04 6.9 C 4.85 g/m*3 6.9 C 0 km/h
825 13-03-2009 21:03:04 6.6 C 4.83 g/m*3 6.6 C 0 km/h
Sensor: Nr:Datum:Temp:Abs-Feuchte:Windchill:Wind:
Aussen-T/F 826 13-03-2009 21:15:04 6.5 C 4.8 g/m*3 6.5 C 0 km/h
827 13-03-2009 21:27:04 6.3 C 4.74 g/m*3 6.3 C 0 km/h
828 13-03-2009 21:39:04 6.1 C 4.75 g/m*3 6.1 C 0 km/h
829 13-03-2009 21:51:04 5.9 C 4.83 g/m*3 5.9 C 0 km/h
830 13-03-2009 22:03:04 5.8 C 4.8 g/m*3 5.8 C 0 km/h
831 13-03-2009 22:15:03 5.8 C 4.8 g/m*3 5.8 C 0 km/h
832 13-03-2009 22:27:03 5.6 C 4.74 g/m*3 5.6 C 0 km/h
833 13-03-2009 22:39:04 5.6 C 4.81 g/m*3 5.6 C 0 km/h
834 13-03-2009 22:52:05 5.4 C 4.81 g/m*3 5.4 C 0 km/h
835 13-03-2009 23:04:05 5.3 C 4.85 g/m*3 5.3 C 0 km/h
836 13-03-2009 23:16:05 5.2 C 4.82 g/m*3 5.2 C 0 km/h
837 13-03-2009 23:28:05 5 C 4.76 g/m*3 5 C 0 km/h
838 13-03-2009 23:40:05 4.9 C 4.86 g/m*3 4.9 C 0 km/h
839 13-03-2009 23:52:05 4.8 C 4.83 g/m*3 4.8 C 0 km/h
840 14-03-2009 00:04:05 4.6 C 4.83 g/m*3 4.6 C 0 km/h
841 14-03-2009 00:16:05 4.5 C 4.8 g/m*3 4.5 C 0 km/h
842 14-03-2009 00:28:05 4.5 C 4.86 g/m*3 4.5 C 0 km/h
843 14-03-2009 00:40:06 4.4 C 4.83 g/m*3 4.4 C 0 km/h
844 14-03-2009 00:52:06 4.2 C 4.9 g/m*3 4.2 C 0 km/h
845 14-03-2009 01:04:06 4.1 C 4.86 g/m*3 4.1 C 0 km/h
846 14-03-2009 01:16:06 4 C 4.83 g/m*3 4 C 0 km/h
847 14-03-2009 01:28:06 4 C 4.83 g/m*3 4 C 0 km/h
848 14-03-2009 01:40:06 3.7 C 4.86 g/m*3 3.7 C 0 km/h
849 14-03-2009 01:52:06 3.9 C 4.93 g/m*3 3.9 C 0 km/h
850 14-03-2009 02:04:06 3.8 C 4.89 g/m*3 3.8 C 0 km/h
Sensor: Nr:Datum:Temp:Abs-Feuchte:Windchill:Wind:
Aussen-T/F 851 14-03-2009 02:16:06 3.7 C 4.86 g/m*3 3.7 C 0 km/h
852 14-03-2009 02:28:06 3.5 C 4.86 g/m*3 3.5 C 0 km/h
853 14-03-2009 02:40:06 3.4 C 4.83 g/m*3 3.4 C 0 km/h
854 14-03-2009 02:52:06 3.6 C 4.95 g/m*3 3.6 C 0 km/h
855 14-03-2009 03:04:06 3.6 C 4.95 g/m*3 3.6 C 0 km/h
856 14-03-2009 03:16:06 3.2 C 4.82 g/m*3 3.2 C 0 km/h
857 14-03-2009 03:28:06 3.3 C 4.85 g/m*3 3.3 C 0 km/h
858 14-03-2009 03:40:06 3.4 C 4.95 g/m*3 3.4 C 0 km/h
859 14-03-2009 03:52:06 3.4 C 4.95 g/m*3 3.4 C 0 km/h
860 14-03-2009 04:04:06 3.4 C 4.95 g/m*3 3.4 C 0 km/h
861 14-03-2009 04:16:06 3.3 C 4.91 g/m*3 3.3 C 0 km/h
862 14-03-2009 04:28:06 3 C 4.76 g/m*3 3 C 0 km/h
863 14-03-2009 04:40:07 3 C 4.82 g/m*3 3 C 0 km/h
864 14-03-2009 04:52:07 2.7 C 4.78 g/m*3 2.7 C 0 km/h
865 14-03-2009 05:04:07 2.6 C 4.75 g/m*3 2.6 C 0 km/h
866 14-03-2009 05:16:07 2.6 C 4.8 g/m*3 2.6 C 0 km/h
867 14-03-2009 05:28:07 2.6 C 4.8 g/m*3 2.6 C 0 km/h
868 14-03-2009 05:40:07 2.8 C 4.93 g/m*3 2.8 C 0 km/h
869 14-03-2009 05:52:07 3 C 4.99 g/m*3 3 C 0 km/h
870 14-03-2009 06:04:07 3.2 C 5.06 g/m*3 3.2 C 0 km/h
871 14-03-2009 06:16:07 3.3 C 5.1 g/m*3 3.3 C 0 km/h
872 14-03-2009 06:28:07 3.3 C 5.1 g/m*3 3.3 C 0 km/h
873 14-03-2009 06:40:07 3.5 C 5.16 g/m*3 3.5 C 0 km/h
874 14-03-2009 06:52:07 3.7 C 5.23 g/m*3 3.7 C 0 km/h
875 14-03-2009 07:04:07 3.8 C 5.21 g/m*3 3.8 C 0 km/h
Sensor: Nr:Datum:Temp:Abs-Feuchte:Windchill:Wind:
Aussen-T/F 876 14-03-2009 07:16:07 3.8 C 5.14 g/m*3 3.8 C 0 km/h
877 14-03-2009 07:28:07 3.8 C 5.14 g/m*3 3.8 C 0 km/h
878 14-03-2009 07:40:07 4.1 C 5.18 g/m*3 4.1 C 0 km/h
879 14-03-2009 07:52:07 4.2 C 5.15 g/m*3 4.2 C 0 km/h
880 14-03-2009 08:04:07 4.4 C 5.16 g/m*3 4.4 C 0 km/h
881 14-03-2009 08:16:04 4.6 C 5.23 g/m*3 4.6 C 0 km/h
882 14-03-2009 08:28:04 4.8 C 5.3 g/m*3 4.8 C 0 km/h
883 14-03-2009 08:40:05 5.4 C 5.37 g/m*3 5.4 C 0 km/h
884 14-03-2009 08:52:05 5.6 C 5.3 g/m*3 5.6 C 0 km/h
885 14-03-2009 09:04:04 5.9 C 5.34 g/m*3 5.9 C 0 km/h
886 14-03-2009 09:16:04 6.2 C 5.29 g/m*3 6.2 C 0 km/h
887 14-03-2009 09:28:04 6.3 C 5.18 g/m*3 6.3 C 0 km/h
888 14-03-2009 09:40:04 6.8 C 5.35 g/m*3 6.8 C 0 km/h
889 14-03-2009 09:52:04 7.1 C 5.15 g/m*3 7.1 C 0 km/h
890 14-03-2009 10:04:04 7.4 C 5.17 g/m*3 7.4 C 0 km/h
891 14-03-2009 10:16:03 7.9 C 5.26 g/m*3 7.9 C 0 km/h
892 14-03-2009 10:28:03 8.5 C 5.21 g/m*3 8.5 C 0 km/h
893 14-03-2009 10:40:04 9.4 C 5.25 g/m*3 9.4 C 0 km/h
894 14-03-2009 10:52:03 9.8 C 5.29 g/m*3 9.8 C 0 km/h
895 14-03-2009 11:04:03 10.4 C 5.3 g/m*3 10.4 C 0 km/h
896 14-03-2009 11:16:03 10.9 C 5.27 g/m*3 10.9 C 0 km/h
897 14-03-2009 11:28:03 11.3 C 5.3 g/m*3 11.3 C 0 km/h
898 14-03-2009 11:40:03 11.6 C 5.2 g/m*3 11.6 C 0 km/h
899 14-03-2009 11:52:02 12.1 C 5.15 g/m*3 12.1 C 0 km/h
900 14-03-2009 12:04:03 12.5 C 4.95 g/m*3 12.5 C 0 km/h
Sensor: Nr:Datum:Temp:Abs-Feuchte:Windchill:Wind:
Aussen-T/F 901 14-03-2009 12:16:03 12.4 C 4.7 g/m*3 12.4 C 0 km/h
902 14-03-2009 12:28:03 13 C 4.88 g/m*3 13 C 0 km/h
903 14-03-2009 12:40:02 13.4 C 4.77 g/m*3 13.4 C 0 km/h
904 14-03-2009 12:52:03 13.7 C 4.74 g/m*3 13.7 C 0 km/h
905 14-03-2009 13:04:02 13.6 C 4.71 g/m*3 13.6 C 0 km/h
906 14-03-2009 13:16:02 13.8 C 4.77 g/m*3 13.8 C 0 km/h
907 14-03-2009 13:28:02 14.1 C 4.73 g/m*3 14.1 C 0 km/h
908 14-03-2009 13:40:02 14.5 C 4.73 g/m*3 14.5 C 0 km/h
909 14-03-2009 13:52:02 14.7 C 4.66 g/m*3 14.7 C 0 km/h
910 14-03-2009 14:04:01 15.4 C 4.6 g/m*3 15.4 C 0 km/h
911 14-03-2009 14:16:01 15.8 C 4.58 g/m*3 15.8 C 0 km/h
912 14-03-2009 14:28:01 15.9 C 4.47 g/m*3 15.9 C 0 km/h
913 14-03-2009 14:40:01 15.9 C 4.47 g/m*3 15.9 C 0 km/h
914 14-03-2009 14:52:01 16.9 C 4.31 g/m*3 16.9 C 0 km/h
915 14-03-2009 15:04:01 17.5 C 4.47 g/m*3 17.5 C 0 km/h
916 14-03-2009 15:16:01 17 C 4.49 g/m*3 17 C 0 km/h
917 14-03-2009 15:28:01 16.1 C 4.8 g/m*3 16.1 C 0 km/h
918 14-03-2009 15:40:01 15.7 C 4.95 g/m*3 15.7 C 0 km/h
919 14-03-2009 15:52:00 16.8 C 5 g/m*3 16.8 C 0 km/h
920 14-03-2009 16:04:01 17.2 C 4.83 g/m*3 17.2 C 0 km/h
921 14-03-2009 16:16:00 16.2 C 4.83 g/m*3 16.2 C 0 km/h
922 14-03-2009 16:28:00 15.6 C 5.05 g/m*3 15.6 C 0 km/h
923 14-03-2009 16:40:00 15.7 C 5.22 g/m*3 15.7 C 0 km/h
924 14-03-2009 16:52:00 15.4 C 5.12 g/m*3 15.4 C 0 km/h
925 14-03-2009 17:04:00 15.4 C 5.12 g/m*3 15.4 C 0 km/h
Sensor: Nr:Datum:Temp:Abs-Feuchte:Windchill:Wind:
Aussen-T/F 926 14-03-2009 17:16:00 15.4 C 5.26 g/m*3 15.4 C 0 km/h
927 14-03-2009 17:28:00 15.2 C 5.32 g/m*3 15.2 C 0 km/h
928 14-03-2009 17:39:59 15 C 5.26 g/m*3 15 C 0 km/h
929 14-03-2009 17:52:00 14.7 C 5.41 g/m*3 14.7 C 0 km/h
930 14-03-2009 18:04:59 14.5 C 5.35 g/m*3 14.5 C 0 km/h
931 14-03-2009 18:16:59 14.4 C 5.44 g/m*3 14.4 C 0 km/h
932 14-03-2009 18:28:59 14.2 C 5.49 g/m*3 14.2 C 0 km/h
933 14-03-2009 18:40:59 14.1 C 5.58 g/m*3 14.1 C 0 km/h
934 14-03-2009 18:52:59 13.8 C 6.08 g/m*3 13.8 C 0 km/h
935 14-03-2009 19:04:58 12.3 C 7.28 g/m*3 12.3 C 0 km/h
936 14-03-2009 19:16:59 11.5 C 7.95 g/m*3 11.5 C 0 km/h
937 14-03-2009 19:28:59 11.1 C 8.16 g/m*3 11.1 C 0 km/h
938 14-03-2009 19:40:59 11.4 C 8.52 g/m*3 11.4 C 0 km/h
939 14-03-2009 19:52:58 10.7 C 8.15 g/m*3 10.7 C 0 km/h
940 14-03-2009 20:04:59 10.4 C 8 g/m*3 10.4 C 0 km/h
941 14-03-2009 20:16:58 10.4 C 8.1 g/m*3 10.4 C 0 km/h
942 14-03-2009 20:28:58 10.3 C 8.04 g/m*3 10.3 C 0 km/h
943 14-03-2009 20:40:59 10.2 C 8.09 g/m*3 10.2 C 0 km/h
944 14-03-2009 20:52:57 10 C 7.8 g/m*3 10 C 0 km/h
945 14-03-2009 21:04:57 9.6 C 6.78 g/m*3 9.6 C 0 km/h
946 14-03-2009 21:16:58 9.6 C 6.78 g/m*3 9.6 C 0 km/h
947 14-03-2009 21:28:57 9.4 C 6.87 g/m*3 9.4 C 0 km/h
948 14-03-2009 21:40:57 9.3 C 6.92 g/m*3 9.3 C 0 km/h
949 14-03-2009 21:52:57 9.1 C 6.92 g/m*3 9.1 C 0 km/h
950 14-03-2009 22:04:57 9 C 6.96 g/m*3 9 C 0 km/h
Sensor: Nr:Datum:Temp:Abs-Feuchte:Windchill:Wind:
Aussen-T/F 951 14-03-2009 22:17:58 9 C 6.88 g/m*3 9 C 0 km/h
952 14-03-2009 22:29:58 9.1 C 6.74 g/m*3 9.1 C 0 km/h
953 14-03-2009 22:41:58 9.2 C 6.7 g/m*3 9.2 C 0 km/h
954 14-03-2009 22:53:58 9.2 C 6.61 g/m*3 9.2 C 0 km/h
955 14-03-2009 23:05:58 9.2 C 6.61 g/m*3 9.2 C 0 km/h
956 14-03-2009 23:17:58 9.2 C 6.52 g/m*3 9.2 C 0 km/h
957 14-03-2009 23:29:58 9.2 C 5.98 g/m*3 9.2 C 0 km/h
958 14-03-2009 23:41:58 9.1 C 5.86 g/m*3 9.1 C 0 km/h
959 14-03-2009 23:53:58 9.1 C 5.68 g/m*3 9.1 C 0 km/h
960 15-03-2009 00:05:58 9.1 C 5.59 g/m*3 9.1 C 0 km/h
961 15-03-2009 00:17:58 9.1 C 5.5 g/m*3 9.1 C 0 km/h
962 15-03-2009 00:29:58 9 C 5.47 g/m*3 9 C 0 km/h
963 15-03-2009 00:41:58 9.1 C 5.41 g/m*3 9.1 C 0 km/h
964 15-03-2009 00:53:58 9 C 5.38 g/m*3 9 C 0 km/h
965 15-03-2009 01:05:58 9 C 5.38 g/m*3 9 C 0 km/h
966 15-03-2009 01:17:58 9 C 5.29 g/m*3 9 C 0 km/h
967 15-03-2009 01:29:58 8.8 C 5.48 g/m*3 8.8 C 0 km/h
968 15-03-2009 01:41:58 8.8 C 5.4 g/m*3 8.8 C 0 km/h
969 15-03-2009 01:53:59 8.9 C 5.43 g/m*3 8.9 C 0 km/h
970 15-03-2009 02:05:59 8.8 C 5.4 g/m*3 8.8 C 0 km/h
971 15-03-2009 02:16:59 8.6 C 5.59 g/m*3 8.6 C 0 km/h
972 15-03-2009 02:28:59 8.9 C 5.61 g/m*3 8.9 C 0 km/h
973 15-03-2009 02:40:59 8.8 C 5.48 g/m*3 8.8 C 0 km/h
974 15-03-2009 02:52:59 8.8 C 5.57 g/m*3 8.8 C 0 km/h
975 15-03-2009 03:04:59 8.6 C 5.59 g/m*3 8.6 C 0 km/h
Sensor: Nr:Datum:Temp:Abs-Feuchte:Windchill:Wind:
Aussen-T/F 976 15-03-2009 03:16:59 8.7 C 5.53 g/m*3 8.7 C 0 km/h
977 15-03-2009 03:28:59 8.6 C 5.41 g/m*3 8.6 C 0 km/h
978 15-03-2009 03:40:59 8.6 C 5.33 g/m*3 8.6 C 0 km/h
979 15-03-2009 03:52:59 8.6 C 5.24 g/m*3 8.6 C 0 km/h
980 15-03-2009 04:04:59 8.6 C 5.24 g/m*3 8.6 C 0 km/h
981 15-03-2009 04:16:59 8.6 C 5.16 g/m*3 8.6 C 0 km/h
982 15-03-2009 04:28:59 8.6 C 5.24 g/m*3 8.6 C 0 km/h
983 15-03-2009 04:40:59 8.6 C 5.24 g/m*3 8.6 C 0 km/h
984 15-03-2009 04:52:59 8.6 C 5.24 g/m*3 8.6 C 0 km/h
985 15-03-2009 05:04:59 8.6 C 5.24 g/m*3 8.6 C 0 km/h
986 15-03-2009 05:16:59 8.5 C 5.21 g/m*3 8.5 C 0 km/h
987 15-03-2009 05:28:59 8.5 C 5.21 g/m*3 8.5 C 0 km/h
988 15-03-2009 05:40:59 8.5 C 5.21 g/m*3 8.5 C 0 km/h
989 15-03-2009 05:53:00 8.5 C 5.12 g/m*3 8.5 C 0 km/h
990 15-03-2009 06:05:00 8.5 C 5.04 g/m*3 8.5 C 0 km/h
991 15-03-2009 06:17:00 8.5 C 4.95 g/m*3 8.5 C 0 km/h
992 15-03-2009 06:29:00 8.5 C 4.95 g/m*3 8.5 C 0 km/h
993 15-03-2009 06:41:00 8.4 C 4.92 g/m*3 8.4 C 0 km/h
994 15-03-2009 06:53:00 8.4 C 4.92 g/m*3 8.4 C 0 km/h
995 15-03-2009 07:05:00 8.4 C 4.84 g/m*3 8.4 C 0 km/h
996 15-03-2009 07:17:00 8.4 C 4.75 g/m*3 8.4 C 0 km/h
997 15-03-2009 07:29:00 8.4 C 4.75 g/m*3 8.4 C 0 km/h
998 15-03-2009 07:41:00 8.5 C 4.78 g/m*3 8.5 C 0 km/h
999 15-03-2009 07:53:00 8.5 C 4.78 g/m*3 8.5 C 0 km/h
1000 15-03-2009 08:05:00 8.5 C 4.7 g/m*3 8.5 C 0 km/h
Sensor: Nr:Datum:Temp:Abs-Feuchte:Windchill:Wind:
Aussen-T/F 1001 15-03-2009 08:17:00 8.5 C 4.7 g/m*3 8.5 C 0 km/h
1002 15-03-2009 08:29:00 8.9 C 4.82 g/m*3 8.9 C 0 km/h
1003 15-03-2009 08:41:00 8.7 C 4.76 g/m*3 8.7 C 0 km/h
1004 15-03-2009 08:53:00 8.8 C 4.79 g/m*3 8.8 C 0 km/h
1005 15-03-2009 09:05:58 8.8 C 4.79 g/m*3 8.8 C 0 km/h
1006 15-03-2009 09:17:58 8.8 C 4.79 g/m*3 8.8 C 0 km/h
1007 15-03-2009 09:29:58 8.9 C 4.73 g/m*3 8.9 C 0 km/h
1008 15-03-2009 09:41:58 9.1 C 4.79 g/m*3 9.1 C 0 km/h
1009 15-03-2009 09:53:57 9.2 C 4.64 g/m*3 9.2 C 0 km/h
1010 15-03-2009 10:05:58 9.3 C 4.67 g/m*3 9.3 C 0 km/h
1011 15-03-2009 10:17:57 9.3 C 4.58 g/m*3 9.3 C 0 km/h
1012 15-03-2009 10:29:57 9.3 C 4.49 g/m*3 9.3 C 0 km/h
1013 15-03-2009 10:41:57 9.6 C 4.49 g/m*3 9.6 C 0 km/h
1014 15-03-2009 10:53:57 9.7 C 4.43 g/m*3 9.7 C 0 km/h
1015 15-03-2009 11:05:57 9.9 C 4.39 g/m*3 9.9 C 0 km/h
1016 15-03-2009 11:17:57 10.1 C 4.44 g/m*3 10.1 C 0 km/h
1017 15-03-2009 11:29:56 10.2 C 4.28 g/m*3 10.2 C 0 km/h
1018 15-03-2009 11:41:56 10.4 C 4.43 g/m*3 10.4 C 0 km/h
1019 15-03-2009 11:53:57 10.5 C 4.36 g/m*3 10.5 C 0 km/h
1020 15-03-2009 12:05:56 10.8 C 4.25 g/m*3 10.8 C 0 km/h
1021 15-03-2009 12:17:56 11.2 C 3.95 g/m*3 11.2 C 0 km/h
1022 15-03-2009 12:29:56 11.4 C 3.9 g/m*3 11.4 C 0 km/h
1023 15-03-2009 12:41:56 11.4 C 3.9 g/m*3 11.4 C 0 km/h
1024 15-03-2009 12:53:56 11.5 C 3.41 g/m*3 11.5 C 0 km/h
1025 15-03-2009 13:05:55 11.3 C 3.26 g/m*3 11.3 C 0 km/h
Sensor: Nr:Datum:Temp:Abs-Feuchte:Windchill:Wind:
Aussen-T/F 1026 15-03-2009 13:17:56 11.5 C 3.31 g/m*3 11.5 C 0 km/h
1027 15-03-2009 13:29:56 11.2 C 3.45 g/m*3 11.2 C 0 km/h
1028 15-03-2009 13:41:56 11.1 C 3.53 g/m*3 11.1 C 0 km/h
1029 15-03-2009 13:53:55 11 C 3.6 g/m*3 11 C 0 km/h
1030 15-03-2009 14:05:56 10.9 C 3.98 g/m*3 10.9 C 0 km/h
1031 15-03-2009 14:17:55 11.1 C 4.03 g/m*3 11.1 C 0 km/h
1032 15-03-2009 14:29:55 11 C 4 g/m*3 11 C 0 km/h
1033 15-03-2009 14:41:56 10.8 C 4.05 g/m*3 10.8 C 0 km/h
1034 15-03-2009 14:53:55 10.7 C 3.93 g/m*3 10.7 C 0 km/h
1035 15-03-2009 15:05:55 10.6 C 4.2 g/m*3 10.6 C 0 km/h
1036 15-03-2009 15:17:54 10.6 C 4.39 g/m*3 10.6 C 0 km/h
1037 15-03-2009 15:29:54 10.9 C 4.48 g/m*3 10.9 C 0 km/h
1038 15-03-2009 15:41:54 10.8 C 4.35 g/m*3 10.8 C 0 km/h
1039 15-03-2009 15:53:54 10.6 C 4.29 g/m*3 10.6 C 0 km/h
1040 15-03-2009 16:05:54 10.7 C 4.42 g/m*3 10.7 C 0 km/h
1041 15-03-2009 16:17:54 10.8 C 4.45 g/m*3 10.8 C 0 km/h
1042 15-03-2009 16:29:54 10.8 C 4.45 g/m*3 10.8 C 0 km/h
1043 15-03-2009 16:41:54 10.7 C 4.42 g/m*3 10.7 C 0 km/h
1044 15-03-2009 16:53:54 10.6 C 4.39 g/m*3 10.6 C 0 km/h
1045 15-03-2009 17:05:53 10.6 C 4.49 g/m*3 10.6 C 0 km/h
1046 15-03-2009 17:17:54 10.4 C 4.63 g/m*3 10.4 C 0 km/h
1047 15-03-2009 17:29:53 10.1 C 4.92 g/m*3 10.1 C 0 km/h
1048 15-03-2009 17:41:53 9.9 C 5.04 g/m*3 9.9 C 0 km/h
1049 15-03-2009 17:53:53 9.9 C 4.95 g/m*3 9.9 C 0 km/h
1050 15-03-2009 18:05:53 9.8 C 4.92 g/m*3 9.8 C 0 km/h
Sensor: Nr:Datum:Temp:Abs-Feuchte:Windchill:Wind:
Aussen-T/F 1051 15-03-2009 18:17:53 9.8 C 5.01 g/m*3 9.8 C 0 km/h
1052 15-03-2009 18:29:53 9.7 C 4.98 g/m*3 9.7 C 0 km/h
1053 15-03-2009 18:41:53 9.8 C 4.82 g/m*3 9.8 C 0 km/h
1054 15-03-2009 18:53:52 9.8 C 4.73 g/m*3 9.8 C 0 km/h
1055 15-03-2009 19:05:02 9.8 C 4.64 g/m*3 9.8 C 0 km/h
1056 15-03-2009 19:17:01 9.7 C 4.7 g/m*3 9.7 C 0 km/h
1057 15-03-2009 19:29:01 9.6 C 4.76 g/m*3 9.6 C 0 km/h
1058 15-03-2009 19:41:02 9.5 C 4.82 g/m*3 9.5 C 0 km/h
1059 15-03-2009 19:53:01 9.5 C 4.82 g/m*3 9.5 C 0 km/h
1060 15-03-2009 20:05:02 9.4 C 4.97 g/m*3 9.4 C 0 km/h
1061 15-03-2009 20:17:01 9.2 C 5 g/m*3 9.2 C 0 km/h
1062 15-03-2009 20:29:01 9.2 C 5.09 g/m*3 9.2 C 0 km/h
1063 15-03-2009 20:41:01 9.1 C 5.23 g/m*3 9.1 C 0 km/h
1064 15-03-2009 20:53:01 9 C 5.29 g/m*3 9 C 0 km/h
1065 15-03-2009 21:05:01 9 C 5.29 g/m*3 9 C 0 km/h
1066 15-03-2009 21:17:00 8.9 C 5.43 g/m*3 8.9 C 0 km/h
1067 15-03-2009 21:29:00 8.9 C 5.52 g/m*3 8.9 C 0 km/h
1068 15-03-2009 21:41:01 8.9 C 5.61 g/m*3 8.9 C 0 km/h
1069 15-03-2009 21:54:08 8.7 C 5.53 g/m*3 8.7 C 0 km/h
1070 15-03-2009 22:06:08 8.7 C 5.62 g/m*3 8.7 C 0 km/h
1071 15-03-2009 22:18:08 8.7 C 5.62 g/m*3 8.7 C 0 km/h
1072 15-03-2009 22:30:08 8.6 C 5.67 g/m*3 8.6 C 0 km/h
1073 15-03-2009 22:42:08 8.5 C 5.72 g/m*3 8.5 C 0 km/h
1074 15-03-2009 22:54:08 8.4 C 5.68 g/m*3 8.4 C 0 km/h
1075 15-03-2009 23:06:08 8.4 C 5.68 g/m*3 8.4 C 0 km/h
Sensor: Nr:Datum:Temp:Abs-Feuchte:Windchill:Wind:
Aussen-T/F 1076 15-03-2009 23:18:09 8.4 C 5.77 g/m*3 8.4 C 0 km/h
1077 15-03-2009 23:30:09 8.3 C 5.73 g/m*3 8.3 C 0 km/h
1078 15-03-2009 23:42:09 8.3 C 5.73 g/m*3 8.3 C 0 km/h
1079 15-03-2009 23:54:09 8.1 C 5.82 g/m*3 8.1 C 0 km/h
1080 16-03-2009 00:06:09 8 C 5.87 g/m*3 8 C 0 km/h
1081 16-03-2009 00:18:09 8.1 C 5.91 g/m*3 8.1 C 0 km/h
1082 16-03-2009 00:30:09 8.1 C 5.91 g/m*3 8.1 C 0 km/h
1083 16-03-2009 00:42:09 8.1 C 5.82 g/m*3 8.1 C 0 km/h
1084 16-03-2009 00:54:09 8.1 C 5.74 g/m*3 8.1 C 0 km/h
1085 16-03-2009 01:06:09 8.2 C 5.69 g/m*3 8.2 C 0 km/h
1086 16-03-2009 01:18:09 8 C 5.7 g/m*3 8 C 0 km/h
1087 16-03-2009 01:30:09 7.8 C 5.96 g/m*3 7.8 C 0 km/h
1088 16-03-2009 01:42:09 7.7 C 6.08 g/m*3 7.7 C 0 km/h
1089 16-03-2009 01:54:09 7.5 C 6.16 g/m*3 7.5 C 0 km/h
1090 16-03-2009 02:06:09 7.4 C 6.2 g/m*3 7.4 C 0 km/h
1091 16-03-2009 02:18:09 7.4 C 6.28 g/m*3 7.4 C 0 km/h
1092 16-03-2009 02:30:09 7.4 C 6.28 g/m*3 7.4 C 0 km/h
1093 16-03-2009 02:42:09 7.3 C 6.32 g/m*3 7.3 C 0 km/h
1094 16-03-2009 02:54:09 7.2 C 6.36 g/m*3 7.2 C 0 km/h
1095 16-03-2009 03:06:09 7.2 C 6.36 g/m*3 7.2 C 0 km/h
1096 16-03-2009 03:18:09 7.1 C 6.4 g/m*3 7.1 C 0 km/h
1097 16-03-2009 03:30:10 7.1 C 6.4 g/m*3 7.1 C 0 km/h
1098 16-03-2009 03:42:10 6.9 C 6.39 g/m*3 6.9 C 0 km/h
1099 16-03-2009 03:54:10 6.8 C 6.42 g/m*3 6.8 C 0 km/h
1100 16-03-2009 04:06:10 6.8 C 6.42 g/m*3 6.8 C 0 km/h
Sensor: Nr:Datum:Temp:Abs-Feuchte:Windchill:Wind:
Aussen-T/F 1101 16-03-2009 04:18:10 6.8 C 6.5 g/m*3 6.8 C 0 km/h
1102 16-03-2009 04:30:10 6.7 C 6.46 g/m*3 6.7 C 0 km/h
1103 16-03-2009 04:42:10 6.7 C 6.46 g/m*3 6.7 C 0 km/h
1104 16-03-2009 04:54:10 6.8 C 6.58 g/m*3 6.8 C 0 km/h
1105 16-03-2009 05:06:10 6.7 C 6.53 g/m*3 6.7 C 0 km/h
1106 16-03-2009 05:18:10 6.5 C 6.37 g/m*3 6.5 C 0 km/h
1107 16-03-2009 05:30:10 6.6 C 6.49 g/m*3 6.6 C 0 km/h
1108 16-03-2009 05:42:10 6.7 C 6.53 g/m*3 6.7 C 0 km/h
1109 16-03-2009 05:54:01 6.6 C 6.49 g/m*3 6.6 C 0 km/h
1110 16-03-2009 06:06:01 6.6 C 6.49 g/m*3 6.6 C 0 km/h
1111 16-03-2009 06:18:01 6.6 C 6.49 g/m*3 6.6 C 0 km/h
1112 16-03-2009 06:30:01 6.6 C 6.49 g/m*3 6.6 C 0 km/h
1113 16-03-2009 06:42:01 6.7 C 6.53 g/m*3 6.7 C 0 km/h
1114 16-03-2009 06:54:00 6.6 C 6.42 g/m*3 6.6 C 0 km/h
1115 16-03-2009 07:06:01 6.5 C 6.37 g/m*3 6.5 C 0 km/h
1116 16-03-2009 07:18:00 6.5 C 6.37 g/m*3 6.5 C 0 km/h
1117 16-03-2009 07:30:00 6.6 C 6.49 g/m*3 6.6 C 0 km/h
1118 16-03-2009 07:42:00 6.7 C 6.53 g/m*3 6.7 C 0 km/h
1119 16-03-2009 07:53:59 6.8 C 6.58 g/m*3 6.8 C 0 km/h
1120 16-03-2009 08:06:00 6.9 C 6.62 g/m*3 6.9 C 0 km/h
1121 16-03-2009 08:18:00 7 C 6.59 g/m*3 7 C 0 km/h
1122 16-03-2009 08:30:00 7 C 6.51 g/m*3 7 C 0 km/h
1123 16-03-2009 08:42:59 7.1 C 6.55 g/m*3 7.1 C 0 km/h
1124 16-03-2009 08:54:00 7.2 C 6.59 g/m*3 7.2 C 0 km/h
1125 16-03-2009 09:06:59 7.4 C 6.68 g/m*3 7.4 C 0 km/h
Sensor: Nr:Datum:Temp:Abs-Feuchte:Windchill:Wind:
Aussen-T/F 1126 16-03-2009 09:18:59 7.3 C 6.56 g/m*3 7.3 C 0 km/h
1127 16-03-2009 09:30:58 7.2 C 6.36 g/m*3 7.2 C 0 km/h
1128 16-03-2009 09:42:58 7.3 C 6.24 g/m*3 7.3 C 0 km/h
1129 16-03-2009 09:54:59 7.6 C 6.36 g/m*3 7.6 C 0 km/h
1130 16-03-2009 10:06:59 7.9 C 6.41 g/m*3 7.9 C 0 km/h
1131 16-03-2009 10:18:58 8.2 C 6.28 g/m*3 8.2 C 0 km/h
1132 16-03-2009 10:30:59 8.4 C 6.11 g/m*3 8.4 C 0 km/h
1133 16-03-2009 10:42:59 8.7 C 5.97 g/m*3 8.7 C 0 km/h
1134 16-03-2009 10:54:58 8.8 C 5.92 g/m*3 8.8 C 0 km/h
1135 16-03-2009 11:06:58 8.8 C 5.74 g/m*3 8.8 C 0 km/h
1136 16-03-2009 11:18:57 9.1 C 5.68 g/m*3 9.1 C 0 km/h
1137 16-03-2009 11:30:58 9.2 C 5.54 g/m*3 9.2 C 0 km/h
1138 16-03-2009 11:42:58 9.5 C 5.55 g/m*3 9.5 C 0 km/h
1139 16-03-2009 11:54:57 9.7 C 5.62 g/m*3 9.7 C 0 km/h
1140 16-03-2009 12:06:57 10 C 5.36 g/m*3 10 C 0 km/h
1141 16-03-2009 12:18:58 9.9 C 5.14 g/m*3 9.9 C 0 km/h
1142 16-03-2009 12:30:57 9.5 C 5.1 g/m*3 9.5 C 0 km/h
1143 16-03-2009 12:42:57 9.5 C 5.19 g/m*3 9.5 C 0 km/h
1144 16-03-2009 12:54:57 9.8 C 5.29 g/m*3 9.8 C 0 km/h
1145 16-03-2009 13:06:57 10 C 5.17 g/m*3 10 C 0 km/h
1146 16-03-2009 13:18:57 10.2 C 5.23 g/m*3 10.2 C 0 km/h
1147 16-03-2009 13:30:56 10.1 C 4.92 g/m*3 10.1 C 0 km/h
1148 16-03-2009 13:42:56 9.8 C 5.1 g/m*3 9.8 C 0 km/h
1149 16-03-2009 13:54:56 9.5 C 5.1 g/m*3 9.5 C 0 km/h
1150 16-03-2009 14:06:56 9.4 C 5.06 g/m*3 9.4 C 0 km/h
Sensor: Nr:Datum:Temp:Abs-Feuchte:Windchill:Wind:
Aussen-T/F 1151 16-03-2009 14:18:56 9.5 C 5.1 g/m*3 9.5 C 0 km/h
1152 16-03-2009 14:30:56 9.5 C 5.01 g/m*3 9.5 C 0 km/h
1153 16-03-2009 14:42:56 9.7 C 5.16 g/m*3 9.7 C 0 km/h
1154 16-03-2009 14:54:56 9.9 C 5.14 g/m*3 9.9 C 0 km/h
1155 16-03-2009 15:06:56 10 C 5.07 g/m*3 10 C 0 km/h
1156 16-03-2009 15:18:55 10.3 C 5.17 g/m*3 10.3 C 0 km/h
1157 16-03-2009 15:30:55 9.9 C 4.95 g/m*3 9.9 C 0 km/h
1158 16-03-2009 15:42:55 9.8 C 5.1 g/m*3 9.8 C 0 km/h
1159 16-03-2009 15:54:55 9.9 C 5.14 g/m*3 9.9 C 0 km/h
1160 16-03-2009 16:06:55 9.7 C 5.16 g/m*3 9.7 C 0 km/h
1161 16-03-2009 16:18:55 9.8 C 5.2 g/m*3 9.8 C 0 km/h
1162 16-03-2009 16:30:55 9.8 C 5.2 g/m*3 9.8 C 0 km/h
1163 16-03-2009 16:42:55 10 C 5.17 g/m*3 10 C 0 km/h
1164 16-03-2009 16:54:55 9.8 C 5.1 g/m*3 9.8 C 0 km/h
1165 16-03-2009 17:06:54 9.7 C 5.25 g/m*3 9.7 C 0 km/h
1166 16-03-2009 17:18:55 9.7 C 5.25 g/m*3 9.7 C 0 km/h
1167 16-03-2009 17:30:54 9.7 C 5.25 g/m*3 9.7 C 0 km/h
1168 16-03-2009 17:42:54 9.6 C 5.22 g/m*3 9.6 C 0 km/h
1169 16-03-2009 17:54:54 9.2 C 5.18 g/m*3 9.2 C 0 km/h
1170 16-03-2009 18:06:53 9.2 C 5.27 g/m*3 9.2 C 0 km/h
1171 16-03-2009 18:18:54 9.2 C 5.36 g/m*3 9.2 C 0 km/h
1172 16-03-2009 18:30:54 9 C 5.29 g/m*3 9 C 0 km/h
1173 16-03-2009 18:42:54 8.9 C 5.43 g/m*3 8.9 C 0 km/h
1174 16-03-2009 18:54:53 8.7 C 5.45 g/m*3 8.7 C 0 km/h
1175 16-03-2009 19:06:54 8.7 C 5.53 g/m*3 8.7 C 0 km/h
Sensor: Nr:Datum:Temp:Abs-Feuchte:Windchill:Wind:
Aussen-T/F 1176 16-03-2009 19:18:53 8.6 C 5.59 g/m*3 8.6 C 0 km/h
1177 16-03-2009 19:30:53 8.5 C 5.55 g/m*3 8.5 C 0 km/h
1178 16-03-2009 19:42:54 8.5 C 5.64 g/m*3 8.5 C 0 km/h
1179 16-03-2009 19:54:53 8.4 C 5.6 g/m*3 8.4 C 0 km/h
1180 16-03-2009 20:06:53 8.4 C 5.6 g/m*3 8.4 C 0 km/h
1181 16-03-2009 20:18:52 8.4 C 5.6 g/m*3 8.4 C 0 km/h
1182 16-03-2009 20:30:53 8.4 C 5.51 g/m*3 8.4 C 0 km/h
1183 16-03-2009 20:42:53 8.3 C 5.48 g/m*3 8.3 C 0 km/h
1184 16-03-2009 20:54:52 8.3 C 5.48 g/m*3 8.3 C 0 km/h
1185 16-03-2009 21:06:52 8.2 C 5.53 g/m*3 8.2 C 0 km/h
1186 16-03-2009 21:18:52 8.2 C 5.53 g/m*3 8.2 C 0 km/h
1187 16-03-2009 21:30:51 8.2 C 5.53 g/m*3 8.2 C 0 km/h
1188 16-03-2009 21:42:51 8.1 C 5.41 g/m*3 8.1 C 0 km/h
1189 16-03-2009 21:54:52 8.1 C 5.41 g/m*3 8.1 C 0 km/h
1190 16-03-2009 22:06:51 8.1 C 5.41 g/m*3 8.1 C 0 km/h
1191 16-03-2009 22:19:53 8 C 5.29 g/m*3 8 C 0 km/h
1192 16-03-2009 22:31:54 8 C 5.29 g/m*3 8 C 0 km/h
1193 16-03-2009 22:43:54 8 C 5.29 g/m*3 8 C 0 km/h
1194 16-03-2009 22:55:54 7.9 C 5.26 g/m*3 7.9 C 0 km/h
1195 16-03-2009 23:07:54 8 C 5.29 g/m*3 8 C 0 km/h
1196 16-03-2009 23:19:54 8 C 5.29 g/m*3 8 C 0 km/h
1197 16-03-2009 23:31:54 8 C 5.29 g/m*3 8 C 0 km/h
1198 16-03-2009 23:43:54 7.9 C 5.42 g/m*3 7.9 C 0 km/h
1199 16-03-2009 23:55:54 7.9 C 5.42 g/m*3 7.9 C 0 km/h
1200 17-03-2009 00:07:54 7.8 C 5.47 g/m*3 7.8 C 0 km/h
Sensor: Nr:Datum:Temp:Abs-Feuchte:Windchill:Wind:
Aussen-T/F 1201 17-03-2009 00:19:54 7.8 C 5.3 g/m*3 7.8 C 0 km/h
1202 17-03-2009 00:31:54 7.8 C 5.3 g/m*3 7.8 C 0 km/h
1203 17-03-2009 00:43:54 7.7 C 5.27 g/m*3 7.7 C 0 km/h
1204 17-03-2009 00:55:54 7.7 C 5.11 g/m*3 7.7 C 0 km/h
1205 17-03-2009 01:07:54 7.7 C 5.03 g/m*3 7.7 C 0 km/h
1206 17-03-2009 01:19:54 7.4 C 4.93 g/m*3 7.4 C 0 km/h
1207 17-03-2009 01:31:54 6.7 C 4.94 g/m*3 6.7 C 0 km/h
1208 17-03-2009 01:43:54 6.1 C 4.82 g/m*3 6.1 C 0 km/h
1209 17-03-2009 01:55:54 5.8 C 4.94 g/m*3 5.8 C 0 km/h
1210 17-03-2009 02:07:54 5.6 C 4.88 g/m*3 5.6 C 0 km/h
1211 17-03-2009 02:19:54 5.3 C 4.85 g/m*3 5.3 C 0 km/h
1212 17-03-2009 02:31:55 5.1 C 4.86 g/m*3 5.1 C 0 km/h
1213 17-03-2009 02:43:55 5 C 4.89 g/m*3 5 C 0 km/h
1214 17-03-2009 02:55:55 4.9 C 4.93 g/m*3 4.9 C 0 km/h
1215 17-03-2009 03:07:55 4.7 C 4.93 g/m*3 4.7 C 0 km/h
1216 17-03-2009 03:19:55 4.7 C 4.93 g/m*3 4.7 C 0 km/h
1217 17-03-2009 03:31:55 4.5 C 4.93 g/m*3 4.5 C 0 km/h
1218 17-03-2009 03:43:55 4.3 C 4.93 g/m*3 4.3 C 0 km/h
1219 17-03-2009 03:55:55 4.1 C 4.93 g/m*3 4.1 C 0 km/h
1220 17-03-2009 04:07:55 4 C 4.96 g/m*3 4 C 0 km/h
1221 17-03-2009 04:19:55 3.9 C 4.99 g/m*3 3.9 C 0 km/h
1222 17-03-2009 04:31:55 4 C 4.96 g/m*3 4 C 0 km/h
1223 17-03-2009 04:43:55 4 C 5.02 g/m*3 4 C 0 km/h
1224 17-03-2009 04:55:55 3.8 C 5.02 g/m*3 3.8 C 0 km/h
1225 17-03-2009 05:07:55 3.5 C 4.92 g/m*3 3.5 C 0 km/h
Sensor: Nr:Datum:Temp:Abs-Feuchte:Windchill:Wind:
Aussen-T/F 1226 17-03-2009 05:19:55 3.3 C 4.85 g/m*3 3.3 C 0 km/h
1227 17-03-2009 05:31:55 3.2 C 4.88 g/m*3 3.2 C 0 km/h
1228 17-03-2009 05:43:55 3.2 C 4.88 g/m*3 3.2 C 0 km/h
1229 17-03-2009 05:55:55 3.2 C 4.94 g/m*3 3.2 C 0 km/h
1230 17-03-2009 06:07:55 3 C 4.88 g/m*3 3 C 0 km/h
1231 17-03-2009 06:19:56 3 C 4.88 g/m*3 3 C 0 km/h
1232 17-03-2009 06:31:56 3 C 4.93 g/m*3 3 C 0 km/h
1233 17-03-2009 06:43:56 3.1 C 4.97 g/m*3 3.1 C 0 km/h
1234 17-03-2009 06:55:56 3.3 C 5.04 g/m*3 3.3 C 0 km/h
1235 17-03-2009 07:07:52 3.5 C 5.1 g/m*3 3.5 C 0 km/h
1236 17-03-2009 07:19:52 3.5 C 4.98 g/m*3 3.5 C 0 km/h
1237 17-03-2009 07:31:52 3.6 C 4.95 g/m*3 3.6 C 0 km/h
1238 17-03-2009 07:43:52 3.5 C 4.92 g/m*3 3.5 C 0 km/h
1239 17-03-2009 07:55:52 3.5 C 4.92 g/m*3 3.5 C 0 km/h
1240 17-03-2009 08:07:51 3.5 C 4.92 g/m*3 3.5 C 0 km/h
1241 17-03-2009 08:19:51 3.7 C 4.99 g/m*3 3.7 C 0 km/h
1242 17-03-2009 08:31:52 3.8 C 5.02 g/m*3 3.8 C 0 km/h
1243 17-03-2009 08:43:52 3.9 C 4.99 g/m*3 3.9 C 0 km/h
1244 17-03-2009 08:55:51 4.2 C 5.09 g/m*3 4.2 C 0 km/h
1245 17-03-2009 09:07:51 5 C 5.23 g/m*3 5 C 0 km/h
1246 17-03-2009 09:19:50 5.8 C 5.16 g/m*3 5.8 C 0 km/h
1247 17-03-2009 09:31:51 6.3 C 5.03 g/m*3 6.3 C 0 km/h
1248 17-03-2009 09:43:51 6.5 C 4.95 g/m*3 6.5 C 0 km/h
1249 17-03-2009 09:55:50 6.5 C 4.95 g/m*3 6.5 C 0 km/h
1250 17-03-2009 10:07:50 6.8 C 4.97 g/m*3 6.8 C 0 km/h
Sensor: Nr:Datum:Temp:Abs-Feuchte:Windchill:Wind:
Aussen-T/F 1251 17-03-2009 10:19:51 7.2 C 5.02 g/m*3 7.2 C 0 km/h
1252 17-03-2009 10:31:50 7.9 C 5.09 g/m*3 7.9 C 0 km/h
1253 17-03-2009 10:43:50 8.4 C 5.09 g/m*3 8.4 C 0 km/h
1254 17-03-2009 10:55:50 9 C 5.03 g/m*3 9 C 0 km/h
1255 17-03-2009 11:07:50 10.1 C 5.01 g/m*3 10.1 C 0 km/h
1256 17-03-2009 11:19:50 11.4 C 5.13 g/m*3 11.4 C 0 km/h
1257 17-03-2009 11:31:50 11.7 C 4.92 g/m*3 11.7 C 0 km/h
1258 17-03-2009 11:43:50 11.6 C 4.89 g/m*3 11.6 C 0 km/h
1259 17-03-2009 11:55:50 11.4 C 4.93 g/m*3 11.4 C 0 km/h
1260 17-03-2009 12:07:50 11.5 C 5.06 g/m*3 11.5 C 0 km/h
1261 17-03-2009 12:19:49 11.2 C 5.07 g/m*3 11.2 C 0 km/h
1262 17-03-2009 12:31:49 12 C 5.12 g/m*3 12 C 0 km/h
1263 17-03-2009 12:43:49 13.3 C 4.97 g/m*3 13.3 C 0 km/h
1264 17-03-2009 12:55:49 13.7 C 4.97 g/m*3 13.7 C 0 km/h
1265 17-03-2009 13:07:49 14.1 C 4.85 g/m*3 14.1 C 0 km/h
1266 17-03-2009 13:19:48 14.1 C 4.73 g/m*3 14.1 C 0 km/h
1267 17-03-2009 13:31:48 13.9 C 4.68 g/m*3 13.9 C 0 km/h
1268 17-03-2009 13:43:48 14.2 C 4.76 g/m*3 14.2 C 0 km/h
1269 17-03-2009 13:55:48 14.7 C 4.78 g/m*3 14.7 C 0 km/h
1270 17-03-2009 14:07:48 15.4 C 4.6 g/m*3 15.4 C 0 km/h
1271 17-03-2009 14:19:48 14.2 C 4.64 g/m*3 14.2 C 0 km/h
1272 17-03-2009 14:31:48 13.8 C 4.89 g/m*3 13.8 C 0 km/h
1273 17-03-2009 14:43:48 13.2 C 4.82 g/m*3 13.2 C 0 km/h
1274 17-03-2009 14:55:48 12.5 C 4.84 g/m*3 12.5 C 0 km/h
1275 17-03-2009 15:07:47 12.4 C 4.92 g/m*3 12.4 C 0 km/h
Sensor: Nr:Datum:Temp:Abs-Feuchte:Windchill:Wind:
Aussen-T/F 1276 17-03-2009 15:19:48 12.5 C 5.06 g/m*3 12.5 C 0 km/h
1277 17-03-2009 15:31:47 12.7 C 5.01 g/m*3 12.7 C 0 km/h
1278 17-03-2009 15:43:47 12.8 C 5.04 g/m*3 12.8 C 0 km/h
1279 17-03-2009 15:55:47 12.8 C 5.04 g/m*3 12.8 C 0 km/h
1280 17-03-2009 16:07:47 12.5 C 4.95 g/m*3 12.5 C 0 km/h
1281 17-03-2009 16:19:47 12.6 C 5.09 g/m*3 12.6 C 0 km/h
1282 17-03-2009 16:31:47 12.5 C 4.95 g/m*3 12.5 C 0 km/h
1283 17-03-2009 16:43:47 12.6 C 4.98 g/m*3 12.6 C 0 km/h
1284 17-03-2009 16:55:46 12.1 C 4.61 g/m*3 12.1 C 0 km/h
1285 17-03-2009 17:07:47 12 C 4.8 g/m*3 12 C 0 km/h
1286 17-03-2009 17:19:46 11.9 C 4.98 g/m*3 11.9 C 0 km/h
1287 17-03-2009 17:31:46 12.6 C 4.87 g/m*3 12.6 C 0 km/h
1288 17-03-2009 17:43:46 12.2 C 4.75 g/m*3 12.2 C 0 km/h
1289 17-03-2009 17:55:46 12 C 4.58 g/m*3 12 C 0 km/h
1290 17-03-2009 18:07:46 11.7 C 4.71 g/m*3 11.7 C 0 km/h
1291 17-03-2009 18:19:46 11.2 C 4.66 g/m*3 11.2 C 0 km/h
1292 17-03-2009 18:31:45 10.7 C 4.81 g/m*3 10.7 C 0 km/h
1293 17-03-2009 18:43:45 10.2 C 4.85 g/m*3 10.2 C 0 km/h
1294 17-03-2009 18:55:46 9.5 C 5.01 g/m*3 9.5 C 0 km/h
1295 17-03-2009 19:07:45 9.2 C 5 g/m*3 9.2 C 0 km/h
1296 17-03-2009 19:19:45 8.7 C 5.1 g/m*3 8.7 C 0 km/h
1297 17-03-2009 19:31:45 8.5 C 5.04 g/m*3 8.5 C 0 km/h
1298 17-03-2009 19:43:45 8.1 C 4.99 g/m*3 8.1 C 0 km/h
1299 17-03-2009 19:55:45 7.8 C 5.14 g/m*3 7.8 C 0 km/h
1300 17-03-2009 20:07:44 7.6 C 5.16 g/m*3 7.6 C 0 km/h
Sensor: Nr:Datum:Temp:Abs-Feuchte:Windchill:Wind:
Aussen-T/F 1301 17-03-2009 20:19:44 7.3 C 5.14 g/m*3 7.3 C 0 km/h
1302 17-03-2009 20:31:45 7.1 C 5.07 g/m*3 7.1 C 0 km/h
1303 17-03-2009 20:43:45 6.9 C 5.23 g/m*3 6.9 C 0 km/h
1304 17-03-2009 20:55:44 6.5 C 5.1 g/m*3 6.5 C 0 km/h
1305 17-03-2009 21:07:44 6.3 C 5.18 g/m*3 6.3 C 0 km/h
1306 17-03-2009 21:19:44 6.2 C 5.22 g/m*3 6.2 C 0 km/h
1307 17-03-2009 21:31:44 5.7 C 5.05 g/m*3 5.7 C 0 km/h
1308 17-03-2009 21:43:44 5.7 C 5.19 g/m*3 5.7 C 0 km/h
1309 17-03-2009 21:56:45 5.5 C 5.13 g/m*3 5.5 C 0 km/h
1310 17-03-2009 22:08:45 5.3 C 5.13 g/m*3 5.3 C 0 km/h
1311 17-03-2009 22:20:46 5.1 C 5.13 g/m*3 5.1 C 0 km/h
1312 17-03-2009 22:32:46 4.9 C 5.2 g/m*3 4.9 C 0 km/h
1313 17-03-2009 22:44:46 4.8 C 5.16 g/m*3 4.8 C 0 km/h
1314 17-03-2009 22:56:46 4.7 C 5.13 g/m*3 4.7 C 0 km/h
1315 17-03-2009 23:08:46 4.6 C 5.1 g/m*3 4.6 C 0 km/h
1316 17-03-2009 23:20:46 4.3 C 4.99 g/m*3 4.3 C 0 km/h
1317 17-03-2009 23:32:46 4.2 C 5.03 g/m*3 4.2 C 0 km/h
1318 17-03-2009 23:44:46 4 C 5.02 g/m*3 4 C 0 km/h
1319 17-03-2009 23:56:46 3.8 C 5.02 g/m*3 3.8 C 0 km/h
1320 18-03-2009 00:08:46 3.6 C 5.01 g/m*3 3.6 C 0 km/h
1321 18-03-2009 00:20:46 3.3 C 4.91 g/m*3 3.3 C 0 km/h
1322 18-03-2009 00:32:46 3.2 C 4.94 g/m*3 3.2 C 0 km/h
1323 18-03-2009 00:44:46 2.9 C 4.9 g/m*3 2.9 C 0 km/h
1324 18-03-2009 00:56:46 2.8 C 4.81 g/m*3 2.8 C 0 km/h
1325 18-03-2009 01:08:46 2.7 C 4.84 g/m*3 2.7 C 0 km/h
Sensor: Nr:Datum:Temp:Abs-Feuchte:Windchill:Wind:
Aussen-T/F 1326 18-03-2009 01:20:46 2.6 C 4.8 g/m*3 2.6 C 0 km/h
1327 18-03-2009 01:32:46 2.4 C 4.74 g/m*3 2.4 C 0 km/h
1328 18-03-2009 01:44:46 2.2 C 4.68 g/m*3 2.2 C 0 km/h
1329 18-03-2009 01:56:46 2.1 C 4.64 g/m*3 2.1 C 0 km/h
1330 18-03-2009 02:08:47 1.9 C 4.64 g/m*3 1.9 C 0 km/h
1331 18-03-2009 02:20:47 1.8 C 4.6 g/m*3 1.8 C 0 km/h
1332 18-03-2009 02:32:47 1.5 C 4.51 g/m*3 1.5 C 0 km/h
1333 18-03-2009 02:44:47 1.5 C 4.57 g/m*3 1.5 C 0 km/h
1334 18-03-2009 02:56:47 1.4 C 4.53 g/m*3 1.4 C 0 km/h
1335 18-03-2009 03:08:47 1.2 C 4.47 g/m*3 1.2 C 0 km/h
1336 18-03-2009 03:20:47 0.9 C 4.38 g/m*3 0.9 C 0 km/h
1337 18-03-2009 03:32:47 0.8 C 4.35 g/m*3 0.8 C 0 km/h
1338 18-03-2009 03:44:47 0.6 C 4.29 g/m*3 0.6 C 0 km/h
1339 18-03-2009 03:56:47 0.4 C 4.23 g/m*3 0.4 C 0 km/h
1340 18-03-2009 04:08:47 0.3 C 4.2 g/m*3 0.3 C 0 km/h
1341 18-03-2009 04:20:47 0.2 C 4.22 g/m*3 0.2 C 0 km/h
1342 18-03-2009 04:32:47 0.1 C 4.2 g/m*3 0.1 C 0 km/h
1343 18-03-2009 04:44:47 0.1 C 4.24 g/m*3 0.1 C 0 km/h
1344 18-03-2009 04:56:47 0 C 4.22 g/m*3 0 C 0 km/h
1345 18-03-2009 05:08:47 -0.1 C 4.19 g/m*3 -0.1 C 0 km/h
1346 18-03-2009 05:20:47 0 C 4.26 g/m*3 0 C 0 km/h
1347 18-03-2009 05:32:47 0 C 4.26 g/m*3 0 C 0 km/h
1348 18-03-2009 05:44:47 -0.1 C 4.23 g/m*3 -0.1 C 0 km/h
1349 18-03-2009 05:56:47 -0.2 C 4.21 g/m*3 -0.2 C 0 km/h
1350 18-03-2009 06:08:48 -0.2 C 4.21 g/m*3 -0.2 C 0 km/h
Sensor: Nr:Datum:Temp:Abs-Feuchte:Windchill:Wind:
Aussen-T/F 1351 18-03-2009 06:20:48 -0.1 C 4.28 g/m*3 -0.1 C 0 km/h
1352 18-03-2009 06:32:44 0 C 4.31 g/m*3 0 C 0 km/h
1353 18-03-2009 06:44:45 0 C 4.31 g/m*3 0 C 0 km/h
1354 18-03-2009 06:56:45 0.2 C 4.37 g/m*3 0.2 C 0 km/h
1355 18-03-2009 07:08:44 0.2 C 4.37 g/m*3 0.2 C 0 km/h
1356 18-03-2009 07:20:44 0.2 C 4.37 g/m*3 0.2 C 0 km/h
1357 18-03-2009 07:32:44 0.2 C 4.37 g/m*3 0.2 C 0 km/h
1358 18-03-2009 07:44:44 0.2 C 4.37 g/m*3 0.2 C 0 km/h
1359 18-03-2009 07:56:44 0.1 C 4.29 g/m*3 0.1 C 0 km/h
1360 18-03-2009 08:08:44 0.1 C 4.29 g/m*3 0.1 C 0 km/h
1361 18-03-2009 08:20:43 0.1 C 4.29 g/m*3 0.1 C 0 km/h
1362 18-03-2009 08:32:44 0.5 C 4.41 g/m*3 0.5 C 0 km/h
1363 18-03-2009 08:44:43 1.2 C 4.63 g/m*3 1.2 C 0 km/h
1364 18-03-2009 08:56:43 1.2 C 4.47 g/m*3 1.2 C 0 km/h
1365 18-03-2009 09:08:43 1.7 C 4.57 g/m*3 1.7 C 0 km/h
1366 18-03-2009 09:20:43 1.9 C 4.53 g/m*3 1.9 C 0 km/h
1367 18-03-2009 09:32:43 1.9 C 4.42 g/m*3 1.9 C 0 km/h
1368 18-03-2009 09:44:43 2.5 C 4.54 g/m*3 2.5 C 0 km/h
1369 18-03-2009 09:56:43 2.8 C 4.52 g/m*3 2.8 C 0 km/h
1370 18-03-2009 10:08:43 3.3 C 4.49 g/m*3 3.3 C 0 km/h
1371 18-03-2009 10:20:42 3.6 C 4.52 g/m*3 3.6 C 0 km/h
1372 18-03-2009 10:32:42 3.8 C 4.64 g/m*3 3.8 C 0 km/h
1373 18-03-2009 10:44:42 4.6 C 4.83 g/m*3 4.6 C 0 km/h
1374 18-03-2009 10:56:42 5.2 C 4.61 g/m*3 5.2 C 0 km/h
1375 18-03-2009 11:08:42 5.9 C 4.47 g/m*3 5.9 C 0 km/h
Sensor: Nr:Datum:Temp:Abs-Feuchte:Windchill:Wind:
Aussen-T/F 1376 18-03-2009 11:20:41 6.5 C 4.35 g/m*3 6.5 C 0 km/h
1377 18-03-2009 11:32:42 6.8 C 4.36 g/m*3 6.8 C 0 km/h
1378 18-03-2009 11:44:41 7.3 C 4.27 g/m*3 7.3 C 0 km/h
1379 18-03-2009 11:56:41 7.9 C 4.19 g/m*3 7.9 C 0 km/h
1380 18-03-2009 12:08:41 8.2 C 3.77 g/m*3 8.2 C 0 km/h
1381 18-03-2009 12:20:42 8.6 C 3.52 g/m*3 8.6 C 0 km/h
1382 18-03-2009 12:32:41 9.4 C 3.35 g/m*3 9.4 C 0 km/h
1383 18-03-2009 12:44:41 9.7 C 2.3 g/m*3 9.7 C 0 km/h
1384 18-03-2009 12:56:41 10.2 C 2.19 g/m*3 10.2 C 0 km/h
1385 18-03-2009 13:08:40 11 C 2 g/m*3 11 C 0 km/h
1386 18-03-2009 13:20:41 11.8 C 2.1 g/m*3 11.8 C 0 km/h
1387 18-03-2009 13:32:41 12.6 C 2.21 g/m*3 12.6 C 0 km/h
1388 18-03-2009 13:44:40 13 C 2.27 g/m*3 13 C 0 km/h
1389 18-03-2009 13:56:40 13.1 C 2.28 g/m*3 13.1 C 0 km/h
1390 18-03-2009 14:08:41 13.2 C 2.3 g/m*3 13.2 C 0 km/h
1391 18-03-2009 14:20:40 12.9 C 2.25 g/m*3 12.9 C 0 km/h
1392 18-03-2009 14:32:40 13.1 C 2.28 g/m*3 13.1 C 0 km/h
1393 18-03-2009 14:44:40 13.6 C 2.35 g/m*3 13.6 C 0 km/h
1394 18-03-2009 14:56:40 13.8 C 2.38 g/m*3 13.8 C 0 km/h
1395 18-03-2009 15:08:40 14.1 C 2.43 g/m*3 14.1 C 0 km/h
1396 18-03-2009 15:20:39 14 C 2.41 g/m*3 14 C 0 km/h
1397 18-03-2009 15:32:39 13.7 C 2.37 g/m*3 13.7 C 0 km/h
1398 18-03-2009 15:44:39 14.7 C 2.52 g/m*3 14.7 C 0 km/h
1399 18-03-2009 15:56:39 15.3 C 2.61 g/m*3 15.3 C 0 km/h
1400 18-03-2009 16:08:39 15.2 C 2.6 g/m*3 15.2 C 0 km/h
Sensor: Nr:Datum:Temp:Abs-Feuchte:Windchill:Wind:
Aussen-T/F 1401 18-03-2009 16:20:39 14.6 C 2.5 g/m*3 14.6 C 0 km/h
1402 18-03-2009 16:32:39 14.3 C 2.46 g/m*3 14.3 C 0 km/h
1403 18-03-2009 16:44:39 14 C 2.41 g/m*3 14 C 0 km/h
1404 18-03-2009 16:56:39 14.9 C 2.55 g/m*3 14.9 C 0 km/h
1405 18-03-2009 17:08:38 14.6 C 2.5 g/m*3 14.6 C 0 km/h
1406 18-03-2009 17:20:38 14.7 C 2.52 g/m*3 14.7 C 0 km/h
1407 18-03-2009 17:32:38 13.7 C 2.37 g/m*3 13.7 C 0 km/h
1408 18-03-2009 17:44:38 12.5 C 2.2 g/m*3 12.5 C 0 km/h
1409 18-03-2009 17:56:38 12.6 C 2.21 g/m*3 12.6 C 0 km/h
1410 18-03-2009 18:08:37 11.9 C 2.12 g/m*3 11.9 C 0 km/h
1411 18-03-2009 18:20:38 11.3 C 2.04 g/m*3 11.3 C 0 km/h
1412 18-03-2009 18:32:38 10.1 C 1.89 g/m*3 10.1 C 0 km/h
1413 18-03-2009 18:44:37 9.1 C 1.77 g/m*3 9.1 C 0 km/h
1414 18-03-2009 18:56:37 8.5 C 1.71 g/m*3 8.5 C 0 km/h
1415 18-03-2009 19:08:38 8.1 C 2.16 g/m*3 8.1 C 0 km/h
1416 18-03-2009 19:20:37 7.9 C 2.14 g/m*3 7.9 C 0 km/h
1417 18-03-2009 19:32:37 7.4 C 2.31 g/m*3 7.4 C 0 km/h
1418 18-03-2009 19:44:36 7.1 C 2.03 g/m*3 7.1 C 0 km/h
1419 18-03-2009 19:56:36 6.9 C 2.08 g/m*3 6.9 C 0 km/h
1420 18-03-2009 20:08:37 6.8 C 2.29 g/m*3 6.8 C 0 km/h
1421 18-03-2009 20:20:37 6.7 C 2.36 g/m*3 6.7 C 0 km/h
1422 18-03-2009 20:32:36 6.7 C 2.66 g/m*3 6.7 C 0 km/h
1423 18-03-2009 20:44:37 6.8 C 2.45 g/m*3 6.8 C 0 km/h
1424 18-03-2009 20:56:37 6.8 C 2.68 g/m*3 6.8 C 0 km/h
1425 18-03-2009 21:08:36 6.7 C 2.66 g/m*3 6.7 C 0 km/h
Sensor: Nr:Datum:Temp:Abs-Feuchte:Windchill:Wind:
Aussen-T/F 1426 18-03-2009 21:20:36 6.6 C 2.79 g/m*3 6.6 C 0 km/h
1427 18-03-2009 21:32:36 6.6 C 2.72 g/m*3 6.6 C 0 km/h
1428 18-03-2009 21:44:35 6.4 C 2.68 g/m*3 6.4 C 0 km/h
1429 18-03-2009 21:56:35 6 C 2.69 g/m*3 6 C 0 km/h
1430 18-03-2009 22:08:36 5.7 C 2.85 g/m*3 5.7 C 0 km/h
1431 18-03-2009 22:21:36 5.6 C 2.83 g/m*3 5.6 C 0 km/h
1432 18-03-2009 22:33:36 5.5 C 2.81 g/m*3 5.5 C 0 km/h
1433 18-03-2009 22:45:36 5.2 C 2.62 g/m*3 5.2 C 0 km/h
1434 18-03-2009 22:57:37 4.9 C 2.7 g/m*3 4.9 C 0 km/h
1435 18-03-2009 23:09:37 4.7 C 2.6 g/m*3 4.7 C 0 km/h
1436 18-03-2009 23:21:37 4.5 C 2.76 g/m*3 4.5 C 0 km/h
1437 18-03-2009 23:33:37 4.2 C 2.64 g/m*3 4.2 C 0 km/h
1438 18-03-2009 23:45:37 3.9 C 2.72 g/m*3 3.9 C 0 km/h
1439 18-03-2009 23:57:37 3.5 C 2.71 g/m*3 3.5 C 0 km/h
1440 19-03-2009 00:09:37 3.3 C 2.73 g/m*3 3.3 C 0 km/h
1441 19-03-2009 00:21:37 3.1 C 2.75 g/m*3 3.1 C 0 km/h
1442 19-03-2009 00:33:37 3 C 2.85 g/m*3 3 C 0 km/h
1443 19-03-2009 00:45:37 2.7 C 2.85 g/m*3 2.7 C 0 km/h
1444 19-03-2009 00:57:37 2.4 C 2.91 g/m*3 2.4 C 0 km/h
1445 19-03-2009 01:09:37 2.3 C 2.89 g/m*3 2.3 C 0 km/h
1446 19-03-2009 01:21:37 2.1 C 2.97 g/m*3 2.1 C 0 km/h
1447 19-03-2009 01:33:37 1.8 C 3.07 g/m*3 1.8 C 0 km/h
1448 19-03-2009 01:45:37 1.8 C 3.07 g/m*3 1.8 C 0 km/h
1449 19-03-2009 01:57:37 1.5 C 3.01 g/m*3 1.5 C 0 km/h
1450 19-03-2009 02:09:37 1.4 C 2.99 g/m*3 1.4 C 0 km/h
Sensor: Nr:Datum:Temp:Abs-Feuchte:Windchill:Wind:
Aussen-T/F 1451 19-03-2009 02:21:37 1.3 C 2.97 g/m*3 1.3 C 0 km/h
1452 19-03-2009 02:33:37 1.2 C 3 g/m*3 1.2 C 0 km/h
1453 19-03-2009 02:45:38 0.9 C 2.99 g/m*3 0.9 C 0 km/h
1454 19-03-2009 02:57:38 0.7 C 3 g/m*3 0.7 C 0 km/h
1455 19-03-2009 03:09:38 0.6 C 3.03 g/m*3 0.6 C 0 km/h
1456 19-03-2009 03:21:38 0.5 C 3.01 g/m*3 0.5 C 0 km/h
1457 19-03-2009 03:33:38 0.4 C 2.99 g/m*3 0.4 C 0 km/h
1458 19-03-2009 03:45:38 0.2 C 3 g/m*3 0.2 C 0 km/h
1459 19-03-2009 03:57:38 0.1 C 2.98 g/m*3 0.1 C 0 km/h
1460 19-03-2009 04:09:38 0 C 3 g/m*3 0 C 0 km/h
1461 19-03-2009 04:21:38 -0.2 C 3.01 g/m*3 -0.2 C 0 km/h
1462 19-03-2009 04:33:38 -0.3 C 3.04 g/m*3 -0.3 C 0 km/h
1463 19-03-2009 04:45:38 -0.4 C 3.06 g/m*3 -0.4 C 0 km/h
1464 19-03-2009 04:57:38 -0.5 C 3.09 g/m*3 -0.5 C 0 km/h
1465 19-03-2009 05:09:38 -0.6 C 3.07 g/m*3 -0.6 C 0 km/h
1466 19-03-2009 05:21:38 -0.7 C 3.05 g/m*3 -0.7 C 0 km/h
1467 19-03-2009 05:33:38 -0.8 C 3.07 g/m*3 -0.8 C 0 km/h
1468 19-03-2009 05:45:38 -0.9 C 3.1 g/m*3 -0.9 C 0 km/h
1469 19-03-2009 05:57:38 -1.1 C 3.05 g/m*3 -1.1 C 0 km/h
1470 19-03-2009 06:09:38 -1.1 C 3.05 g/m*3 -1.1 C 0 km/h
1471 19-03-2009 06:21:38 -1.2 C 2.99 g/m*3 -1.2 C 0 km/h
1472 19-03-2009 06:33:39 -1.2 C 2.99 g/m*3 -1.2 C 0 km/h
1473 19-03-2009 06:45:39 -1.3 C 3.01 g/m*3 -1.3 C 0 km/h
1474 19-03-2009 06:57:39 -1.3 C 3.01 g/m*3 -1.3 C 0 km/h
1475 19-03-2009 07:09:36 -1.5 C 2.92 g/m*3 -1.5 C 0 km/h
Sensor: Nr:Datum:Temp:Abs-Feuchte:Windchill:Wind:
Aussen-T/F 1476 19-03-2009 07:21:36 -1.4 C 2.99 g/m*3 -1.4 C 0 km/h
1477 19-03-2009 07:33:35 -1.3 C 3.01 g/m*3 -1.3 C 0 km/h
1478 19-03-2009 07:45:35 -1.2 C 3.03 g/m*3 -1.2 C 0 km/h
1479 19-03-2009 07:57:35 -1.1 C 3.05 g/m*3 -1.1 C 0 km/h
1480 19-03-2009 08:09:35 -0.9 C 3.1 g/m*3 -0.9 C 0 km/h
1481 19-03-2009 08:21:35 -0.8 C 3.16 g/m*3 -0.8 C 0 km/h
1482 19-03-2009 08:33:35 -0.3 C 3.27 g/m*3 -0.3 C 0 km/h
1483 19-03-2009 08:45:35 0.4 C 3.34 g/m*3 0.4 C 0 km/h
1484 19-03-2009 08:57:35 0.9 C 3.3 g/m*3 0.9 C 0 km/h
1485 19-03-2009 09:09:35 1.6 C 3.24 g/m*3 1.6 C 0 km/h
1486 19-03-2009 09:21:34 1.9 C 3.2 g/m*3 1.9 C 0 km/h
1487 19-03-2009 09:33:34 2 C 2.95 g/m*3 2 C 0 km/h
1488 19-03-2009 09:45:34 2.2 C 2.93 g/m*3 2.2 C 0 km/h
1489 19-03-2009 09:57:34 2.5 C 3.1 g/m*3 2.5 C 0 km/h
1490 19-03-2009 10:09:34 2.8 C 3.11 g/m*3 2.8 C 0 km/h
1491 19-03-2009 10:21:34 3.2 C 3.01 g/m*3 3.2 C 0 km/h
1492 19-03-2009 10:33:34 4.1 C 3.14 g/m*3 4.1 C 0 km/h
1493 19-03-2009 10:45:34 4.6 C 3.11 g/m*3 4.6 C 0 km/h
1494 19-03-2009 10:57:34 5.3 C 3.12 g/m*3 5.3 C 0 km/h
1495 19-03-2009 11:09:33 5.6 C 3.11 g/m*3 5.6 C 0 km/h
1496 19-03-2009 11:21:34 6.5 C 3.15 g/m*3 6.5 C 0 km/h
1497 19-03-2009 11:33:33 6.5 C 3 g/m*3 6.5 C 0 km/h
1498 19-03-2009 11:45:33 7.1 C 3.2 g/m*3 7.1 C 0 km/h
1499 19-03-2009 11:57:33 7.3 C 3 g/m*3 7.3 C 0 km/h
1500 19-03-2009 12:09:32 7.6 C 3.06 g/m*3 7.6 C 0 km/h
Sensor: Nr:Datum:Temp:Abs-Feuchte:Windchill:Wind:
Aussen-T/F 1501 19-03-2009 12:21:33 8.7 C 2.94 g/m*3 8.7 C 0 km/h
1502 19-03-2009 12:33:33 9.5 C 2.46 g/m*3 9.5 C 0 km/h
1503 19-03-2009 12:45:32 9.8 C 2.32 g/m*3 9.8 C 0 km/h
1504 19-03-2009 12:57:32 9.9 C 2.33 g/m*3 9.9 C 0 km/h
1505 19-03-2009 13:09:33 10.7 C 2.26 g/m*3 10.7 C 0 km/h
1506 19-03-2009 13:21:32 11.1 C 2.01 g/m*3 11.1 C 0 km/h
1507 19-03-2009 13:33:32 11.9 C 2.22 g/m*3 11.9 C 0 km/h
1508 19-03-2009 13:45:32 13.5 C 2.34 g/m*3 13.5 C 0 km/h
1509 19-03-2009 13:57:32 14 C 2.41 g/m*3 14 C 0 km/h
1510 19-03-2009 14:09:32 14.2 C 2.44 g/m*3 14.2 C 0 km/h
1511 19-03-2009 14:21:31 14.7 C 2.52 g/m*3 14.7 C 0 km/h
1512 19-03-2009 14:33:31 14.3 C 2.46 g/m*3 14.3 C 0 km/h
1513 19-03-2009 14:45:32 15.7 C 2.68 g/m*3 15.7 C 0 km/h
1514 19-03-2009 14:57:32 15.8 C 2.69 g/m*3 15.8 C 0 km/h
1515 19-03-2009 15:09:31 14.4 C 2.47 g/m*3 14.4 C 0 km/h
1516 19-03-2009 15:21:31 15.2 C 2.6 g/m*3 15.2 C 0 km/h
1517 19-03-2009 15:33:30 15.2 C 2.6 g/m*3 15.2 C 0 km/h
1518 19-03-2009 15:45:31 16.5 C 2.81 g/m*3 16.5 C 0 km/h
1519 19-03-2009 15:57:31 15.1 C 2.58 g/m*3 15.1 C 0 km/h
1520 19-03-2009 16:09:30 13.8 C 2.38 g/m*3 13.8 C 0 km/h
1521 19-03-2009 16:21:30 13.2 C 2.3 g/m*3 13.2 C 0 km/h
1522 19-03-2009 16:33:31 13.5 C 2.34 g/m*3 13.5 C 0 km/h
1523 19-03-2009 16:45:30 12.7 C 2.23 g/m*3 12.7 C 0 km/h
1524 19-03-2009 16:57:30 12.4 C 2.19 g/m*3 12.4 C 0 km/h
1525 19-03-2009 17:09:30 12.3 C 2.17 g/m*3 12.3 C 0 km/h
Sensor: Nr:Datum:Temp:Abs-Feuchte:Windchill:Wind:
Aussen-T/F 1526 19-03-2009 17:21:30 12.5 C 2.2 g/m*3 12.5 C 0 km/h
1527 19-03-2009 17:33:30 12.5 C 2.2 g/m*3 12.5 C 0 km/h
1528 19-03-2009 17:45:29 11.8 C 2.1 g/m*3 11.8 C 0 km/h
1529 19-03-2009 17:57:29 11.1 C 2.01 g/m*3 11.1 C 0 km/h
1530 19-03-2009 18:09:30 10.9 C 1.99 g/m*3 10.9 C 0 km/h
1531 19-03-2009 18:21:29 10.2 C 1.9 g/m*3 10.2 C 0 km/h
1532 19-03-2009 18:33:29 9.8 C 1.86 g/m*3 9.8 C 0 km/h
1533 19-03-2009 18:45:28 9.3 C 1.8 g/m*3 9.3 C 0 km/h
1534 19-03-2009 18:57:28 8.9 C 2.28 g/m*3 8.9 C 0 km/h
1535 19-03-2009 19:09:29 8.8 C 2.26 g/m*3 8.8 C 0 km/h
1536 19-03-2009 19:21:29 8.3 C 2.36 g/m*3 8.3 C 0 km/h
1537 19-03-2009 19:33:28 7.9 C 2.46 g/m*3 7.9 C 0 km/h
1538 19-03-2009 19:45:29 7.6 C 2.42 g/m*3 7.6 C 0 km/h
1539 19-03-2009 19:57:29 7.4 C 2.47 g/m*3 7.4 C 0 km/h
1540 19-03-2009 20:09:28 7.4 C 2.47 g/m*3 7.4 C 0 km/h
1541 19-03-2009 20:21:29 7.2 C 2.51 g/m*3 7.2 C 0 km/h
1542 19-03-2009 20:33:28 6.9 C 2.69 g/m*3 6.9 C 0 km/h
1543 19-03-2009 20:45:27 6.7 C 2.74 g/m*3 6.7 C 0 km/h
1544 19-03-2009 20:57:27 6.3 C 2.81 g/m*3 6.3 C 0 km/h
1545 19-03-2009 21:09:27 6 C 2.69 g/m*3 6 C 0 km/h
1546 19-03-2009 21:21:28 5.8 C 2.72 g/m*3 5.8 C 0 km/h
1547 19-03-2009 21:33:27 5.6 C 2.76 g/m*3 5.6 C 0 km/h
1548 19-03-2009 21:45:27 5.3 C 2.77 g/m*3 5.3 C 0 km/h
1549 19-03-2009 21:57:27 5.1 C 2.74 g/m*3 5.1 C 0 km/h
1550 19-03-2009 22:09:28 4.9 C 2.84 g/m*3 4.9 C 0 km/h
Sensor: Nr:Datum:Temp:Abs-Feuchte:Windchill:Wind:
Aussen-T/F 1551 19-03-2009 22:22:28 4.7 C 2.86 g/m*3 4.7 C 0 km/h
1552 19-03-2009 22:34:28 4.5 C 2.76 g/m*3 4.5 C 0 km/h
1553 19-03-2009 22:46:28 4.2 C 2.84 g/m*3 4.2 C 0 km/h
1554 19-03-2009 22:58:28 4.1 C 2.75 g/m*3 4.1 C 0 km/h
1555 19-03-2009 23:10:28 3.7 C 2.93 g/m*3 3.7 C 0 km/h
1556 19-03-2009 23:22:28 3.6 C 2.91 g/m*3 3.6 C 0 km/h
1557 19-03-2009 23:34:29 3.5 C 2.89 g/m*3 3.5 C 0 km/h
1558 19-03-2009 23:46:29 3.3 C 2.91 g/m*3 3.3 C 0 km/h
1559 19-03-2009 23:58:29 3.1 C 2.93 g/m*3 3.1 C 0 km/h
1560 20-03-2009 00:10:29 2.9 C 3.01 g/m*3 2.9 C 0 km/h
1561 20-03-2009 00:22:29 2.7 C 3.09 g/m*3 2.7 C 0 km/h
1562 20-03-2009 00:34:29 2.5 C 3.1 g/m*3 2.5 C 0 km/h
1563 20-03-2009 00:46:29 2.4 C 3.08 g/m*3 2.4 C 0 km/h
1564 20-03-2009 00:58:29 2.3 C 3.12 g/m*3 2.3 C 0 km/h
1565 20-03-2009 01:10:29 2 C 3.11 g/m*3 2 C 0 km/h
1566 20-03-2009 01:22:29 1.9 C 3.2 g/m*3 1.9 C 0 km/h
1567 20-03-2009 01:34:29 1.8 C 3.23 g/m*3 1.8 C 0 km/h
1568 20-03-2009 01:46:29 1.4 C 3.15 g/m*3 1.4 C 0 km/h
1569 20-03-2009 01:58:29 1.3 C 3.18 g/m*3 1.3 C 0 km/h
1570 20-03-2009 02:10:29 1.1 C 3.14 g/m*3 1.1 C 0 km/h
1571 20-03-2009 02:22:29 0.8 C 3.17 g/m*3 0.8 C 0 km/h
1572 20-03-2009 02:34:29 0.5 C 3.06 g/m*3 0.5 C 0 km/h
1573 20-03-2009 02:46:29 0.4 C 3.14 g/m*3 0.4 C 0 km/h
1574 20-03-2009 02:58:29 0.2 C 3.09 g/m*3 0.2 C 0 km/h
1575 20-03-2009 03:10:29 0.1 C 3.12 g/m*3 0.1 C 0 km/h
Sensor: Nr:Datum:Temp:Abs-Feuchte:Windchill:Wind:
Aussen-T/F 1576 20-03-2009 03:22:29 0 C 3.15 g/m*3 0 C 0 km/h
1577 20-03-2009 03:34:30 0 C 3.15 g/m*3 0 C 0 km/h
1578 20-03-2009 03:46:30 -0.2 C 3.11 g/m*3 -0.2 C 0 km/h
1579 20-03-2009 03:58:30 -0.3 C 3.13 g/m*3 -0.3 C 0 km/h
1580 20-03-2009 04:10:30 -0.5 C 3.09 g/m*3 -0.5 C 0 km/h
1581 20-03-2009 04:22:30 -0.7 C 3.09 g/m*3 -0.7 C 0 km/h
1582 20-03-2009 04:34:30 -0.7 C 3.05 g/m*3 -0.7 C 0 km/h
1583 20-03-2009 04:46:30 -0.6 C 3.07 g/m*3 -0.6 C 0 km/h
1584 20-03-2009 04:58:30 -0.4 C 2.97 g/m*3 -0.4 C 0 km/h
1585 20-03-2009 05:10:30 -0.4 C 2.83 g/m*3 -0.4 C 0 km/h
1586 20-03-2009 05:22:30 -0.3 C 2.8 g/m*3 -0.3 C 0 km/h
1587 20-03-2009 05:34:30 -0.5 C 2.81 g/m*3 -0.5 C 0 km/h
1588 20-03-2009 05:46:30 -0.4 C 2.78 g/m*3 -0.4 C 0 km/h
1589 20-03-2009 05:58:30 -0.6 C 2.7 g/m*3 -0.6 C 0 km/h
1590 20-03-2009 06:10:30 -0.4 C 2.59 g/m*3 -0.4 C 0 km/h
1591 20-03-2009 06:22:30 -0.4 C 2.64 g/m*3 -0.4 C 0 km/h
1592 20-03-2009 06:34:30 -0.8 C 2.75 g/m*3 -0.8 C 0 km/h
1593 20-03-2009 06:46:27 -0.9 C 2.82 g/m*3 -0.9 C 0 km/h
1594 20-03-2009 06:58:27 -0.9 C 2.82 g/m*3 -0.9 C 0 km/h
1595 20-03-2009 07:10:27 -1.1 C 2.74 g/m*3 -1.1 C 0 km/h
1596 20-03-2009 07:22:28 -1.1 C 2.78 g/m*3 -1.1 C 0 km/h
1597 20-03-2009 07:34:27 -1 C 2.76 g/m*3 -1 C 0 km/h
1598 20-03-2009 07:46:27 -0.7 C 2.77 g/m*3 -0.7 C 0 km/h
1599 20-03-2009 07:58:27 -0.4 C 2.83 g/m*3 -0.4 C 0 km/h
1600 20-03-2009 08:10:27 -0.6 C 2.79 g/m*3 -0.6 C 0 km/h
Sensor: Nr:Datum:Temp:Abs-Feuchte:Windchill:Wind:
Aussen-T/F 1601 20-03-2009 08:22:27 -0.6 C 2.79 g/m*3 -0.6 C 0 km/h
1602 20-03-2009 08:34:26 -0.4 C 2.92 g/m*3 -0.4 C 0 km/h
1603 20-03-2009 08:46:26 -0.1 C 2.98 g/m*3 -0.1 C 0 km/h
1604 20-03-2009 08:58:26 0.3 C 2.87 g/m*3 0.3 C 0 km/h
1605 20-03-2009 09:10:26 0.8 C 2.87 g/m*3 0.8 C 0 km/h
1606 20-03-2009 09:22:26 1.5 C 2.79 g/m*3 1.5 C 0 km/h
1607 20-03-2009 09:34:26 2.5 C 2.59 g/m*3 2.5 C 0 km/h
1608 20-03-2009 09:46:25 3.1 C 2.69 g/m*3 3.1 C 0 km/h
1609 20-03-2009 09:58:25 3.5 C 2.77 g/m*3 3.5 C 0 km/h
1610 20-03-2009 10:10:26 3.9 C 2.53 g/m*3 3.9 C 0 km/h
1611 20-03-2009 10:22:26 4.6 C 2.12 g/m*3 4.6 C 0 km/h
1612 20-03-2009 10:34:25 5.1 C 1.71 g/m*3 5.1 C 0 km/h
1613 20-03-2009 10:46:25 5.6 C 1.41 g/m*3 5.6 C 0 km/h
1614 20-03-2009 10:58:25 6 C 1.45 g/m*3 6 C 0 km/h
1615 20-03-2009 11:10:25 6.4 C 1.49 g/m*3 6.4 C 0 km/h
1616 20-03-2009 11:22:25 6.4 C 1.49 g/m*3 6.4 C 0 km/h
1617 20-03-2009 11:34:24 6.4 C 1.49 g/m*3 6.4 C 0 km/h
1618 20-03-2009 11:46:25 6.8 C 1.53 g/m*3 6.8 C 0 km/h
1619 20-03-2009 11:58:25 7.7 C 1.62 g/m*3 7.7 C 0 km/h
1620 20-03-2009 12:10:24 7.9 C 1.64 g/m*3 7.9 C 0 km/h
1621 20-03-2009 12:22:24 7.9 C 1.64 g/m*3 7.9 C 0 km/h
1622 20-03-2009 12:34:24 8.5 C 1.71 g/m*3 8.5 C 0 km/h
1623 20-03-2009 12:46:24 8.7 C 1.73 g/m*3 8.7 C 0 km/h
1624 20-03-2009 12:58:24 9.3 C 1.8 g/m*3 9.3 C 0 km/h
1625 20-03-2009 13:10:24 9.2 C 1.79 g/m*3 9.2 C 0 km/h
Sensor: Nr:Datum:Temp:Abs-Feuchte:Windchill:Wind:
Aussen-T/F 1626 20-03-2009 13:22:23 9.2 C 1.79 g/m*3 9.2 C 0 km/h
1627 20-03-2009 13:34:24 9.5 C 1.82 g/m*3 9.5 C 0 km/h
1628 20-03-2009 13:46:23 9.8 C 1.86 g/m*3 9.8 C 0 km/h
1629 20-03-2009 13:58:23 10.5 C 1.94 g/m*3 10.5 C 0 km/h
1630 20-03-2009 14:10:23 11.3 C 2.04 g/m*3 11.3 C 0 km/h
1631 20-03-2009 14:22:24 11.4 C 2.05 g/m*3 11.4 C 0 km/h
1632 20-03-2009 14:34:23 11.6 C 2.08 g/m*3 11.6 C 0 km/h
1633 20-03-2009 14:46:23 12 C 2.13 g/m*3 12 C 0 km/h
1634 20-03-2009 14:58:23 12.4 C 2.19 g/m*3 12.4 C 0 km/h
1635 20-03-2009 15:10:22 10.4 C 1.93 g/m*3 10.4 C 0 km/h
1636 20-03-2009 15:22:23 12.5 C 2.2 g/m*3 12.5 C 0 km/h
1637 20-03-2009 15:34:22 13.1 C 2.28 g/m*3 13.1 C 0 km/h
1638 20-03-2009 15:46:22 12.4 C 2.19 g/m*3 12.4 C 0 km/h
1639 20-03-2009 15:58:23 13.2 C 2.3 g/m*3 13.2 C 0 km/h
1640 20-03-2009 16:10:22 13.9 C 2.4 g/m*3 13.9 C 0 km/h
1641 20-03-2009 16:22:22 13.8 C 2.38 g/m*3 13.8 C 0 km/h
1642 20-03-2009 16:34:22 14 C 2.41 g/m*3 14 C 0 km/h
1643 20-03-2009 16:46:22 14.1 C 2.43 g/m*3 14.1 C 0 km/h
1644 20-03-2009 16:58:22 14 C 2.41 g/m*3 14 C 0 km/h
1645 20-03-2009 17:10:22 13.8 C 2.38 g/m*3 13.8 C 0 km/h
1646 20-03-2009 17:22:21 13.8 C 2.38 g/m*3 13.8 C 0 km/h
1647 20-03-2009 17:34:21 13.7 C 2.37 g/m*3 13.7 C 0 km/h
1648 20-03-2009 17:46:21 13 C 2.27 g/m*3 13 C 0 km/h
1649 20-03-2009 17:58:21 12.4 C 2.19 g/m*3 12.4 C 0 km/h
1650 20-03-2009 18:10:21 11.8 C 2.1 g/m*3 11.8 C 0 km/h
Sensor: Nr:Datum:Temp:Abs-Feuchte:Windchill:Wind:
Aussen-T/F 1651 20-03-2009 18:22:21 10.8 C 1.98 g/m*3 10.8 C 0 km/h
1652 20-03-2009 18:34:21 9.5 C 1.82 g/m*3 9.5 C 0 km/h
1653 20-03-2009 18:46:21 8 C 1.65 g/m*3 8 C 0 km/h
1654 20-03-2009 18:58:21 7 C 1.55 g/m*3 7 C 0 km/h
1655 20-03-2009 19:10:20 6.1 C 1.68 g/m*3 6.1 C 0 km/h
1656 20-03-2009 19:22:20 5.6 C 1.91 g/m*3 5.6 C 0 km/h
1657 20-03-2009 19:34:20 5.3 C 1.94 g/m*3 5.3 C 0 km/h
1658 20-03-2009 19:46:20 5 C 2.04 g/m*3 5 C 0 km/h
1659 20-03-2009 19:58:20 4.6 C 1.99 g/m*3 4.6 C 0 km/h
1660 20-03-2009 20:10:19 4.4 C 2.15 g/m*3 4.4 C 0 km/h
1661 20-03-2009 20:22:20 4.1 C 2.3 g/m*3 4.1 C 0 km/h
1662 20-03-2009 20:34:20 4.1 C 2.24 g/m*3 4.1 C 0 km/h
1663 20-03-2009 20:46:19 3.9 C 2.27 g/m*3 3.9 C 0 km/h
1664 20-03-2009 20:58:19 3.6 C 2.29 g/m*3 3.6 C 0 km/h
1665 20-03-2009 21:10:19 3.5 C 2.4 g/m*3 3.5 C 0 km/h
1666 20-03-2009 21:22:19 3.3 C 2.37 g/m*3 3.3 C 0 km/h
1667 20-03-2009 21:34:18 3.1 C 2.39 g/m*3 3.1 C 0 km/h
1668 20-03-2009 21:46:19 2.8 C 2.41 g/m*3 2.8 C 0 km/h
1669 20-03-2009 21:58:19 2.7 C 2.45 g/m*3 2.7 C 0 km/h
1670 20-03-2009 22:10:19 2.4 C 2.4 g/m*3 2.4 C 0 km/h
1671 20-03-2009 22:22:18 2.3 C 2.55 g/m*3 2.3 C 0 km/h
1672 20-03-2009 22:34:19 2 C 2.5 g/m*3 2 C 0 km/h
1673 20-03-2009 22:46:18 1.8 C 2.52 g/m*3 1.8 C 0 km/h
1674 20-03-2009 22:58:18 1.6 C 2.43 g/m*3 1.6 C 0 km/h
1675 20-03-2009 23:10:18 1.4 C 2.45 g/m*3 1.4 C 0 km/h
Sensor: Nr:Datum:Temp:Abs-Feuchte:Windchill:Wind:
Aussen-T/F 1676 20-03-2009 23:22:18 1.2 C 2.47 g/m*3 1.2 C 0 km/h
1677 20-03-2009 23:34:18 1.2 C 2.47 g/m*3 1.2 C 0 km/h
1678 20-03-2009 23:46:17 0.9 C 2.53 g/m*3 0.9 C 0 km/h
1679 20-03-2009 23:58:17 0.7 C 2.59 g/m*3 0.7 C 0 km/h
1680 21-03-2009 00:10:17 0.5 C 2.61 g/m*3 0.5 C 0 km/h
1681 21-03-2009 00:22:18 0.4 C 2.59 g/m*3 0.4 C 0 km/h
1682 21-03-2009 00:34:17 0.2 C 2.51 g/m*3 0.2 C 0 km/h
1683 21-03-2009 00:46:17 0.2 C 2.51 g/m*3 0.2 C 0 km/h
1684 21-03-2009 00:58:17 0.1 C 2.59 g/m*3 0.1 C 0 km/h
1685 21-03-2009 01:10:17 -0.1 C 2.55 g/m*3 -0.1 C 0 km/h
1686 21-03-2009 01:22:17 -0.2 C 2.48 g/m*3 -0.2 C 0 km/h
1687 21-03-2009 01:34:17 -0.4 C 2.5 g/m*3 -0.4 C 0 km/h
1688 21-03-2009 01:46:16 -0.4 C 2.54 g/m*3 -0.4 C 0 km/h
1689 21-03-2009 01:58:16 -0.5 C 2.48 g/m*3 -0.5 C 0 km/h
1690 21-03-2009 02:10:17 -0.6 C 2.51 g/m*3 -0.6 C 0 km/h
1691 21-03-2009 02:22:16 -0.6 C 2.56 g/m*3 -0.6 C 0 km/h
1692 21-03-2009 02:34:16 -0.7 C 2.54 g/m*3 -0.7 C 0 km/h
1693 21-03-2009 02:47:01 -0.9 C 2.55 g/m*3 -0.9 C 0 km/h
1694 21-03-2009 02:59:01 -0.9 C 2.55 g/m*3 -0.9 C 0 km/h
1695 21-03-2009 03:11:02 -1 C 2.53 g/m*3 -1 C 0 km/h
1696 21-03-2009 03:23:02 -1.3 C 2.48 g/m*3 -1.3 C 0 km/h
1697 21-03-2009 03:35:01 -1.4 C 2.51 g/m*3 -1.4 C 0 km/h
1698 21-03-2009 03:47:01 -1.4 C 2.51 g/m*3 -1.4 C 0 km/h
1699 21-03-2009 03:59:01 -1.5 C 2.49 g/m*3 -1.5 C 0 km/h
1700 21-03-2009 04:11:02 -1.5 C 2.49 g/m*3 -1.5 C 0 km/h
Sensor: Nr:Datum:Temp:Abs-Feuchte:Windchill:Wind:
Aussen-T/F 1701 21-03-2009 04:23:01 -1.4 C 2.59 g/m*3 -1.4 C 0 km/h
1702 21-03-2009 04:35:01 -1.4 C 2.55 g/m*3 -1.4 C 0 km/h
1703 21-03-2009 04:47:01 -1.3 C 2.57 g/m*3 -1.3 C 0 km/h
1704 21-03-2009 04:59:01 -1.1 C 2.65 g/m*3 -1.1 C 0 km/h
1705 21-03-2009 05:11:02 -1.1 C 2.65 g/m*3 -1.1 C 0 km/h
1706 21-03-2009 05:23:01 -1.3 C 2.57 g/m*3 -1.3 C 0 km/h
1707 21-03-2009 05:35:02 -1.4 C 2.64 g/m*3 -1.4 C 0 km/h
1708 21-03-2009 05:47:02 -1.6 C 2.6 g/m*3 -1.6 C 0 km/h
1709 21-03-2009 05:59:02 -1.7 C 2.58 g/m*3 -1.7 C 0 km/h
1710 21-03-2009 06:11:01 -1.9 C 2.55 g/m*3 -1.9 C 0 km/h
1711 21-03-2009 06:23:01 -2.1 C 2.51 g/m*3 -2.1 C 0 km/h
1712 21-03-2009 06:35:02 -2.1 C 2.6 g/m*3 -2.1 C 0 km/h
1713 21-03-2009 06:47:01 -2.1 C 2.64 g/m*3 -2.1 C 0 km/h
1714 21-03-2009 06:59:01 -2.1 C 2.6 g/m*3 -2.1 C 0 km/h
1715 21-03-2009 07:11:02 -2.1 C 2.64 g/m*3 -2.1 C 0 km/h
1716 21-03-2009 07:23:01 -2.1 C 2.64 g/m*3 -2.1 C 0 km/h
1717 21-03-2009 07:35:02 -2 C 2.66 g/m*3 -2 C 0 km/h
1718 21-03-2009 07:47:01 -2 C 2.7 g/m*3 -2 C 0 km/h
1719 21-03-2009 07:59:01 -1.9 C 2.76 g/m*3 -1.9 C 0 km/h
1720 21-03-2009 08:11:01 -1.8 C 2.74 g/m*3 -1.8 C 0 km/h
1721 21-03-2009 08:23:01 -1.7 C 2.76 g/m*3 -1.7 C 0 km/h
1722 21-03-2009 08:35:01 -1.6 C 2.69 g/m*3 -1.6 C 0 km/h
1723 21-03-2009 08:47:02 -1.4 C 2.68 g/m*3 -1.4 C 0 km/h
1724 21-03-2009 08:59:02 -1 C 2.71 g/m*3 -1 C 0 km/h
1725 21-03-2009 09:11:01 -0.3 C 2.8 g/m*3 -0.3 C 0 km/h
Sensor: Nr:Datum:Temp:Abs-Feuchte:Windchill:Wind:
Aussen-T/F 1726 21-03-2009 09:23:02 0.2 C 2.75 g/m*3 0.2 C 0 km/h
1727 21-03-2009 09:35:01 0.9 C 2.63 g/m*3 0.9 C 0 km/h
1728 21-03-2009 09:47:02 1.7 C 2.56 g/m*3 1.7 C 0 km/h
1729 21-03-2009 09:59:02 1.9 C 2.59 g/m*3 1.9 C 0 km/h
1730 21-03-2009 10:11:01 2.8 C 2.64 g/m*3 2.8 C 0 km/h
1731 21-03-2009 10:23:01 3.2 C 2.59 g/m*3 3.2 C 0 km/h
1732 21-03-2009 10:35:02 3.9 C 2.65 g/m*3 3.9 C 0 km/h
1733 21-03-2009 10:47:01 4.5 C 2.56 g/m*3 4.5 C 0 km/h
1734 21-03-2009 10:59:01 4.8 C 2.48 g/m*3 4.8 C 0 km/h
1735 21-03-2009 11:11:02 5.2 C 2.48 g/m*3 5.2 C 0 km/h
1736 21-03-2009 11:23:01 5.7 C 2.35 g/m*3 5.7 C 0 km/h
1737 21-03-2009 11:35:02 6.2 C 2.21 g/m*3 6.2 C 0 km/h
1738 21-03-2009 11:47:01 6.7 C 2.2 g/m*3 6.7 C 0 km/h
1739 21-03-2009 11:59:01 7.3 C 1.58 g/m*3 7.3 C 0 km/h
1740 21-03-2009 12:11:02 7.8 C 2.04 g/m*3 7.8 C 0 km/h
1741 21-03-2009 12:23:01 8.1 C 1.91 g/m*3 8.1 C 0 km/h
1742 21-03-2009 12:35:01 8.9 C 1.75 g/m*3 8.9 C 0 km/h
1743 21-03-2009 12:47:01 9.3 C 1.8 g/m*3 9.3 C 0 km/h
1744 21-03-2009 12:59:01 9.7 C 1.84 g/m*3 9.7 C 0 km/h
1745 21-03-2009 13:11:01 10.1 C 1.89 g/m*3 10.1 C 0 km/h
1746 21-03-2009 13:23:02 10.5 C 1.94 g/m*3 10.5 C 0 km/h
1747 21-03-2009 13:35:01 11.4 C 2.05 g/m*3 11.4 C 0 km/h
1748 21-03-2009 13:47:02 12 C 2.13 g/m*3 12 C 0 km/h
1749 21-03-2009 13:59:02 12.4 C 2.19 g/m*3 12.4 C 0 km/h
1750 21-03-2009 14:11:01 12.7 C 2.23 g/m*3 12.7 C 0 km/h
Sensor: Nr:Datum:Temp:Abs-Feuchte:Windchill:Wind:
Aussen-T/F 1751 21-03-2009 14:23:01 12.2 C 2.16 g/m*3 12.2 C 0 km/h
1752 21-03-2009 14:35:01 13.4 C 2.32 g/m*3 13.4 C 0 km/h
1753 21-03-2009 14:47:01 13.7 C 2.37 g/m*3 13.7 C 0 km/h
1754 21-03-2009 14:59:01 14.4 C 2.47 g/m*3 14.4 C 0 km/h
1755 21-03-2009 15:11:02 14.9 C 2.55 g/m*3 14.9 C 0 km/h
1756 21-03-2009 15:23:01 15.2 C 2.6 g/m*3 15.2 C 0 km/h
1757 21-03-2009 15:35:02 15.1 C 2.58 g/m*3 15.1 C 0 km/h
1758 21-03-2009 15:47:01 15.8 C 2.69 g/m*3 15.8 C 0 km/h
1759 21-03-2009 15:59:01 14.4 C 2.47 g/m*3 14.4 C 0 km/h
1760 21-03-2009 16:11:02 14.4 C 2.47 g/m*3 14.4 C 0 km/h
1761 21-03-2009 16:23:01 15.5 C 2.64 g/m*3 15.5 C 0 km/h
1762 21-03-2009 16:35:01 16.4 C 2.79 g/m*3 16.4 C 0 km/h
1763 21-03-2009 16:47:01 16.7 C 2.84 g/m*3 16.7 C 0 km/h
1764 21-03-2009 16:59:01 15.9 C 2.71 g/m*3 15.9 C 0 km/h
1765 21-03-2009 17:11:01 15.6 C 2.66 g/m*3 15.6 C 0 km/h
1766 21-03-2009 17:23:02 15.2 C 2.6 g/m*3 15.2 C 0 km/h
1767 21-03-2009 17:35:01 15 C 2.56 g/m*3 15 C 0 km/h
1768 21-03-2009 17:47:02 14.6 C 2.5 g/m*3 14.6 C 0 km/h
1769 21-03-2009 17:59:02 14 C 2.41 g/m*3 14 C 0 km/h
1770 21-03-2009 18:11:01 12.3 C 2.17 g/m*3 12.3 C 0 km/h
1771 21-03-2009 18:23:01 11.7 C 2.09 g/m*3 11.7 C 0 km/h
1772 21-03-2009 18:35:01 11.1 C 2.01 g/m*3 11.1 C 0 km/h
1773 21-03-2009 18:47:01 10.2 C 1.9 g/m*3 10.2 C 0 km/h
1774 21-03-2009 18:59:01 9.7 C 1.84 g/m*3 9.7 C 0 km/h
1775 21-03-2009 19:11:01 9.3 C 2.25 g/m*3 9.3 C 0 km/h
Sensor: Nr:Datum:Temp:Abs-Feuchte:Windchill:Wind:
Aussen-T/F 1776 21-03-2009 19:23:02 9 C 2.38 g/m*3 9 C 0 km/h
1777 21-03-2009 19:35:01 8.7 C 2.59 g/m*3 8.7 C 0 km/h
1778 21-03-2009 19:47:02 8.4 C 2.63 g/m*3 8.4 C 0 km/h
1779 21-03-2009 19:59:02 8 C 2.65 g/m*3 8 C 0 km/h
1780 21-03-2009 20:11:01 7.9 C 2.71 g/m*3 7.9 C 0 km/h
1781 21-03-2009 20:23:02 7.8 C 2.77 g/m*3 7.8 C 0 km/h
1782 21-03-2009 20:35:01 7.6 C 2.82 g/m*3 7.6 C 0 km/h
1783 21-03-2009 20:47:02 7.4 C 2.86 g/m*3 7.4 C 0 km/h
1784 21-03-2009 20:59:02 7.1 C 2.96 g/m*3 7.1 C 0 km/h
1785 21-03-2009 21:11:01 6.9 C 2.93 g/m*3 6.9 C 0 km/h
1786 21-03-2009 21:23:02 6.6 C 3.02 g/m*3 6.6 C 0 km/h
1787 21-03-2009 21:35:01 6.4 C 3.05 g/m*3 6.4 C 0 km/h
1788 21-03-2009 21:47:02 6 C 3.12 g/m*3 6 C 0 km/h
1789 21-03-2009 21:59:02 5.6 C 3.18 g/m*3 5.6 C 0 km/h
1790 21-03-2009 22:11:44 5.2 C 3.17 g/m*3 5.2 C 0 km/h
1791 21-03-2009 22:23:44 4.9 C 3.24 g/m*3 4.9 C 0 km/h
1792 21-03-2009 22:35:01 4.7 C 3.2 g/m*3 4.7 C 0 km/h
1793 21-03-2009 22:47:07 4.5 C 3.16 g/m*3 4.5 C 0 km/h
1794 21-03-2009 22:59:07 4.3 C 3.11 g/m*3 4.3 C 0 km/h
1795 21-03-2009 23:11:07 4.3 C 2.98 g/m*3 4.3 C 0 km/h
1796 21-03-2009 23:23:07 4.1 C 3.01 g/m*3 4.1 C 0 km/h
1797 21-03-2009 23:35:07 3.9 C 3.03 g/m*3 3.9 C 0 km/h
1798 21-03-2009 23:47:07 3.6 C 3.03 g/m*3 3.6 C 0 km/h
1799 21-03-2009 23:59:07 3.4 C 3.05 g/m*3 3.4 C 0 km/h
1800 22-03-2009 00:11:07 3.2 C 3.07 g/m*3 3.2 C 0 km/h
Sensor: Nr:Datum:Temp:Abs-Feuchte:Windchill:Wind:
Aussen-T/F 1801 22-03-2009 00:23:07 3 C 3.03 g/m*3 3 C 0 km/h
1802 22-03-2009 00:35:07 2.8 C 3.11 g/m*3 2.8 C 0 km/h
1803 22-03-2009 00:47:07 2.6 C 3.07 g/m*3 2.6 C 0 km/h
1804 22-03-2009 00:59:07 2.5 C 3.05 g/m*3 2.5 C 0 km/h
1805 22-03-2009 01:11:07 2.4 C 3.08 g/m*3 2.4 C 0 km/h
1806 22-03-2009 01:23:07 2.2 C 3.04 g/m*3 2.2 C 0 km/h
1807 22-03-2009 01:35:07 2 C 3.06 g/m*3 2 C 0 km/h
1808 22-03-2009 01:47:07 2 C 3.06 g/m*3 2 C 0 km/h
1809 22-03-2009 01:59:07 1.9 C 3.09 g/m*3 1.9 C 0 km/h
1810 22-03-2009 02:11:07 1.8 C 3.12 g/m*3 1.8 C 0 km/h
1811 22-03-2009 02:23:08 1.5 C 3.12 g/m*3 1.5 C 0 km/h
1812 22-03-2009 02:35:08 1.4 C 3.15 g/m*3 1.4 C 0 km/h
1813 22-03-2009 02:47:08 1.2 C 3.1 g/m*3 1.2 C 0 km/h
1814 22-03-2009 02:59:08 1.1 C 3.14 g/m*3 1.1 C 0 km/h
1815 22-03-2009 03:11:08 1.4 C 3.09 g/m*3 1.4 C 0 km/h
1816 22-03-2009 03:23:08 1.4 C 3.04 g/m*3 1.4 C 0 km/h
1817 22-03-2009 03:35:08 1.1 C 3.03 g/m*3 1.1 C 0 km/h
1818 22-03-2009 03:47:08 0.9 C 3.09 g/m*3 0.9 C 0 km/h
1819 22-03-2009 03:59:08 0.7 C 3.1 g/m*3 0.7 C 0 km/h
1820 22-03-2009 04:11:08 0.5 C 3.16 g/m*3 0.5 C 0 km/h
1821 22-03-2009 04:23:08 0.6 C 3.13 g/m*3 0.6 C 0 km/h
1822 22-03-2009 04:35:08 0.6 C 3.08 g/m*3 0.6 C 0 km/h
1823 22-03-2009 04:47:08 0.6 C 3.13 g/m*3 0.6 C 0 km/h
1824 22-03-2009 04:59:08 0.3 C 3.07 g/m*3 0.3 C 0 km/h
1825 22-03-2009 05:11:08 0.1 C 3.12 g/m*3 0.1 C 0 km/h
Sensor: Nr:Datum:Temp:Abs-Feuchte:Windchill:Wind:
Aussen-T/F 1826 22-03-2009 05:23:08 0.1 C 3.12 g/m*3 0.1 C 0 km/h
1827 22-03-2009 05:35:08 0.3 C 3.12 g/m*3 0.3 C 0 km/h
1828 22-03-2009 05:47:08 -0.1 C 3.08 g/m*3 -0.1 C 0 km/h
1829 22-03-2009 05:59:08 -0.3 C 3.13 g/m*3 -0.3 C 0 km/h
1830 22-03-2009 06:11:08 -0.4 C 3.16 g/m*3 -0.4 C 0 km/h
1831 22-03-2009 06:23:08 -0.4 C 3.2 g/m*3 -0.4 C 0 km/h
1832 22-03-2009 06:35:09 -0.4 C 3.2 g/m*3 -0.4 C 0 km/h
1833 22-03-2009 06:47:09 -0.4 C 3.2 g/m*3 -0.4 C 0 km/h
1834 22-03-2009 06:59:09 -0.3 C 3.27 g/m*3 -0.3 C 0 km/h
1835 22-03-2009 07:11:07 -0.3 C 3.23 g/m*3 -0.3 C 0 km/h
1836 22-03-2009 07:23:07 0 C 3.29 g/m*3 0 C 0 km/h
1837 22-03-2009 07:35:07 0.3 C 3.31 g/m*3 0.3 C 0 km/h
1838 22-03-2009 07:47:06 0.7 C 3.41 g/m*3 0.7 C 0 km/h
1839 22-03-2009 07:59:06 1 C 3.43 g/m*3 1 C 0 km/h
1840 22-03-2009 08:11:07 1.1 C 3.5 g/m*3 1.1 C 0 km/h
1841 22-03-2009 08:23:06 1.1 C 3.5 g/m*3 1.1 C 0 km/h
1842 22-03-2009 08:35:06 1.4 C 3.57 g/m*3 1.4 C 0 km/h
1843 22-03-2009 08:47:06 1.6 C 3.57 g/m*3 1.6 C 0 km/h
1844 22-03-2009 08:59:06 1.7 C 3.7 g/m*3 1.7 C 0 km/h
1845 22-03-2009 09:11:06 1.8 C 3.78 g/m*3 1.8 C 0 km/h
1846 22-03-2009 09:23:06 1.9 C 3.97 g/m*3 1.9 C 0 km/h
1847 22-03-2009 09:35:05 2.1 C 4.03 g/m*3 2.1 C 0 km/h
1848 22-03-2009 09:47:06 2.3 C 4.03 g/m*3 2.3 C 0 km/h
1849 22-03-2009 09:59:06 2.1 C 3.86 g/m*3 2.1 C 0 km/h
1850 22-03-2009 10:11:05 2.5 C 4.02 g/m*3 2.5 C 0 km/h
Sensor: Nr:Datum:Temp:Abs-Feuchte:Windchill:Wind:
Aussen-T/F 1851 22-03-2009 10:23:05 2.5 C 3.97 g/m*3 2.5 C 0 km/h
1852 22-03-2009 10:35:05 2.7 C 4.02 g/m*3 2.7 C 0 km/h
1853 22-03-2009 10:47:05 2.8 C 3.99 g/m*3 2.8 C 0 km/h
1854 22-03-2009 10:59:05 3.1 C 4.01 g/m*3 3.1 C 0 km/h
1855 22-03-2009 11:11:04 3.3 C 4 g/m*3 3.3 C 0 km/h
1856 22-03-2009 11:23:05 3.7 C 4.05 g/m*3 3.7 C 0 km/h
1857 22-03-2009 11:35:04 4.1 C 4.16 g/m*3 4.1 C 0 km/h
1858 22-03-2009 11:47:04 4.4 C 4.31 g/m*3 4.4 C 0 km/h
1859 22-03-2009 11:59:04 5 C 4.69 g/m*3 5 C 0 km/h
1860 22-03-2009 12:11:04 5.8 C 5.37 g/m*3 5.8 C 0 km/h
1861 22-03-2009 12:23:04 6.2 C 5.44 g/m*3 6.2 C 0 km/h
1862 22-03-2009 12:35:04 6.7 C 5.47 g/m*3 6.7 C 0 km/h
1863 22-03-2009 12:47:04 7 C 5.27 g/m*3 7 C 0 km/h
1864 22-03-2009 12:59:04 7.7 C 5.35 g/m*3 7.7 C 0 km/h
1865 22-03-2009 13:11:04 8.3 C 5.14 g/m*3 8.3 C 0 km/h
1866 22-03-2009 13:23:03 8.9 C 4.56 g/m*3 8.9 C 0 km/h
1867 22-03-2009 13:35:03 9.5 C 4.28 g/m*3 9.5 C 0 km/h
1868 22-03-2009 13:47:03 9.5 C 4.19 g/m*3 9.5 C 0 km/h
1869 22-03-2009 13:59:03 9 C 4.14 g/m*3 9 C 0 km/h
1870 22-03-2009 14:11:03 9.5 C 4.1 g/m*3 9.5 C 0 km/h
1871 22-03-2009 14:23:03 9.3 C 4.04 g/m*3 9.3 C 0 km/h
1872 22-03-2009 14:35:02 9.6 C 4.03 g/m*3 9.6 C 0 km/h
1873 22-03-2009 14:47:03 9.9 C 3.92 g/m*3 9.9 C 0 km/h
1874 22-03-2009 14:59:03 10 C 3.76 g/m*3 10 C 0 km/h
1875 22-03-2009 15:11:02 10.3 C 3.83 g/m*3 10.3 C 0 km/h
Sensor: Nr:Datum:Temp:Abs-Feuchte:Windchill:Wind:
Aussen-T/F 1876 22-03-2009 15:23:02 10.4 C 3.76 g/m*3 10.4 C 0 km/h
1877 22-03-2009 15:35:02 10.2 C 3.81 g/m*3 10.2 C 0 km/h
1878 22-03-2009 15:47:02 10.4 C 3.76 g/m*3 10.4 C 0 km/h
1879 22-03-2009 15:59:02 10 C 3.57 g/m*3 10 C 0 km/h
1880 22-03-2009 16:11:02 10.2 C 3.71 g/m*3 10.2 C 0 km/h
1881 22-03-2009 16:23:01 10.2 C 3.71 g/m*3 10.2 C 0 km/h
1882 22-03-2009 16:35:02 10.5 C 3.69 g/m*3 10.5 C 0 km/h
1883 22-03-2009 16:47:01 10.7 C 3.54 g/m*3 10.7 C 0 km/h
1884 22-03-2009 16:59:01 10.4 C 3.47 g/m*3 10.4 C 0 km/h
1885 22-03-2009 17:11:01 10.7 C 3.54 g/m*3 10.7 C 0 km/h
1886 22-03-2009 17:23:01 10.5 C 3.59 g/m*3 10.5 C 0 km/h
1887 22-03-2009 17:35:01 10.3 C 3.54 g/m*3 10.3 C 0 km/h
1888 22-03-2009 17:47:01 10 C 3.57 g/m*3 10 C 0 km/h
1889 22-03-2009 17:59:01 9.9 C 3.64 g/m*3 9.9 C 0 km/h
1890 22-03-2009 18:11:00 9.7 C 3.69 g/m*3 9.7 C 0 km/h
1891 22-03-2009 18:23:01 9.7 C 3.69 g/m*3 9.7 C 0 km/h
1892 22-03-2009 18:35:00 9.5 C 3.64 g/m*3 9.5 C 0 km/h
1893 22-03-2009 18:47:00 9.3 C 3.68 g/m*3 9.3 C 0 km/h
1894 22-03-2009 18:59:00 9.3 C 3.68 g/m*3 9.3 C 0 km/h
1895 22-03-2009 19:11:00 9.1 C 3.64 g/m*3 9.1 C 0 km/h
1896 22-03-2009 19:23:00 8.9 C 3.77 g/m*3 8.9 C 0 km/h
1897 22-03-2009 19:35:00 8.9 C 3.77 g/m*3 8.9 C 0 km/h
1898 22-03-2009 19:58:59 8.6 C 3.78 g/m*3 8.6 C 0 km/h
1899 22-03-2009 19:59:00 8.4 C 3.82 g/m*3 8.4 C 0 km/h
1900 22-03-2009 20:11:00 8.4 C 3.82 g/m*3 8.4 C 0 km/h
Sensor: Nr:Datum:Temp:Abs-Feuchte:Windchill:Wind:
Aussen-T/F 1901 22-03-2009 20:23:59 8.4 C 3.82 g/m*3 8.4 C 0 km/h
1902 22-03-2009 20:35:59 8.4 C 3.82 g/m*3 8.4 C 0 km/h
1903 22-03-2009 20:47:59 8.4 C 3.82 g/m*3 8.4 C 0 km/h
1904 22-03-2009 20:59:58 8.5 C 3.84 g/m*3 8.5 C 0 km/h
1905 22-03-2009 21:11:58 8.4 C 3.82 g/m*3 8.4 C 0 km/h
1906 22-03-2009 21:23:59 8.3 C 3.88 g/m*3 8.3 C 0 km/h
1907 22-03-2009 21:35:59 8.2 C 3.85 g/m*3 8.2 C 0 km/h
1908 22-03-2009 21:47:59 8.1 C 3.83 g/m*3 8.1 C 0 km/h
1909 22-03-2009 22:00:59 8 C 3.89 g/m*3 8 C 0 km/h
1910 22-03-2009 22:12:59 7.7 C 4.3 g/m*3 7.7 C 0 km/h
1911 22-03-2009 22:24:59 7.7 C 4.38 g/m*3 7.7 C 0 km/h
1912 22-03-2009 22:36:59 7.5 C 4.64 g/m*3 7.5 C 0 km/h
1913 22-03-2009 22:48:59 7.3 C 4.66 g/m*3 7.3 C 0 km/h
1914 22-03-2009 23:00:59 7.5 C 4.64 g/m*3 7.5 C 0 km/h
1915 22-03-2009 23:12:59 7.5 C 4.56 g/m*3 7.5 C 0 km/h
1916 22-03-2009 23:24:59 7.6 C 4.59 g/m*3 7.6 C 0 km/h
1917 22-03-2009 23:37:00 7.5 C 4.72 g/m*3 7.5 C 0 km/h
1918 22-03-2009 23:49:00 7.6 C 4.67 g/m*3 7.6 C 0 km/h
1919 23-03-2009 00:01:00 7.5 C 4.64 g/m*3 7.5 C 0 km/h
1920 23-03-2009 00:13:00 7.5 C 4.64 g/m*3 7.5 C 0 km/h
1921 23-03-2009 00:24:00 7.5 C 4.64 g/m*3 7.5 C 0 km/h
1922 23-03-2009 00:36:00 7.5 C 4.72 g/m*3 7.5 C 0 km/h
1923 23-03-2009 00:48:00 7.5 C 4.72 g/m*3 7.5 C 0 km/h
1924 23-03-2009 01:00:00 7.5 C 4.72 g/m*3 7.5 C 0 km/h
1925 23-03-2009 01:12:00 7.5 C 4.64 g/m*3 7.5 C 0 km/h
Sensor: Nr:Datum:Temp:Abs-Feuchte:Windchill:Wind:
Aussen-T/F 1926 23-03-2009 01:24:00 7.5 C 4.64 g/m*3 7.5 C 0 km/h
1927 23-03-2009 01:36:00 7.6 C 4.67 g/m*3 7.6 C 0 km/h
1928 23-03-2009 01:48:00 7.6 C 4.67 g/m*3 7.6 C 0 km/h
1929 23-03-2009 02:00:00 7.6 C 4.67 g/m*3 7.6 C 0 km/h
1930 23-03-2009 02:12:00 7.5 C 4.64 g/m*3 7.5 C 0 km/h
1931 23-03-2009 02:24:00 7.5 C 4.72 g/m*3 7.5 C 0 km/h
1932 23-03-2009 02:36:00 7.6 C 4.75 g/m*3 7.6 C 0 km/h
1933 23-03-2009 02:48:00 7.6 C 4.75 g/m*3 7.6 C 0 km/h
1934 23-03-2009 03:00:00 7.7 C 4.78 g/m*3 7.7 C 0 km/h
1935 23-03-2009 03:12:00 7.6 C 4.75 g/m*3 7.6 C 0 km/h
1936 23-03-2009 03:24:00 7.5 C 4.72 g/m*3 7.5 C 0 km/h
1937 23-03-2009 03:36:01 7.5 C 4.72 g/m*3 7.5 C 0 km/h
1938 23-03-2009 03:48:01 7.6 C 4.75 g/m*3 7.6 C 0 km/h
1939 23-03-2009 04:00:01 7.7 C 4.87 g/m*3 7.7 C 0 km/h
1940 23-03-2009 04:12:01 7.9 C 4.93 g/m*3 7.9 C 0 km/h
1941 23-03-2009 04:24:01 7.8 C 4.9 g/m*3 7.8 C 0 km/h
1942 23-03-2009 04:36:01 7.8 C 4.9 g/m*3 7.8 C 0 km/h
1943 23-03-2009 04:48:01 7.8 C 4.9 g/m*3 7.8 C 0 km/h
1944 23-03-2009 05:00:01 7.8 C 4.9 g/m*3 7.8 C 0 km/h
1945 23-03-2009 05:12:01 7.8 C 4.9 g/m*3 7.8 C 0 km/h
1946 23-03-2009 05:24:01 7.8 C 4.9 g/m*3 7.8 C 0 km/h
1947 23-03-2009 05:36:01 7.8 C 4.9 g/m*3 7.8 C 0 km/h
1948 23-03-2009 05:48:01 7.9 C 4.85 g/m*3 7.9 C 0 km/h
1949 23-03-2009 06:00:01 7.7 C 4.87 g/m*3 7.7 C 0 km/h
1950 23-03-2009 06:12:01 7.6 C 4.83 g/m*3 7.6 C 0 km/h
Sensor: Nr:Datum:Temp:Abs-Feuchte:Windchill:Wind:
Aussen-T/F 1951 23-03-2009 06:24:01 7.6 C 4.83 g/m*3 7.6 C 0 km/h
1952 23-03-2009 06:36:01 7.5 C 4.8 g/m*3 7.5 C 0 km/h
1953 23-03-2009 06:48:01 7.5 C 4.88 g/m*3 7.5 C 0 km/h
1954 23-03-2009 07:00:59 7.6 C 4.83 g/m*3 7.6 C 0 km/h
1955 23-03-2009 07:12:59 7.6 C 4.83 g/m*3 7.6 C 0 km/h
1956 23-03-2009 07:24:59 7.6 C 4.91 g/m*3 7.6 C 0 km/h
1957 23-03-2009 07:36:59 7.6 C 4.83 g/m*3 7.6 C 0 km/h
1958 23-03-2009 07:48:58 7.7 C 4.87 g/m*3 7.7 C 0 km/h
1959 23-03-2009 08:00:59 7.9 C 4.93 g/m*3 7.9 C 0 km/h
1960 23-03-2009 08:12:59 8 C 4.8 g/m*3 8 C 0 km/h
1961 23-03-2009 08:24:58 8.1 C 4.83 g/m*3 8.1 C 0 km/h
1962 23-03-2009 08:36:58 8.1 C 4.83 g/m*3 8.1 C 0 km/h
1963 23-03-2009 08:48:57 8.2 C 4.86 g/m*3 8.2 C 0 km/h
1964 23-03-2009 09:00:58 8.2 C 4.86 g/m*3 8.2 C 0 km/h
1965 23-03-2009 09:12:58 8.2 C 4.86 g/m*3 8.2 C 0 km/h
1966 23-03-2009 09:24:58 8.3 C 4.89 g/m*3 8.3 C 0 km/h
1967 23-03-2009 09:36:57 8.4 C 4.75 g/m*3 8.4 C 0 km/h
1968 23-03-2009 09:48:58 8.7 C 4.76 g/m*3 8.7 C 0 km/h
1969 23-03-2009 10:00:57 8.9 C 4.56 g/m*3 8.9 C 0 km/h
1970 23-03-2009 10:12:57 9 C 4.41 g/m*3 9 C 0 km/h
1971 23-03-2009 10:24:57 9.1 C 4.44 g/m*3 9.1 C 0 km/h
1972 23-03-2009 10:36:56 9.2 C 4.38 g/m*3 9.2 C 0 km/h
1973 23-03-2009 10:48:57 9.3 C 4.31 g/m*3 9.3 C 0 km/h
1974 23-03-2009 11:00:57 9.4 C 4.25 g/m*3 9.4 C 0 km/h
1975 23-03-2009 11:12:57 9.7 C 4.24 g/m*3 9.7 C 0 km/h
Sensor: Nr:Datum:Temp:Abs-Feuchte:Windchill:Wind:
Aussen-T/F 1976 23-03-2009 11:24:56 9.8 C 4.18 g/m*3 9.8 C 0 km/h
1977 23-03-2009 11:36:57 9.9 C 4.11 g/m*3 9.9 C 0 km/h
1978 23-03-2009 11:48:56 9.9 C 4.01 g/m*3 9.9 C 0 km/h
1979 23-03-2009 12:00:56 10.2 C 4 g/m*3 10.2 C 0 km/h
1980 23-03-2009 12:12:56 10.7 C 3.93 g/m*3 10.7 C 0 km/h
1981 23-03-2009 12:24:56 10.8 C 3.95 g/m*3 10.8 C 0 km/h
1982 23-03-2009 12:36:56 11.6 C 3.85 g/m*3 11.6 C 0 km/h
1983 23-03-2009 12:48:55 12 C 3.73 g/m*3 12 C 0 km/h
1984 23-03-2009 13:00:55 11.8 C 3.79 g/m*3 11.8 C 0 km/h
1985 23-03-2009 13:12:55 11.6 C 3.85 g/m*3 11.6 C 0 km/h
1986 23-03-2009 13:24:56 11.9 C 3.92 g/m*3 11.9 C 0 km/h
1987 23-03-2009 13:36:55 11.9 C 3.92 g/m*3 11.9 C 0 km/h
1988 23-03-2009 13:48:55 11.6 C 3.95 g/m*3 11.6 C 0 km/h
1989 23-03-2009 14:00:55 11.6 C 4.05 g/m*3 11.6 C 0 km/h
1990 23-03-2009 14:12:55 11.6 C 4.16 g/m*3 11.6 C 0 km/h
1991 23-03-2009 14:24:55 11.4 C 4.11 g/m*3 11.4 C 0 km/h
1992 23-03-2009 14:36:54 11.3 C 4.08 g/m*3 11.3 C 0 km/h
1993 23-03-2009 14:48:54 11.3 C 4.08 g/m*3 11.3 C 0 km/h
1994 23-03-2009 15:00:55 10.4 C 4.53 g/m*3 10.4 C 0 km/h
1995 23-03-2009 15:12:55 9.8 C 4.82 g/m*3 9.8 C 0 km/h
1996 23-03-2009 15:24:54 9.5 C 5.1 g/m*3 9.5 C 0 km/h
1997 23-03-2009 15:36:54 9.6 C 5.13 g/m*3 9.6 C 0 km/h
1998 23-03-2009 15:48:54 9.9 C 5.14 g/m*3 9.9 C 0 km/h
1999 23-03-2009 16:00:54 9.6 C 5.31 g/m*3 9.6 C 0 km/h
2000 23-03-2009 16:12:54 9.7 C 5.25 g/m*3 9.7 C 0 km/h
Sensor: Nr:Datum:Temp:Abs-Feuchte:Windchill:Wind:
Aussen-T/F 2001 23-03-2009 16:24:53 9.5 C 5.37 g/m*3 9.5 C 0 km/h
2002 23-03-2009 16:36:53 9.5 C 5.28 g/m*3 9.5 C 0 km/h
2003 23-03-2009 16:48:53 9.4 C 5.34 g/m*3 9.4 C 0 km/h
2004 23-03-2009 17:00:53 9.2 C 5.36 g/m*3 9.2 C 0 km/h
2005 23-03-2009 17:12:53 9.1 C 5.41 g/m*3 9.1 C 0 km/h
2006 23-03-2009 17:24:53 9.1 C 5.32 g/m*3 9.1 C 0 km/h
2007 23-03-2009 17:36:53 8.6 C 5.59 g/m*3 8.6 C 0 km/h
2008 23-03-2009 17:48:53 8.5 C 5.72 g/m*3 8.5 C 0 km/h
2009 23-03-2009 18:00:52 8.3 C 5.9 g/m*3 8.3 C 0 km/h
2010 23-03-2009 18:12:52 7.9 C 6.08 g/m*3 7.9 C 0 km/h
2011 23-03-2009 18:24:53 7.6 C 6.12 g/m*3 7.6 C 0 km/h
2012 23-03-2009 18:36:52 7.6 C 6.2 g/m*3 7.6 C 0 km/h
2013 23-03-2009 18:48:52 7.7 C 6.16 g/m*3 7.7 C 0 km/h
2014 23-03-2009 19:00:52 7.8 C 6.2 g/m*3 7.8 C 0 km/h
2015 23-03-2009 19:12:52 7.7 C 6.08 g/m*3 7.7 C 0 km/h
2016 23-03-2009 19:24:52 7.6 C 6.12 g/m*3 7.6 C 0 km/h
2017 23-03-2009 19:36:52 7.4 C 6.12 g/m*3 7.4 C 0 km/h
2018 23-03-2009 19:48:51 4.4 C 4.83 g/m*3 4.4 C 0 km/h
2019 23-03-2009 20:00:52 3.9 C 5.18 g/m*3 3.9 C 0 km/h
2020 23-03-2009 20:12:52 3.8 C 5.27 g/m*3 3.8 C 0 km/h
2021 23-03-2009 20:24:51 3.6 C 5.26 g/m*3 3.6 C 0 km/h
2022 23-03-2009 20:36:51 3.3 C 5.22 g/m*3 3.3 C 0 km/h
2023 23-03-2009 20:48:51 3.5 C 5.35 g/m*3 3.5 C 0 km/h
2024 23-03-2009 21:00:50 3.5 C 5.35 g/m*3 3.5 C 0 km/h
2025 23-03-2009 21:12:50 3.5 C 5.23 g/m*3 3.5 C 0 km/h
Sensor: Nr:Datum:Temp:Abs-Feuchte:Windchill:Wind:
Aussen-T/F 2026 23-03-2009 21:24:51 3.8 C 5.27 g/m*3 3.8 C 0 km/h
2027 23-03-2009 21:36:51 3.8 C 5.14 g/m*3 3.8 C 0 km/h
2028 23-03-2009 21:48:50 3.6 C 4.95 g/m*3 3.6 C 0 km/h
2029 23-03-2009 22:00:51 3.7 C 4.92 g/m*3 3.7 C 0 km/h
2030 23-03-2009 22:12:51 3.8 C 4.77 g/m*3 3.8 C 0 km/h
2031 23-03-2009 22:24:50 3.7 C 4.67 g/m*3 3.7 C 0 km/h
2032 23-03-2009 22:36:50 3.5 C 4.61 g/m*3 3.5 C 0 km/h
2033 23-03-2009 22:49:50 3.7 C 4.55 g/m*3 3.7 C 0 km/h
2034 23-03-2009 23:01:50 3.6 C 4.39 g/m*3 3.6 C 0 km/h
2035 23-03-2009 23:13:50 3.5 C 4.43 g/m*3 3.5 C 0 km/h
2036 23-03-2009 23:25:50 3.3 C 4.49 g/m*3 3.3 C 0 km/h
2037 23-03-2009 23:37:50 3.3 C 4.49 g/m*3 3.3 C 0 km/h
2038 23-03-2009 23:49:50 3.1 C 4.31 g/m*3 3.1 C 0 km/h
2039 24-03-2009 00:01:50 3.1 C 4.31 g/m*3 3.1 C 0 km/h
2040 24-03-2009 00:13:50 2.9 C 4.25 g/m*3 2.9 C 0 km/h
2041 24-03-2009 00:25:50 2.9 C 4.25 g/m*3 2.9 C 0 km/h
2042 24-03-2009 00:37:51 3 C 4.04 g/m*3 3 C 0 km/h
2043 24-03-2009 00:49:51 3.1 C 4.07 g/m*3 3.1 C 0 km/h
2044 24-03-2009 01:01:51 3.1 C 4.01 g/m*3 3.1 C 0 km/h
2045 24-03-2009 01:13:51 2.8 C 4.05 g/m*3 2.8 C 0 km/h
2046 24-03-2009 01:25:51 2.5 C 4.08 g/m*3 2.5 C 0 km/h
2047 24-03-2009 01:37:51 2.4 C 4.11 g/m*3 2.4 C 0 km/h
2048 24-03-2009 01:49:51 2.6 C 4.17 g/m*3 2.6 C 0 km/h
2049 24-03-2009 02:01:51 2.7 C 4.14 g/m*3 2.7 C 0 km/h
2050 24-03-2009 02:13:51 3 C 4.1 g/m*3 3 C 0 km/h
Sensor: Nr:Datum:Temp:Abs-Feuchte:Windchill:Wind:
Aussen-T/F 2051 24-03-2009 02:25:51 3.3 C 4.06 g/m*3 3.3 C 0 km/h
2052 24-03-2009 02:37:51 3.3 C 4.06 g/m*3 3.3 C 0 km/h
2053 24-03-2009 02:49:51 3.5 C 4 g/m*3 3.5 C 0 km/h
2054 24-03-2009 03:01:51 3.6 C 4.02 g/m*3 3.6 C 0 km/h
2055 24-03-2009 03:13:51 3.8 C 3.95 g/m*3 3.8 C 0 km/h
2056 24-03-2009 03:25:51 3.2 C 4.16 g/m*3 3.2 C 0 km/h
2057 24-03-2009 03:37:51 2.8 C 4.46 g/m*3 2.8 C 0 km/h
2058 24-03-2009 03:49:51 2.7 C 4.49 g/m*3 2.7 C 0 km/h
2059 24-03-2009 04:01:51 2.6 C 4.51 g/m*3 2.6 C 0 km/h
2060 24-03-2009 04:13:51 2.7 C 4.54 g/m*3 2.7 C 0 km/h
2061 24-03-2009 04:25:51 3 C 4.46 g/m*3 3 C 0 km/h
2062 24-03-2009 04:37:52 3.1 C 4.31 g/m*3 3.1 C 0 km/h
2063 24-03-2009 04:49:52 3.3 C 4.25 g/m*3 3.3 C 0 km/h
2064 24-03-2009 05:01:52 2.8 C 4.34 g/m*3 2.8 C 0 km/h
2065 24-03-2009 05:13:52 2.9 C 4.49 g/m*3 2.9 C 0 km/h
2066 24-03-2009 05:25:52 3 C 4.22 g/m*3 3 C 0 km/h
2067 24-03-2009 05:37:52 3.2 C 4.22 g/m*3 3.2 C 0 km/h
2068 24-03-2009 05:49:52 3.1 C 4.19 g/m*3 3.1 C 0 km/h
2069 24-03-2009 06:01:52 3.1 C 4.13 g/m*3 3.1 C 0 km/h
2070 24-03-2009 06:13:52 3.2 C 4.04 g/m*3 3.2 C 0 km/h
2071 24-03-2009 06:25:52 3.1 C 4.07 g/m*3 3.1 C 0 km/h
2072 24-03-2009 06:37:52 3.1 C 4.13 g/m*3 3.1 C 0 km/h
2073 24-03-2009 06:49:52 3.1 C 4.25 g/m*3 3.1 C 0 km/h
2074 24-03-2009 07:01:50 3.1 C 4.25 g/m*3 3.1 C 0 km/h
2075 24-03-2009 07:13:50 3.2 C 4.28 g/m*3 3.2 C 0 km/h
Sensor: Nr:Datum:Temp:Abs-Feuchte:Windchill:Wind:
Aussen-T/F 2076 24-03-2009 07:25:50 3.3 C 4.25 g/m*3 3.3 C 0 km/h
2077 24-03-2009 07:37:50 3.3 C 4.19 g/m*3 3.3 C 0 km/h
2078 24-03-2009 07:49:50 3.5 C 4.24 g/m*3 3.5 C 0 km/h
2079 24-03-2009 08:01:51 3.7 C 4.24 g/m*3 3.7 C 0 km/h
2080 24-03-2009 08:13:50 3.7 C 4.24 g/m*3 3.7 C 0 km/h
2081 24-03-2009 08:25:50 3.7 C 4.11 g/m*3 3.7 C 0 km/h
2082 24-03-2009 08:37:49 4.2 C 4.06 g/m*3 4.2 C 0 km/h
2083 24-03-2009 08:49:49 4.3 C 3.89 g/m*3 4.3 C 0 km/h
2084 24-03-2009 09:01:49 4.1 C 3.84 g/m*3 4.1 C 0 km/h
2085 24-03-2009 09:13:49 4.2 C 3.74 g/m*3 4.2 C 0 km/h
2086 24-03-2009 09:25:49 4.4 C 3.79 g/m*3 4.4 C 0 km/h
2087 24-03-2009 09:37:49 4.6 C 3.64 g/m*3 4.6 C 0 km/h
2088 24-03-2009 09:49:48 4.8 C 3.55 g/m*3 4.8 C 0 km/h
2089 24-03-2009 10:01:49 5 C 3.6 g/m*3 5 C 0 km/h
2090 24-03-2009 10:13:48 5.6 C 3.68 g/m*3 5.6 C 0 km/h
2091 24-03-2009 10:25:48 5.9 C 3.53 g/m*3 5.9 C 0 km/h
2092 24-03-2009 10:37:48 5 C 3.74 g/m*3 5 C 0 km/h
2093 24-03-2009 10:49:48 3.2 C 4.34 g/m*3 3.2 C 0 km/h
2094 24-03-2009 11:01:48 3.3 C 4.79 g/m*3 3.3 C 0 km/h
2095 24-03-2009 11:13:47 4.3 C 5.25 g/m*3 4.3 C 0 km/h
2096 24-03-2009 11:25:47 4.6 C 5.16 g/m*3 4.6 C 0 km/h
2097 24-03-2009 11:37:47 5.1 C 4.99 g/m*3 5.1 C 0 km/h
2098 24-03-2009 11:49:47 5.5 C 4.57 g/m*3 5.5 C 0 km/h
2099 24-03-2009 12:01:48 4.4 C 4.51 g/m*3 4.4 C 0 km/h
2100 24-03-2009 12:13:47 5.1 C 4.92 g/m*3 5.1 C 0 km/h
Sensor: Nr:Datum:Temp:Abs-Feuchte:Windchill:Wind:
Aussen-T/F 2101 24-03-2009 12:25:47 5.9 C 4.9 g/m*3 5.9 C 0 km/h
2102 24-03-2009 12:37:47 6.4 C 4.32 g/m*3 6.4 C 0 km/h
2103 24-03-2009 12:49:47 6.8 C 4.44 g/m*3 6.8 C 0 km/h
2104 24-03-2009 13:01:49 7.1 C 4.13 g/m*3 7.1 C 0 km/h
2105 24-03-2009 13:13:46 7.1 C 3.98 g/m*3 7.1 C 0 km/h
2106 24-03-2009 13:25:46 6.9 C 3.62 g/m*3 6.9 C 0 km/h
2107 24-03-2009 13:37:46 6.9 C 3.54 g/m*3 6.9 C 0 km/h
2108 24-03-2009 13:49:46 6.6 C 3.62 g/m*3 6.6 C 0 km/h
2109 24-03-2009 14:01:46 5.6 C 4.1 g/m*3 5.6 C 0 km/h
2110 24-03-2009 14:13:46 5.4 C 4.47 g/m*3 5.4 C 0 km/h
2111 24-03-2009 14:25:46 6.8 C 4.36 g/m*3 6.8 C 0 km/h
2112 24-03-2009 14:37:46 7.9 C 4.19 g/m*3 7.9 C 0 km/h
2113 24-03-2009 14:49:45 7 C 3.87 g/m*3 7 C 0 km/h
2114 24-03-2009 15:01:46 6.1 C 4.31 g/m*3 6.1 C 0 km/h
2115 24-03-2009 15:13:45 4.6 C 4.5 g/m*3 4.6 C 0 km/h
2116 24-03-2009 15:25:45 4.6 C 4.96 g/m*3 4.6 C 0 km/h
2117 24-03-2009 15:37:45 5.8 C 5.3 g/m*3 5.8 C 0 km/h
2118 24-03-2009 15:49:45 6.4 C 5.22 g/m*3 6.4 C 0 km/h
2119 24-03-2009 16:01:45 5.5 C 4.71 g/m*3 5.5 C 0 km/h
2120 24-03-2009 16:13:45 5 C 4.89 g/m*3 5 C 0 km/h
2121 24-03-2009 16:25:45 5.3 C 4.99 g/m*3 5.3 C 0 km/h
2122 24-03-2009 16:37:44 6.5 C 5.02 g/m*3 6.5 C 0 km/h
2123 24-03-2009 16:49:44 5 C 4.55 g/m*3 5 C 0 km/h
2124 24-03-2009 17:01:44 4.7 C 4.66 g/m*3 4.7 C 0 km/h
2125 24-03-2009 17:13:44 5.1 C 4.38 g/m*3 5.1 C 0 km/h
Sensor: Nr:Datum:Temp:Abs-Feuchte:Windchill:Wind:
Aussen-T/F 2126 24-03-2009 17:25:44 5.9 C 4.4 g/m*3 5.9 C 0 km/h
2127 24-03-2009 17:37:44 6.1 C 4.09 g/m*3 6.1 C 0 km/h
2128 24-03-2009 17:49:43 5.2 C 3.99 g/m*3 5.2 C 0 km/h
2129 24-03-2009 18:01:44 3.6 C 4.15 g/m*3 3.6 C 0 km/h
2130 24-03-2009 18:13:44 3.6 C 4.27 g/m*3 3.6 C 0 km/h
2131 24-03-2009 18:25:44 3.5 C 4.37 g/m*3 3.5 C 0 km/h
2132 24-03-2009 18:37:43 3.4 C 4.46 g/m*3 3.4 C 0 km/h
2133 24-03-2009 18:49:44 3.1 C 4.37 g/m*3 3.1 C 0 km/h
2134 24-03-2009 19:01:43 2.9 C 4.49 g/m*3 2.9 C 0 km/h
2135 24-03-2009 19:13:43 2.7 C 4.43 g/m*3 2.7 C 0 km/h
2136 24-03-2009 19:25:44 2.5 C 4.43 g/m*3 2.5 C 0 km/h
2137 24-03-2009 19:37:42 2.5 C 4.48 g/m*3 2.5 C 0 km/h
2138 24-03-2009 19:49:43 2.3 C 4.37 g/m*3 2.3 C 0 km/h
2139 24-03-2009 20:01:43 2.2 C 4.34 g/m*3 2.2 C 0 km/h
2140 24-03-2009 20:13:42 2.2 C 4.22 g/m*3 2.2 C 0 km/h
2141 24-03-2009 20:25:42 2.1 C 4.14 g/m*3 2.1 C 0 km/h
2142 24-03-2009 20:37:43 2 C 4.06 g/m*3 2 C 0 km/h
2143 24-03-2009 20:49:42 1.8 C 4 g/m*3 1.8 C 0 km/h
2144 24-03-2009 21:01:42 1.4 C 3.95 g/m*3 1.4 C 0 km/h
2145 24-03-2009 21:13:41 1.3 C 4.03 g/m*3 1.3 C 0 km/h
2146 24-03-2009 21:25:41 1.2 C 4.05 g/m*3 1.2 C 0 km/h
2147 24-03-2009 21:37:42 1.1 C 4.08 g/m*3 1.1 C 0 km/h
2148 24-03-2009 21:50:43 1 C 4.05 g/m*3 1 C 0 km/h
2149 24-03-2009 22:02:43 0.9 C 4.07 g/m*3 0.9 C 0 km/h
2150 24-03-2009 22:14:43 0.7 C 3.97 g/m*3 0.7 C 0 km/h
Sensor: Nr:Datum:Temp:Abs-Feuchte:Windchill:Wind:
Aussen-T/F 2151 24-03-2009 22:26:43 1 C 3.84 g/m*3 1 C 0 km/h
2152 24-03-2009 22:38:43 1 C 3.74 g/m*3 1 C 0 km/h
2153 24-03-2009 22:50:43 0.7 C 3.66 g/m*3 0.7 C 0 km/h
2154 24-03-2009 23:02:43 0.4 C 3.64 g/m*3 0.4 C 0 km/h
2155 24-03-2009 23:14:43 0.4 C 3.69 g/m*3 0.4 C 0 km/h
2156 24-03-2009 23:26:43 0.2 C 3.68 g/m*3 0.2 C 0 km/h
2157 24-03-2009 23:38:43 0.2 C 3.68 g/m*3 0.2 C 0 km/h
2158 24-03-2009 23:50:43 0 C 3.63 g/m*3 0 C 0 km/h
2159 25-03-2009 00:02:43 0 C 3.68 g/m*3 0 C 0 km/h
2160 25-03-2009 00:14:43 0.1 C 3.71 g/m*3 0.1 C 0 km/h
2161 25-03-2009 00:26:43 0.2 C 3.68 g/m*3 0.2 C 0 km/h
2162 25-03-2009 00:38:44 0.2 C 3.68 g/m*3 0.2 C 0 km/h
2163 25-03-2009 00:50:44 0.3 C 3.61 g/m*3 0.3 C 0 km/h
2164 25-03-2009 01:02:44 0.2 C 3.59 g/m*3 0.2 C 0 km/h
2165 25-03-2009 01:14:44 0.2 C 3.59 g/m*3 0.2 C 0 km/h
2166 25-03-2009 01:26:44 0.1 C 3.56 g/m*3 0.1 C 0 km/h
2167 25-03-2009 01:38:44 0.2 C 3.64 g/m*3 0.2 C 0 km/h
2168 25-03-2009 01:50:44 0 C 3.63 g/m*3 0 C 0 km/h
2169 25-03-2009 02:02:44 0.1 C 3.71 g/m*3 0.1 C 0 km/h
2170 25-03-2009 02:14:44 0.2 C 3.78 g/m*3 0.2 C 0 km/h
2171 25-03-2009 02:26:44 0.4 C 3.84 g/m*3 0.4 C 0 km/h
2172 25-03-2009 02:38:44 0.2 C 3.78 g/m*3 0.2 C 0 km/h
2173 25-03-2009 02:50:44 0.2 C 3.78 g/m*3 0.2 C 0 km/h
2174 25-03-2009 03:02:44 0.3 C 3.86 g/m*3 0.3 C 0 km/h
2175 25-03-2009 03:14:44 0.6 C 3.94 g/m*3 0.6 C 0 km/h
Sensor: Nr:Datum:Temp:Abs-Feuchte:Windchill:Wind:
Aussen-T/F 2176 25-03-2009 03:26:44 0.9 C 3.97 g/m*3 0.9 C 0 km/h
2177 25-03-2009 03:38:44 1.1 C 3.97 g/m*3 1.1 C 0 km/h
2178 25-03-2009 03:50:44 1.1 C 3.92 g/m*3 1.1 C 0 km/h
2179 25-03-2009 04:02:44 1.1 C 3.97 g/m*3 1.1 C 0 km/h
2180 25-03-2009 04:14:44 1.2 C 4 g/m*3 1.2 C 0 km/h
2181 25-03-2009 04:26:45 1.3 C 3.97 g/m*3 1.3 C 0 km/h
2182 25-03-2009 04:38:45 1.3 C 3.97 g/m*3 1.3 C 0 km/h
2183 25-03-2009 04:50:45 1.5 C 4.03 g/m*3 1.5 C 0 km/h
2184 25-03-2009 05:02:45 1.6 C 4.06 g/m*3 1.6 C 0 km/h
2185 25-03-2009 05:14:45 1.8 C 4.06 g/m*3 1.8 C 0 km/h
2186 25-03-2009 05:26:45 1.8 C 4.06 g/m*3 1.8 C 0 km/h
2187 25-03-2009 05:38:45 2.2 C 4.06 g/m*3 2.2 C 0 km/h
2188 25-03-2009 05:50:45 2.4 C 4.11 g/m*3 2.4 C 0 km/h
2189 25-03-2009 06:02:45 2.3 C 4.08 g/m*3 2.3 C 0 km/h
2190 25-03-2009 06:14:45 2.1 C 4.2 g/m*3 2.1 C 0 km/h
2191 25-03-2009 06:26:45 1.6 C 4.27 g/m*3 1.6 C 0 km/h
2192 25-03-2009 06:38:43 1.7 C 4.46 g/m*3 1.7 C 0 km/h
2193 25-03-2009 06:50:42 1.8 C 4.6 g/m*3 1.8 C 0 km/h
2194 25-03-2009 07:02:43 1.8 C 4.71 g/m*3 1.8 C 0 km/h
2195 25-03-2009 07:14:43 1.8 C 4.71 g/m*3 1.8 C 0 km/h
2196 25-03-2009 07:26:43 1.9 C 4.8 g/m*3 1.9 C 0 km/h
2197 25-03-2009 07:38:42 1.9 C 4.75 g/m*3 1.9 C 0 km/h
2198 25-03-2009 07:50:42 1.9 C 4.75 g/m*3 1.9 C 0 km/h
2199 25-03-2009 08:02:42 2.1 C 4.76 g/m*3 2.1 C 0 km/h
2200 25-03-2009 08:14:41 2.3 C 4.82 g/m*3 2.3 C 0 km/h
Sensor: Nr:Datum:Temp:Abs-Feuchte:Windchill:Wind:
Aussen-T/F 2201 25-03-2009 08:26:41 2.3 C 4.76 g/m*3 2.3 C 0 km/h
2202 25-03-2009 08:38:42 2.4 C 4.74 g/m*3 2.4 C 0 km/h
2203 25-03-2009 08:50:41 2.3 C 4.65 g/m*3 2.3 C 0 km/h
2204 25-03-2009 09:02:41 2.5 C 4.66 g/m*3 2.5 C 0 km/h
2205 25-03-2009 09:14:42 2.6 C 4.63 g/m*3 2.6 C 0 km/h
2206 25-03-2009 09:26:42 2.9 C 4.61 g/m*3 2.9 C 0 km/h
2207 25-03-2009 09:38:41 3 C 4.46 g/m*3 3 C 0 km/h
2208 25-03-2009 09:50:41 3.1 C 4.49 g/m*3 3.1 C 0 km/h
2209 25-03-2009 10:02:41 3.3 C 4.49 g/m*3 3.3 C 0 km/h
2210 25-03-2009 10:14:41 3.3 C 4.49 g/m*3 3.3 C 0 km/h
2211 25-03-2009 10:26:41 3.1 C 4.49 g/m*3 3.1 C 0 km/h
2212 25-03-2009 10:38:41 3.3 C 4.55 g/m*3 3.3 C 0 km/h
2213 25-03-2009 10:50:40 3.8 C 4.52 g/m*3 3.8 C 0 km/h
2214 25-03-2009 11:02:41 3.8 C 4.52 g/m*3 3.8 C 0 km/h
2215 25-03-2009 11:14:40 4 C 4.39 g/m*3 4 C 0 km/h
2216 25-03-2009 11:26:40 4 C 4.45 g/m*3 4 C 0 km/h
2217 25-03-2009 11:38:40 4.3 C 4.48 g/m*3 4.3 C 0 km/h
2218 25-03-2009 11:50:40 4.2 C 4.45 g/m*3 4.2 C 0 km/h
2219 25-03-2009 12:02:40 4.2 C 4.45 g/m*3 4.2 C 0 km/h
2220 25-03-2009 12:14:39 4.7 C 4.53 g/m*3 4.7 C 0 km/h
2221 25-03-2009 12:26:39 4.4 C 4.37 g/m*3 4.4 C 0 km/h
2222 25-03-2009 12:38:39 4.3 C 4.54 g/m*3 4.3 C 0 km/h
2223 25-03-2009 12:50:39 4.4 C 4.51 g/m*3 4.4 C 0 km/h
2224 25-03-2009 13:02:39 4.3 C 4.54 g/m*3 4.3 C 0 km/h
2225 25-03-2009 13:14:39 4.4 C 4.57 g/m*3 4.4 C 0 km/h
Sensor: Nr:Datum:Temp:Abs-Feuchte:Windchill:Wind:
Aussen-T/F 2226 25-03-2009 13:26:39 5.3 C 4.71 g/m*3 5.3 C 0 km/h
2227 25-03-2009 13:38:39 5.9 C 4.69 g/m*3 5.9 C 0 km/h
2228 25-03-2009 13:50:39 5.6 C 4.52 g/m*3 5.6 C 0 km/h
2229 25-03-2009 14:02:38 5.6 C 4.6 g/m*3 5.6 C 0 km/h
2230 25-03-2009 14:14:39 6.1 C 4.6 g/m*3 6.1 C 0 km/h
2231 25-03-2009 14:26:40 6 C 4.5 g/m*3 6 C 0 km/h
2232 25-03-2009 14:38:38 6 C 4.5 g/m*3 6 C 0 km/h
2233 25-03-2009 14:50:38 6.1 C 4.6 g/m*3 6.1 C 0 km/h
2234 25-03-2009 15:02:37 5.7 C 4.63 g/m*3 5.7 C 0 km/h
2235 25-03-2009 15:14:38 5 C 4.89 g/m*3 5 C 0 km/h
2236 25-03-2009 15:26:38 4.7 C 5.13 g/m*3 4.7 C 0 km/h
2237 25-03-2009 15:38:38 5.3 C 5.41 g/m*3 5.3 C 0 km/h
2238 25-03-2009 15:50:37 5.4 C 5.44 g/m*3 5.4 C 0 km/h
2239 25-03-2009 16:02:38 5.7 C 5.41 g/m*3 5.7 C 0 km/h
2240 25-03-2009 16:14:37 6.5 C 5.47 g/m*3 6.5 C 0 km/h
2241 25-03-2009 16:26:37 6.9 C 5.31 g/m*3 6.9 C 0 km/h
2242 25-03-2009 16:38:37 6.9 C 5.08 g/m*3 6.9 C 0 km/h
2243 25-03-2009 16:50:37 6.4 C 4.99 g/m*3 6.4 C 0 km/h
2244 25-03-2009 17:02:37 5.8 C 5.09 g/m*3 5.8 C 0 km/h
2245 25-03-2009 17:14:37 4.7 C 5.2 g/m*3 4.7 C 0 km/h
2246 25-03-2009 17:26:37 4.5 C 5.32 g/m*3 4.5 C 0 km/h
2247 25-03-2009 17:38:36 4.6 C 5.49 g/m*3 4.6 C 0 km/h
2248 25-03-2009 17:50:37 4.9 C 5.74 g/m*3 4.9 C 0 km/h
2249 25-03-2009 18:02:36 4.8 C 5.7 g/m*3 4.8 C 0 km/h
2250 25-03-2009 18:14:36 4.8 C 5.7 g/m*3 4.8 C 0 km/h
Sensor: Nr:Datum:Temp:Abs-Feuchte:Windchill:Wind:
Aussen-T/F 2251 25-03-2009 18:26:36 4.7 C 5.6 g/m*3 4.7 C 0 km/h
2252 25-03-2009 18:38:36 4.5 C 5.59 g/m*3 4.5 C 0 km/h
2253 25-03-2009 18:50:36 4.2 C 5.41 g/m*3 4.2 C 0 km/h
2254 25-03-2009 19:02:35 4 C 5.34 g/m*3 4 C 0 km/h
2255 25-03-2009 19:14:36 3.8 C 5.4 g/m*3 3.8 C 0 km/h
2256 25-03-2009 19:26:37 3.7 C 5.42 g/m*3 3.7 C 0 km/h
2257 25-03-2009 19:38:35 3.6 C 5.45 g/m*3 3.6 C 0 km/h
2258 25-03-2009 19:50:36 3.5 C 5.41 g/m*3 3.5 C 0 km/h
2259 25-03-2009 20:02:35 3.6 C 5.51 g/m*3 3.6 C 0 km/h
2260 25-03-2009 20:14:35 3.5 C 5.47 g/m*3 3.5 C 0 km/h
2261 25-03-2009 20:26:35 3.6 C 5.57 g/m*3 3.6 C 0 km/h
2262 25-03-2009 20:38:35 3.6 C 5.57 g/m*3 3.6 C 0 km/h
2263 25-03-2009 20:50:35 3.6 C 5.57 g/m*3 3.6 C 0 km/h
2264 25-03-2009 21:02:34 3.5 C 5.53 g/m*3 3.5 C 0 km/h
2265 25-03-2009 21:14:34 3.5 C 5.53 g/m*3 3.5 C 0 km/h
2266 25-03-2009 21:26:34 3.6 C 5.63 g/m*3 3.6 C 0 km/h
2267 25-03-2009 21:38:35 3.7 C 5.67 g/m*3 3.7 C 0 km/h
2268 25-03-2009 21:50:34 3.7 C 5.67 g/m*3 3.7 C 0 km/h
2269 25-03-2009 22:02:35 3.7 C 5.67 g/m*3 3.7 C 0 km/h
2270 25-03-2009 22:14:33 3.7 C 5.67 g/m*3 3.7 C 0 km/h
2271 25-03-2009 22:26:33 3.8 C 5.71 g/m*3 3.8 C 0 km/h
2272 25-03-2009 22:38:34 3.9 C 5.68 g/m*3 3.9 C 0 km/h
2273 25-03-2009 22:50:33 3.9 C 5.62 g/m*3 3.9 C 0 km/h
2274 25-03-2009 23:02:33 3.9 C 5.62 g/m*3 3.9 C 0 km/h
2275 25-03-2009 23:14:34 4.1 C 5.63 g/m*3 4.1 C 0 km/h
Sensor: Nr:Datum:Temp:Abs-Feuchte:Windchill:Wind:
Aussen-T/F 2276 25-03-2009 23:26:34 4.3 C 5.64 g/m*3 4.3 C 0 km/h
2277 25-03-2009 23:38:33 4.4 C 5.48 g/m*3 4.4 C 0 km/h
2278 25-03-2009 23:50:33 4.4 C 5.35 g/m*3 4.4 C 0 km/h
2279 26-03-2009 00:02:33 4.3 C 5.25 g/m*3 4.3 C 0 km/h
2280 26-03-2009 00:14:32 4.2 C 5.28 g/m*3 4.2 C 0 km/h
2281 26-03-2009 00:26:32 4 C 5.28 g/m*3 4 C 0 km/h
2282 26-03-2009 00:38:33 4 C 5.28 g/m*3 4 C 0 km/h
2283 26-03-2009 00:50:32 4.1 C 5.31 g/m*3 4.1 C 0 km/h
2284 26-03-2009 01:02:32 4.2 C 5.28 g/m*3 4.2 C 0 km/h
2285 26-03-2009 01:14:32 4.3 C 5.25 g/m*3 4.3 C 0 km/h
2286 26-03-2009 01:26:32 4.3 C 5.25 g/m*3 4.3 C 0 km/h
2287 26-03-2009 01:38:32 4.2 C 5.22 g/m*3 4.2 C 0 km/h
2288 26-03-2009 01:50:31 4.2 C 5.22 g/m*3 4.2 C 0 km/h
2289 26-03-2009 02:02:32 4.2 C 5.22 g/m*3 4.2 C 0 km/h
2290 26-03-2009 02:14:31 4.1 C 5.25 g/m*3 4.1 C 0 km/h
2291 26-03-2009 02:26:31 4 C 5.34 g/m*3 4 C 0 km/h
2292 26-03-2009 02:38:31 4 C 5.4 g/m*3 4 C 0 km/h
2293 26-03-2009 02:51:32 4 C 5.4 g/m*3 4 C 0 km/h
2294 26-03-2009 03:03:32 4 C 5.4 g/m*3 4 C 0 km/h
2295 26-03-2009 03:15:32 4 C 5.4 g/m*3 4 C 0 km/h
2296 26-03-2009 03:27:32 4 C 5.34 g/m*3 4 C 0 km/h
2297 26-03-2009 03:39:32 4.1 C 5.38 g/m*3 4.1 C 0 km/h
2298 26-03-2009 03:51:32 4.1 C 5.31 g/m*3 4.1 C 0 km/h
2299 26-03-2009 04:03:32 4.1 C 5.25 g/m*3 4.1 C 0 km/h
2300 26-03-2009 04:15:31 4.1 C 5.18 g/m*3 4.1 C 0 km/h
Sensor: Nr:Datum:Temp:Abs-Feuchte:Windchill:Wind:
Aussen-T/F 2301 26-03-2009 04:27:31 4.2 C 5.09 g/m*3 4.2 C 0 km/h
2302 26-03-2009 04:39:31 4.2 C 5.03 g/m*3 4.2 C 0 km/h
2303 26-03-2009 04:51:31 4.2 C 5.03 g/m*3 4.2 C 0 km/h
2304 26-03-2009 05:03:31 4.2 C 5.03 g/m*3 4.2 C 0 km/h
2305 26-03-2009 05:15:31 4.1 C 5.06 g/m*3 4.1 C 0 km/h
2306 26-03-2009 05:27:31 4.2 C 5.09 g/m*3 4.2 C 0 km/h
2307 26-03-2009 05:39:31 4.3 C 5.06 g/m*3 4.3 C 0 km/h
2308 26-03-2009 05:51:31 4.3 C 5.06 g/m*3 4.3 C 0 km/h
2309 26-03-2009 06:03:30 4.2 C 5.03 g/m*3 4.2 C 0 km/h
2310 26-03-2009 06:15:31 4 C 4.96 g/m*3 4 C 0 km/h
2311 26-03-2009 06:27:32 4.1 C 4.99 g/m*3 4.1 C 0 km/h
2312 26-03-2009 06:39:30 4 C 4.96 g/m*3 4 C 0 km/h
2313 26-03-2009 06:51:30 3.8 C 4.96 g/m*3 3.8 C 0 km/h
2314 26-03-2009 07:03:30 3.8 C 4.96 g/m*3 3.8 C 0 km/h
2315 26-03-2009 07:15:30 4.2 C 5.09 g/m*3 4.2 C 0 km/h
2316 26-03-2009 07:27:30 4.5 C 5.06 g/m*3 4.5 C 0 km/h
2317 26-03-2009 07:39:30 4.5 C 4.93 g/m*3 4.5 C 0 km/h
2318 26-03-2009 07:51:30 4.7 C 4.93 g/m*3 4.7 C 0 km/h
2319 26-03-2009 08:03:30 5 C 4.89 g/m*3 5 C 0 km/h
2320 26-03-2009 08:15:29 5.3 C 4.99 g/m*3 5.3 C 0 km/h
2321 26-03-2009 08:27:29 5.5 C 4.99 g/m*3 5.5 C 0 km/h
2322 26-03-2009 08:39:29 6.1 C 5.04 g/m*3 6.1 C 0 km/h
2323 26-03-2009 08:51:29 6.4 C 5.07 g/m*3 6.4 C 0 km/h
2324 26-03-2009 09:03:29 6.5 C 5.1 g/m*3 6.5 C 0 km/h
2325 26-03-2009 09:15:29 6.6 C 5.06 g/m*3 6.6 C 0 km/h
Sensor: Nr:Datum:Temp:Abs-Feuchte:Windchill:Wind:
Aussen-T/F 2326 26-03-2009 09:27:29 7 C 5.11 g/m*3 7 C 0 km/h
2327 26-03-2009 09:39:29 7.4 C 5.17 g/m*3 7.4 C 0 km/h
2328 26-03-2009 09:51:29 7.8 C 5.14 g/m*3 7.8 C 0 km/h
2329 26-03-2009 10:03:29 7.9 C 5.09 g/m*3 7.9 C 0 km/h
2330 26-03-2009 10:15:28 7.7 C 5.03 g/m*3 7.7 C 0 km/h
2331 26-03-2009 10:27:28 7.8 C 4.98 g/m*3 7.8 C 0 km/h
2332 26-03-2009 10:39:28 8.2 C 5.02 g/m*3 8.2 C 0 km/h
2333 26-03-2009 10:51:28 8.5 C 4.95 g/m*3 8.5 C 0 km/h
2334 26-03-2009 11:03:28 9.1 C 5.06 g/m*3 9.1 C 0 km/h
2335 26-03-2009 11:15:27 8.8 C 4.96 g/m*3 8.8 C 0 km/h
2336 26-03-2009 11:27:27 8.4 C 5.01 g/m*3 8.4 C 0 km/h
2337 26-03-2009 11:39:28 8.4 C 5.09 g/m*3 8.4 C 0 km/h
2338 26-03-2009 11:51:27 9 C 5.11 g/m*3 9 C 0 km/h
2339 26-03-2009 12:03:27 9.3 C 4.94 g/m*3 9.3 C 0 km/h
2340 26-03-2009 12:15:27 9.2 C 5 g/m*3 9.2 C 0 km/h
2341 26-03-2009 12:27:27 9 C 4.94 g/m*3 9 C 0 km/h
2342 26-03-2009 12:39:27 8.6 C 5.16 g/m*3 8.6 C 0 km/h
2343 26-03-2009 12:51:27 8.2 C 5.19 g/m*3 8.2 C 0 km/h
2344 26-03-2009 13:03:26 8 C 5.29 g/m*3 8 C 0 km/h
2345 26-03-2009 13:15:27 7.7 C 5.35 g/m*3 7.7 C 0 km/h
2346 26-03-2009 13:27:27 7.6 C 5.48 g/m*3 7.6 C 0 km/h
2347 26-03-2009 13:39:26 7.5 C 5.6 g/m*3 7.5 C 0 km/h
2348 26-03-2009 13:51:26 7.2 C 5.73 g/m*3 7.2 C 0 km/h
2349 26-03-2009 14:03:26 7 C 5.81 g/m*3 7 C 0 km/h
2350 26-03-2009 14:15:26 7 C 5.97 g/m*3 7 C 0 km/h
Sensor: Nr:Datum:Temp:Abs-Feuchte:Windchill:Wind:
Aussen-T/F 2351 26-03-2009 14:27:26 7.2 C 5.89 g/m*3 7.2 C 0 km/h
2352 26-03-2009 14:39:26 7.3 C 5.77 g/m*3 7.3 C 0 km/h
2353 26-03-2009 14:51:25 7.1 C 5.69 g/m*3 7.1 C 0 km/h
2354 26-03-2009 15:03:26 7.1 C 5.69 g/m*3 7.1 C 0 km/h
2355 26-03-2009 15:15:25 7.1 C 5.62 g/m*3 7.1 C 0 km/h
2356 26-03-2009 15:27:25 7.1 C 5.62 g/m*3 7.1 C 0 km/h
2357 26-03-2009 15:39:25 7.3 C 5.61 g/m*3 7.3 C 0 km/h
2358 26-03-2009 15:51:25 7.3 C 5.53 g/m*3 7.3 C 0 km/h
2359 26-03-2009 16:03:25 7.2 C 5.65 g/m*3 7.2 C 0 km/h
2360 26-03-2009 16:15:25 7.3 C 5.61 g/m*3 7.3 C 0 km/h
2361 26-03-2009 16:27:25 7.4 C 5.65 g/m*3 7.4 C 0 km/h
2362 26-03-2009 16:39:24 7.4 C 5.73 g/m*3 7.4 C 0 km/h
2363 26-03-2009 16:51:25 7.2 C 5.81 g/m*3 7.2 C 0 km/h
2364 26-03-2009 17:03:24 7.1 C 5.93 g/m*3 7.1 C 0 km/h
2365 26-03-2009 17:15:24 7.1 C 5.93 g/m*3 7.1 C 0 km/h
2366 26-03-2009 17:27:24 7.3 C 5.93 g/m*3 7.3 C 0 km/h
2367 26-03-2009 17:39:24 7.3 C 5.93 g/m*3 7.3 C 0 km/h
2368 26-03-2009 17:51:24 7.3 C 5.93 g/m*3 7.3 C 0 km/h
2369 26-03-2009 18:03:23 7.3 C 6 g/m*3 7.3 C 0 km/h
2370 26-03-2009 18:15:24 7.3 C 5.93 g/m*3 7.3 C 0 km/h
2371 26-03-2009 18:27:24 7.5 C 5.92 g/m*3 7.5 C 0 km/h
2372 26-03-2009 18:39:24 7.5 C 5.84 g/m*3 7.5 C 0 km/h
2373 26-03-2009 18:51:23 7.6 C 5.8 g/m*3 7.6 C 0 km/h
2374 26-03-2009 19:03:23 7.5 C 5.76 g/m*3 7.5 C 0 km/h
2375 26-03-2009 19:15:23 7.5 C 5.68 g/m*3 7.5 C 0 km/h
Sensor: Nr:Datum:Temp:Abs-Feuchte:Windchill:Wind:
Aussen-T/F 2376 26-03-2009 19:27:23 7.6 C 5.64 g/m*3 7.6 C 0 km/h
2377 26-03-2009 19:39:23 7.6 C 5.64 g/m*3 7.6 C 0 km/h
2378 26-03-2009 19:51:22 7.4 C 5.65 g/m*3 7.4 C 0 km/h
2379 26-03-2009 20:03:23 7.2 C 5.65 g/m*3 7.2 C 0 km/h
2380 26-03-2009 20:15:22 7.4 C 5.81 g/m*3 7.4 C 0 km/h
2381 26-03-2009 20:27:22 7.7 C 5.84 g/m*3 7.7 C 0 km/h
2382 26-03-2009 20:39:22 7.7 C 5.84 g/m*3 7.7 C 0 km/h
2383 26-03-2009 20:51:22 7.7 C 5.92 g/m*3 7.7 C 0 km/h
2384 26-03-2009 21:03:22 7.6 C 5.96 g/m*3 7.6 C 0 km/h
2385 26-03-2009 21:15:22 7.6 C 6.04 g/m*3 7.6 C 0 km/h
2386 26-03-2009 21:27:22 7.7 C 6.08 g/m*3 7.7 C 0 km/h
2387 26-03-2009 21:39:21 7.7 C 6.08 g/m*3 7.7 C 0 km/h
2388 26-03-2009 21:51:22 7.7 C 6 g/m*3 7.7 C 0 km/h
2389 26-03-2009 22:04:21 7.6 C 6.12 g/m*3 7.6 C 0 km/h
2390 26-03-2009 22:16:21 7.5 C 6.32 g/m*3 7.5 C 0 km/h
2391 26-03-2009 22:28:21 7.5 C 6.4 g/m*3 7.5 C 0 km/h
2392 26-03-2009 22:40:21 7.6 C 6.36 g/m*3 7.6 C 0 km/h
2393 26-03-2009 22:52:21 7.9 C 6.32 g/m*3 7.9 C 0 km/h
2394 26-03-2009 23:04:21 8 C 6.2 g/m*3 8 C 0 km/h
2395 26-03-2009 23:16:21 8 C 6.2 g/m*3 8 C 0 km/h
2396 26-03-2009 23:28:21 7.9 C 6.32 g/m*3 7.9 C 0 km/h
2397 26-03-2009 23:40:21 7.9 C 6.41 g/m*3 7.9 C 0 km/h
2398 26-03-2009 23:52:21 7.6 C 6.44 g/m*3 7.6 C 0 km/h
2399 27-03-2009 00:04:21 7.5 C 6.56 g/m*3 7.5 C 0 km/h
2400 27-03-2009 00:16:21 7.5 C 6.64 g/m*3 7.5 C 0 km/h
Sensor: Nr:Datum:Temp:Abs-Feuchte:Windchill:Wind:
Aussen-T/F 2401 27-03-2009 00:28:22 7.6 C 6.69 g/m*3 7.6 C 0 km/h
2402 27-03-2009 00:40:22 7.6 C 6.69 g/m*3 7.6 C 0 km/h
2403 27-03-2009 00:52:22 7.6 C 6.69 g/m*3 7.6 C 0 km/h
2404 27-03-2009 01:04:22 7.6 C 6.69 g/m*3 7.6 C 0 km/h
2405 27-03-2009 01:16:22 7.4 C 6.76 g/m*3 7.4 C 0 km/h
2406 27-03-2009 01:28:22 7.4 C 6.84 g/m*3 7.4 C 0 km/h
2407 27-03-2009 01:40:22 7.3 C 6.95 g/m*3 7.3 C 0 km/h
2408 27-03-2009 01:52:22 7.4 C 7 g/m*3 7.4 C 0 km/h
2409 27-03-2009 02:04:22 7.4 C 7 g/m*3 7.4 C 0 km/h
2410 27-03-2009 02:16:22 7.3 C 6.95 g/m*3 7.3 C 0 km/h
2411 27-03-2009 02:28:22 7.2 C 6.83 g/m*3 7.2 C 0 km/h
2412 27-03-2009 02:40:22 7.3 C 6.72 g/m*3 7.3 C 0 km/h
2413 27-03-2009 02:52:22 7.4 C 6.6 g/m*3 7.4 C 0 km/h
2414 27-03-2009 03:04:22 7.6 C 6.53 g/m*3 7.6 C 0 km/h
2415 27-03-2009 03:16:22 7.5 C 6.4 g/m*3 7.5 C 0 km/h
2416 27-03-2009 03:28:22 7.5 C 6.4 g/m*3 7.5 C 0 km/h
2417 27-03-2009 03:40:22 7.5 C 6.4 g/m*3 7.5 C 0 km/h
2418 27-03-2009 03:52:22 7.4 C 6.36 g/m*3 7.4 C 0 km/h
2419 27-03-2009 04:04:22 7.4 C 6.52 g/m*3 7.4 C 0 km/h
2420 27-03-2009 04:16:23 7.3 C 6.48 g/m*3 7.3 C 0 km/h
2421 27-03-2009 04:28:23 7.3 C 6.56 g/m*3 7.3 C 0 km/h
2422 27-03-2009 04:40:23 7.1 C 6.55 g/m*3 7.1 C 0 km/h
2423 27-03-2009 04:52:23 7 C 6.51 g/m*3 7 C 0 km/h
2424 27-03-2009 05:04:23 6.9 C 6.62 g/m*3 6.9 C 0 km/h
2425 27-03-2009 05:16:23 7 C 6.43 g/m*3 7 C 0 km/h
Sensor: Nr:Datum:Temp:Abs-Feuchte:Windchill:Wind:
Aussen-T/F 2426 27-03-2009 05:28:23 7 C 6.35 g/m*3 7 C 0 km/h
2427 27-03-2009 05:40:23 7.1 C 6.16 g/m*3 7.1 C 0 km/h
2428 27-03-2009 05:52:23 7.1 C 5.85 g/m*3 7.1 C 0 km/h
2429 27-03-2009 06:04:23 7.3 C 5.53 g/m*3 7.3 C 0 km/h
2430 27-03-2009 06:16:23 7.2 C 5.26 g/m*3 7.2 C 0 km/h
2431 27-03-2009 06:28:23 7 C 5.19 g/m*3 7 C 0 km/h
2432 27-03-2009 06:40:23 7 C 5.27 g/m*3 7 C 0 km/h
2433 27-03-2009 06:52:23 6.9 C 5.47 g/m*3 6.9 C 0 km/h
2434 27-03-2009 07:04:21 7 C 5.5 g/m*3 7 C 0 km/h
2435 27-03-2009 07:16:22 7.1 C 5.46 g/m*3 7.1 C 0 km/h
2436 27-03-2009 07:28:22 7.2 C 5.18 g/m*3 7.2 C 0 km/h
2437 27-03-2009 07:40:21 7.3 C 5.14 g/m*3 7.3 C 0 km/h
2438 27-03-2009 07:52:21 7.3 C 5.21 g/m*3 7.3 C 0 km/h
2439 27-03-2009 08:04:21 7.5 C 5.2 g/m*3 7.5 C 0 km/h
2440 27-03-2009 08:16:21 7.6 C 5.08 g/m*3 7.6 C 0 km/h
2441 27-03-2009 08:28:21 7.8 C 5.06 g/m*3 7.8 C 0 km/h
2442 27-03-2009 08:40:21 8 C 4.96 g/m*3 8 C 0 km/h
2443 27-03-2009 08:52:21 8 C 4.96 g/m*3 8 C 0 km/h
2444 27-03-2009 09:04:21 8.1 C 4.99 g/m*3 8.1 C 0 km/h
2445 27-03-2009 09:16:20 8 C 4.88 g/m*3 8 C 0 km/h
2446 27-03-2009 09:28:20 7.9 C 4.93 g/m*3 7.9 C 0 km/h
2447 27-03-2009 09:40:20 8.4 C 4.84 g/m*3 8.4 C 0 km/h
2448 27-03-2009 09:52:20 8.5 C 4.78 g/m*3 8.5 C 0 km/h
2449 27-03-2009 10:04:20 8.5 C 4.7 g/m*3 8.5 C 0 km/h
2450 27-03-2009 10:16:19 7 C 5.11 g/m*3 7 C 0 km/h
Sensor: Nr:Datum:Temp:Abs-Feuchte:Windchill:Wind:
Aussen-T/F 2451 27-03-2009 10:28:19 7.2 C 5.65 g/m*3 7.2 C 0 km/h
2452 27-03-2009 10:40:20 7.7 C 5.76 g/m*3 7.7 C 0 km/h
2453 27-03-2009 10:52:19 8.3 C 5.14 g/m*3 8.3 C 0 km/h
2454 27-03-2009 11:04:19 8.4 C 4.58 g/m*3 8.4 C 0 km/h
2455 27-03-2009 11:16:19 8.5 C 4.35 g/m*3 8.5 C 0 km/h
2456 27-03-2009 11:28:19 7.9 C 4.76 g/m*3 7.9 C 0 km/h
2457 27-03-2009 11:40:19 8.1 C 4.99 g/m*3 8.1 C 0 km/h
2458 27-03-2009 11:52:19 9 C 4.67 g/m*3 9 C 0 km/h
2459 27-03-2009 12:04:18 9.3 C 4.31 g/m*3 9.3 C 0 km/h
2460 27-03-2009 12:16:19 9.3 C 4.13 g/m*3 9.3 C 0 km/h
2461 27-03-2009 12:28:19 8.8 C 4 g/m*3 8.8 C 0 km/h
2462 27-03-2009 12:40:18 8.9 C 4.2 g/m*3 8.9 C 0 km/h
2463 27-03-2009 12:52:18 9.1 C 3.99 g/m*3 9.1 C 0 km/h
2464 27-03-2009 13:04:19 9.7 C 3.87 g/m*3 9.7 C 0 km/h
2465 27-03-2009 13:16:18 9.7 C 3.69 g/m*3 9.7 C 0 km/h
2466 27-03-2009 13:28:18 9.6 C 3.39 g/m*3 9.6 C 0 km/h
2467 27-03-2009 13:40:18 9.7 C 3.41 g/m*3 9.7 C 0 km/h
2468 27-03-2009 13:52:18 9.8 C 3.43 g/m*3 9.8 C 0 km/h
2469 27-03-2009 14:04:18 10.4 C 3.37 g/m*3 10.4 C 0 km/h
2470 27-03-2009 14:16:17 10.3 C 3.35 g/m*3 10.3 C 0 km/h
2471 27-03-2009 14:28:17 10.3 C 3.35 g/m*3 10.3 C 0 km/h
2472 27-03-2009 14:40:17 10.2 C 3.43 g/m*3 10.2 C 0 km/h
2473 27-03-2009 14:52:17 10.1 C 3.69 g/m*3 10.1 C 0 km/h
2474 27-03-2009 15:04:17 9.7 C 3.69 g/m*3 9.7 C 0 km/h
2475 27-03-2009 15:16:17 9.6 C 3.85 g/m*3 9.6 C 0 km/h
Sensor: Nr:Datum:Temp:Abs-Feuchte:Windchill:Wind:
Aussen-T/F 2476 27-03-2009 15:28:17 9.7 C 3.69 g/m*3 9.7 C 0 km/h
2477 27-03-2009 15:40:17 9.8 C 3.8 g/m*3 9.8 C 0 km/h
2478 27-03-2009 15:52:17 9.6 C 3.76 g/m*3 9.6 C 0 km/h
2479 27-03-2009 16:04:16 8.5 C 3.84 g/m*3 8.5 C 0 km/h
2480 27-03-2009 16:16:16 7.9 C 3.94 g/m*3 7.9 C 0 km/h
2481 27-03-2009 16:28:16 7.9 C 4.11 g/m*3 7.9 C 0 km/h
2482 27-03-2009 16:40:16 7.4 C 4.37 g/m*3 7.4 C 0 km/h
2483 27-03-2009 16:52:16 6.9 C 5.08 g/m*3 6.9 C 0 km/h
2484 27-03-2009 17:04:15 6.6 C 5.36 g/m*3 6.6 C 0 km/h
2485 27-03-2009 17:16:16 6.6 C 5.13 g/m*3 6.6 C 0 km/h
2486 27-03-2009 17:28:16 6.3 C 5.33 g/m*3 6.3 C 0 km/h
2487 27-03-2009 17:40:16 5.9 C 5.34 g/m*3 5.9 C 0 km/h
2488 27-03-2009 17:52:15 5.2 C 5.23 g/m*3 5.2 C 0 km/h
2489 27-03-2009 18:04:16 5 C 5.37 g/m*3 5 C 0 km/h
2490 27-03-2009 18:16:15 4.9 C 5.54 g/m*3 4.9 C 0 km/h
2491 27-03-2009 18:28:15 4.9 C 5.54 g/m*3 4.9 C 0 km/h
2492 27-03-2009 18:40:15 5.1 C 5.47 g/m*3 5.1 C 0 km/h
2493 27-03-2009 18:52:15 5.6 C 5.23 g/m*3 5.6 C 0 km/h
2494 27-03-2009 19:04:15 5.7 C 4.84 g/m*3 5.7 C 0 km/h
2495 27-03-2009 19:16:14 5.9 C 4.76 g/m*3 5.9 C 0 km/h
2496 27-03-2009 19:28:14 6 C 4.79 g/m*3 6 C 0 km/h
2497 27-03-2009 19:40:02 5.8 C 4.94 g/m*3 5.8 C 0 km/h
2498 27-03-2009 19:52:01 5.8 C 5.01 g/m*3 5.8 C 0 km/h
2499 27-03-2009 20:04:02 5.6 C 5.09 g/m*3 5.6 C 0 km/h
2500 27-03-2009 20:16:01 5.6 C 5.16 g/m*3 5.6 C 0 km/h
Sensor: Nr:Datum:Temp:Abs-Feuchte:Windchill:Wind:
Aussen-T/F 2501 27-03-2009 20:28:01 5.5 C 5.13 g/m*3 5.5 C 0 km/h
2502 27-03-2009 20:40:01 5.3 C 5.13 g/m*3 5.3 C 0 km/h
2503 27-03-2009 20:52:01 5 C 5.1 g/m*3 5 C 0 km/h
2504 27-03-2009 21:04:02 4.8 C 5.1 g/m*3 4.8 C 0 km/h
2505 27-03-2009 21:16:01 4.8 C 5.16 g/m*3 4.8 C 0 km/h
2506 27-03-2009 21:28:01 4.9 C 5.27 g/m*3 4.9 C 0 km/h
2507 27-03-2009 21:40:01 4.7 C 5.26 g/m*3 4.7 C 0 km/h
2508 27-03-2009 21:52:01 5.2 C 5.37 g/m*3 5.2 C 0 km/h
2509 27-03-2009 22:04:01 5.7 C 5.34 g/m*3 5.7 C 0 km/h
2510 27-03-2009 22:16:00 5.8 C 5.16 g/m*3 5.8 C 0 km/h
2511 27-03-2009 22:28:00 5.7 C 5.12 g/m*3 5.7 C 0 km/h
2512 27-03-2009 22:40:01 5.6 C 5.16 g/m*3 5.6 C 0 km/h
2513 27-03-2009 22:53:01 5.6 C 5.23 g/m*3 5.6 C 0 km/h
2514 27-03-2009 23:05:01 5.3 C 5.2 g/m*3 5.3 C 0 km/h
2515 27-03-2009 23:17:01 5.1 C 5.27 g/m*3 5.1 C 0 km/h
2516 27-03-2009 23:29:01 4.8 C 5.43 g/m*3 4.8 C 0 km/h
2517 27-03-2009 23:41:01 4.8 C 5.57 g/m*3 4.8 C 0 km/h
2518 27-03-2009 23:53:01 4.8 C 5.63 g/m*3 4.8 C 0 km/h
2519 28-03-2009 00:05:01 4.9 C 5.74 g/m*3 4.9 C 0 km/h
2520 28-03-2009 00:17:01 4.8 C 5.77 g/m*3 4.8 C 0 km/h
2521 28-03-2009 00:29:01 4.7 C 5.8 g/m*3 4.7 C 0 km/h
2522 28-03-2009 00:41:01 4.4 C 5.75 g/m*3 4.4 C 0 km/h
2523 28-03-2009 00:53:01 4 C 5.59 g/m*3 4 C 0 km/h
2524 28-03-2009 01:05:01 3.6 C 5.45 g/m*3 3.6 C 0 km/h
2525 28-03-2009 01:17:01 3.6 C 5.51 g/m*3 3.6 C 0 km/h
Sensor: Nr:Datum:Temp:Abs-Feuchte:Windchill:Wind:
Aussen-T/F 2526 28-03-2009 01:29:02 3.4 C 5.44 g/m*3 3.4 C 0 km/h
2527 28-03-2009 01:41:02 3.3 C 5.4 g/m*3 3.3 C 0 km/h
2528 28-03-2009 01:53:02 3.4 C 5.5 g/m*3 3.4 C 0 km/h
2529 28-03-2009 02:05:02 3.4 C 5.5 g/m*3 3.4 C 0 km/h
2530 28-03-2009 02:17:02 3.5 C 5.6 g/m*3 3.5 C 0 km/h
2531 28-03-2009 02:29:02 3.7 C 5.67 g/m*3 3.7 C 0 km/h
2532 28-03-2009 02:41:02 3.7 C 5.73 g/m*3 3.7 C 0 km/h
2533 28-03-2009 02:53:02 3.8 C 5.77 g/m*3 3.8 C 0 km/h
2534 28-03-2009 03:05:02 3.8 C 5.77 g/m*3 3.8 C 0 km/h
2535 28-03-2009 03:17:02 3.9 C 5.81 g/m*3 3.9 C 0 km/h
2536 28-03-2009 03:29:02 4 C 5.85 g/m*3 4 C 0 km/h
2537 28-03-2009 03:41:02 4.1 C 5.89 g/m*3 4.1 C 0 km/h
2538 28-03-2009 03:53:02 4.2 C 5.93 g/m*3 4.2 C 0 km/h
2539 28-03-2009 04:05:02 4.3 C 6.03 g/m*3 4.3 C 0 km/h
2540 28-03-2009 04:17:02 4.3 C 6.03 g/m*3 4.3 C 0 km/h
2541 28-03-2009 04:29:02 4.3 C 6.03 g/m*3 4.3 C 0 km/h
2542 28-03-2009 04:41:02 4.3 C 6.03 g/m*3 4.3 C 0 km/h
2543 28-03-2009 04:53:02 4.3 C 6.03 g/m*3 4.3 C 0 km/h
2544 28-03-2009 05:05:02 4.3 C 6.03 g/m*3 4.3 C 0 km/h
2545 28-03-2009 05:17:03 4.3 C 6.03 g/m*3 4.3 C 0 km/h
2546 28-03-2009 05:29:03 4.4 C 6.07 g/m*3 4.4 C 0 km/h
2547 28-03-2009 05:41:03 4.6 C 6.15 g/m*3 4.6 C 0 km/h
2548 28-03-2009 05:53:03 4.7 C 6.19 g/m*3 4.7 C 0 km/h
2549 28-03-2009 06:05:03 4.8 C 6.24 g/m*3 4.8 C 0 km/h
2550 28-03-2009 06:17:03 4.8 C 6.17 g/m*3 4.8 C 0 km/h
Sensor: Nr:Datum:Temp:Abs-Feuchte:Windchill:Wind:
Aussen-T/F 2551 28-03-2009 06:29:03 4.9 C 6.21 g/m*3 4.9 C 0 km/h
2552 28-03-2009 06:41:03 5 C 6.18 g/m*3 5 C 0 km/h
2553 28-03-2009 06:53:03 5.2 C 6.2 g/m*3 5.2 C 0 km/h
2554 28-03-2009 07:05:03 5 C 6.05 g/m*3 5 C 0 km/h
2555 28-03-2009 07:17:03 4.7 C 6 g/m*3 4.7 C 0 km/h
2556 28-03-2009 07:29:03 4.9 C 6.08 g/m*3 4.9 C 0 km/h
2557 28-03-2009 07:41:03 4.8 C 6.04 g/m*3 4.8 C 0 km/h
2558 28-03-2009 07:53:03 5.2 C 6.13 g/m*3 5.2 C 0 km/h
2559 28-03-2009 08:05:03 5.6 C 6.36 g/m*3 5.6 C 0 km/h
2560 28-03-2009 08:17:03 5.8 C 6.45 g/m*3 5.8 C 0 km/h
2561 28-03-2009 08:29:03 5.9 C 6.42 g/m*3 5.9 C 0 km/h
2562 28-03-2009 08:41:03 6.8 C 6.73 g/m*3 6.8 C 0 km/h
2563 28-03-2009 08:53:03 7.6 C 6.28 g/m*3 7.6 C 0 km/h
2564 28-03-2009 09:05:04 8.2 C 5.95 g/m*3 8.2 C 0 km/h
2565 28-03-2009 09:17:04 8.9 C 5.78 g/m*3 8.9 C 0 km/h
2566 28-03-2009 09:29:04 9 C 5.38 g/m*3 9 C 0 km/h
2567 28-03-2009 09:41:02 8.6 C 5.76 g/m*3 8.6 C 0 km/h
2568 28-03-2009 09:53:01 7.9 C 5.83 g/m*3 7.9 C 0 km/h
2569 28-03-2009 10:05:01 7.7 C 6 g/m*3 7.7 C 0 km/h
2570 28-03-2009 10:17:01 7.6 C 6.2 g/m*3 7.6 C 0 km/h
2571 28-03-2009 10:29:01 7.6 C 6.28 g/m*3 7.6 C 0 km/h
2572 28-03-2009 10:41:01 7.9 C 6.57 g/m*3 7.9 C 0 km/h
2573 28-03-2009 10:53:00 7.9 C 6.65 g/m*3 7.9 C 0 km/h
2574 28-03-2009 11:05:01 7.9 C 6.57 g/m*3 7.9 C 0 km/h
2575 28-03-2009 11:17:00 8.5 C 6.32 g/m*3 8.5 C 0 km/h
Sensor: Nr:Datum:Temp:Abs-Feuchte:Windchill:Wind:
Aussen-T/F 2576 28-03-2009 11:29:00 8.6 C 6.02 g/m*3 8.6 C 0 km/h
2577 28-03-2009 11:41:00 8.6 C 5.84 g/m*3 8.6 C 0 km/h
2578 28-03-2009 11:53:02 8.5 C 5.98 g/m*3 8.5 C 0 km/h
2579 28-03-2009 12:05:01 8.3 C 6.07 g/m*3 8.3 C 0 km/h
2580 28-03-2009 12:17:01 8.3 C 6.15 g/m*3 8.3 C 0 km/h
2581 28-03-2009 12:29:01 8.1 C 5.91 g/m*3 8.1 C 0 km/h
2582 28-03-2009 12:41:02 8.5 C 6.06 g/m*3 8.5 C 0 km/h
2583 28-03-2009 12:53:01 9 C 5.55 g/m*3 9 C 0 km/h
2584 28-03-2009 13:05:01 9.1 C 5.59 g/m*3 9.1 C 0 km/h
2585 28-03-2009 13:17:01 9.4 C 5.52 g/m*3 9.4 C 0 km/h
2586 28-03-2009 13:29:01 9.9 C 5.32 g/m*3 9.9 C 0 km/h
2587 28-03-2009 13:41:01 10.3 C 5.17 g/m*3 10.3 C 0 km/h
2588 28-03-2009 13:53:00 8.9 C 5.43 g/m*3 8.9 C 0 km/h
2589 28-03-2009 14:05:01 7 C 5.35 g/m*3 7 C 0 km/h
2590 28-03-2009 14:17:00 7.1 C 5.54 g/m*3 7.1 C 0 km/h
2591 28-03-2009 14:29:00 8.2 C 5.53 g/m*3 8.2 C 0 km/h
2592 28-03-2009 14:41:00 9.2 C 5.54 g/m*3 9.2 C 0 km/h
2593 28-03-2009 14:53:00 10.5 C 5.24 g/m*3 10.5 C 0 km/h
2594 28-03-2009 15:05:00 11.2 C 5.27 g/m*3 11.2 C 0 km/h
2595 28-03-2009 15:17:00 11.6 C 4.78 g/m*3 11.6 C 0 km/h
2596 28-03-2009 15:29:00 11 C 4.7 g/m*3 11 C 0 km/h
2597 28-03-2009 15:41:59 10.7 C 4.81 g/m*3 10.7 C 0 km/h
2598 28-03-2009 15:53:00 11.2 C 4.26 g/m*3 11.2 C 0 km/h
2599 28-03-2009 16:05:59 10.5 C 4.17 g/m*3 10.5 C 0 km/h
2600 28-03-2009 16:17:59 10.9 C 4.28 g/m*3 10.9 C 0 km/h
Sensor: Nr:Datum:Temp:Abs-Feuchte:Windchill:Wind:
Aussen-T/F 2601 28-03-2009 16:29:59 10.3 C 4.21 g/m*3 10.3 C 0 km/h
2602 28-03-2009 16:41:58 10.7 C 4.13 g/m*3 10.7 C 0 km/h
2603 28-03-2009 16:53:59 11.3 C 3.67 g/m*3 11.3 C 0 km/h
2604 28-03-2009 17:05:59 10.6 C 3.51 g/m*3 10.6 C 0 km/h
2605 28-03-2009 17:17:58 10.2 C 3.52 g/m*3 10.2 C 0 km/h
2606 28-03-2009 17:29:58 9.7 C 3.6 g/m*3 9.7 C 0 km/h
2607 28-03-2009 17:41:59 9.7 C 3.5 g/m*3 9.7 C 0 km/h
2608 28-03-2009 17:53:58 9.7 C 3.69 g/m*3 9.7 C 0 km/h
2609 28-03-2009 18:05:58 9.7 C 3.69 g/m*3 9.7 C 0 km/h
2610 28-03-2009 18:17:58 10.5 C 3.59 g/m*3 10.5 C 0 km/h
2611 28-03-2009 18:29:58 10.2 C 3.33 g/m*3 10.2 C 0 km/h
2612 28-03-2009 18:41:58 9.5 C 3.37 g/m*3 9.5 C 0 km/h
2613 28-03-2009 18:53:57 9 C 3.35 g/m*3 9 C 0 km/h
2614 28-03-2009 19:05:58 8.7 C 3.46 g/m*3 8.7 C 0 km/h
2615 28-03-2009 19:17:58 8.2 C 3.43 g/m*3 8.2 C 0 km/h
2616 28-03-2009 19:29:58 7.9 C 3.7 g/m*3 7.9 C 0 km/h
2617 28-03-2009 19:41:57 7.6 C 3.71 g/m*3 7.6 C 0 km/h
2618 28-03-2009 19:53:57 7.3 C 3.95 g/m*3 7.3 C 0 km/h
2619 28-03-2009 20:05:57 6.9 C 4.16 g/m*3 6.9 C 0 km/h
2620 28-03-2009 20:17:57 6.7 C 4.33 g/m*3 6.7 C 0 km/h
2621 28-03-2009 20:29:57 6.9 C 4.31 g/m*3 6.9 C 0 km/h
2622 28-03-2009 20:41:57 7 C 4.34 g/m*3 7 C 0 km/h
2623 28-03-2009 20:53:57 6.9 C 4.39 g/m*3 6.9 C 0 km/h
2624 28-03-2009 21:05:57 6.4 C 4.32 g/m*3 6.4 C 0 km/h
2625 28-03-2009 21:17:56 6.2 C 4.41 g/m*3 6.2 C 0 km/h
Sensor: Nr:Datum:Temp:Abs-Feuchte:Windchill:Wind:
Aussen-T/F 2626 28-03-2009 21:29:56 6 C 4.43 g/m*3 6 C 0 km/h
2627 28-03-2009 21:41:56 6 C 4.43 g/m*3 6 C 0 km/h
2628 28-03-2009 21:53:56 6.4 C 4.55 g/m*3 6.4 C 0 km/h
2629 28-03-2009 22:05:56 6.4 C 4.55 g/m*3 6.4 C 0 km/h
2630 28-03-2009 22:17:56 6.5 C 4.5 g/m*3 6.5 C 0 km/h
2631 28-03-2009 22:29:56 6.9 C 4.46 g/m*3 6.9 C 0 km/h
2632 28-03-2009 22:42:56 7.1 C 4.29 g/m*3 7.1 C 0 km/h
2633 28-03-2009 22:54:56 7.2 C 4.24 g/m*3 7.2 C 0 km/h
2634 28-03-2009 23:06:56 7.2 C 4.24 g/m*3 7.2 C 0 km/h
2635 28-03-2009 23:18:56 6.6 C 4.76 g/m*3 6.6 C 0 km/h
2636 28-03-2009 23:30:57 6 C 5.01 g/m*3 6 C 0 km/h
2637 28-03-2009 23:42:57 5.8 C 5.16 g/m*3 5.8 C 0 km/h
2638 28-03-2009 23:54:57 5.9 C 5.34 g/m*3 5.9 C 0 km/h
2639 29-03-2009 00:06:57 6 C 5.08 g/m*3 6 C 0 km/h
2640 29-03-2009 00:18:57 6.3 C 4.96 g/m*3 6.3 C 0 km/h
2641 29-03-2009 00:30:57 6.3 C 4.74 g/m*3 6.3 C 0 km/h
2642 29-03-2009 00:42:57 6 C 4.79 g/m*3 6 C 0 km/h
2643 29-03-2009 00:54:57 5.9 C 4.9 g/m*3 5.9 C 0 km/h
2644 29-03-2009 01:06:57 5.9 C 4.98 g/m*3 5.9 C 0 km/h
2645 29-03-2009 01:18:57 5.9 C 4.9 g/m*3 5.9 C 0 km/h
2646 29-03-2009 01:30:57 6 C 4.94 g/m*3 6 C 0 km/h
2647 29-03-2009 01:42:57 5.9 C 4.98 g/m*3 5.9 C 0 km/h
2648 29-03-2009 01:54:57 5.9 C 5.12 g/m*3 5.9 C 0 km/h
2649 29-03-2009 02:06:57 5.7 C 4.98 g/m*3 5.7 C 0 km/h
2650 29-03-2009 02:18:57 5.3 C 4.99 g/m*3 5.3 C 0 km/h
Sensor: Nr:Datum:Temp:Abs-Feuchte:Windchill:Wind:
Aussen-T/F 2651 29-03-2009 02:30:57 5.1 C 4.92 g/m*3 5.1 C 0 km/h
2652 29-03-2009 02:42:57 4.8 C 4.96 g/m*3 4.8 C 0 km/h
2653 29-03-2009 02:54:57 4.9 C 5.06 g/m*3 4.9 C 0 km/h
2654 29-03-2009 04:06:57 5 C 5.03 g/m*3 5 C 0 km/h
2655 29-03-2009 04:18:57 5.2 C 5.03 g/m*3 5.2 C 0 km/h
2656 29-03-2009 04:30:58 5.2 C 4.82 g/m*3 5.2 C 0 km/h
2657 29-03-2009 04:42:58 5.2 C 4.68 g/m*3 5.2 C 0 km/h
2658 29-03-2009 04:54:58 5.2 C 4.54 g/m*3 5.2 C 0 km/h
2659 29-03-2009 05:06:58 5.1 C 4.31 g/m*3 5.1 C 0 km/h
2660 29-03-2009 05:18:58 5.1 C 4.24 g/m*3 5.1 C 0 km/h
2661 29-03-2009 05:30:58 5.1 C 4.17 g/m*3 5.1 C 0 km/h
2662 29-03-2009 05:42:58 5.1 C 4.31 g/m*3 5.1 C 0 km/h
2663 29-03-2009 05:54:58 5.2 C 4.27 g/m*3 5.2 C 0 km/h
2664 29-03-2009 06:06:58 5.2 C 4.2 g/m*3 5.2 C 0 km/h
2665 29-03-2009 06:18:58 5.2 C 4.2 g/m*3 5.2 C 0 km/h
2666 29-03-2009 06:30:58 5.1 C 4.24 g/m*3 5.1 C 0 km/h
2667 29-03-2009 06:42:58 5 C 4.21 g/m*3 5 C 0 km/h
2668 29-03-2009 06:54:58 4.8 C 4.43 g/m*3 4.8 C 0 km/h
2669 29-03-2009 07:06:58 4.6 C 4.43 g/m*3 4.6 C 0 km/h
2670 29-03-2009 07:18:58 4.6 C 4.5 g/m*3 4.6 C 0 km/h
2671 29-03-2009 07:30:58 4.7 C 4.53 g/m*3 4.7 C 0 km/h
2672 29-03-2009 07:42:58 4.5 C 4.47 g/m*3 4.5 C 0 km/h
2673 29-03-2009 07:54:58 4.4 C 4.44 g/m*3 4.4 C 0 km/h
2674 29-03-2009 08:06:58 4.7 C 4.53 g/m*3 4.7 C 0 km/h
2675 29-03-2009 08:18:59 5 C 4.48 g/m*3 5 C 0 km/h
Sensor: Nr:Datum:Temp:Abs-Feuchte:Windchill:Wind:
Aussen-T/F 2676 29-03-2009 08:30:59 5.1 C 4.45 g/m*3 5.1 C 0 km/h
2677 29-03-2009 08:42:59 5.1 C 4.45 g/m*3 5.1 C 0 km/h
2678 29-03-2009 08:54:59 5.2 C 4.48 g/m*3 5.2 C 0 km/h
2679 29-03-2009 09:06:59 5.4 C 4.47 g/m*3 5.4 C 0 km/h
2680 29-03-2009 09:18:59 5.5 C 4.57 g/m*3 5.5 C 0 km/h
2681 29-03-2009 09:30:56 5.5 C 4.57 g/m*3 5.5 C 0 km/h
2682 29-03-2009 09:42:56 5.6 C 4.67 g/m*3 5.6 C 0 km/h
2683 29-03-2009 09:54:56 5.1 C 4.99 g/m*3 5.1 C 0 km/h
2684 29-03-2009 10:06:56 5.3 C 5.27 g/m*3 5.3 C 0 km/h
2685 29-03-2009 10:18:01 5.4 C 5.37 g/m*3 5.4 C 0 km/h
2686 29-03-2009 10:30:01 5.9 C 5.55 g/m*3 5.9 C 0 km/h
2687 29-03-2009 10:42:02 6.3 C 5.4 g/m*3 6.3 C 0 km/h
2688 29-03-2009 10:54:01 6.4 C 5.22 g/m*3 6.4 C 0 km/h
2689 29-03-2009 11:06:02 6.2 C 5.07 g/m*3 6.2 C 0 km/h
2690 29-03-2009 11:18:01 6.2 C 5.07 g/m*3 6.2 C 0 km/h
2691 29-03-2009 11:30:01 6.5 C 5.02 g/m*3 6.5 C 0 km/h
2692 29-03-2009 11:42:01 6.5 C 4.95 g/m*3 6.5 C 0 km/h
2693 29-03-2009 11:54:01 6.7 C 5.01 g/m*3 6.7 C 0 km/h
2694 29-03-2009 12:06:01 6.9 C 5 g/m*3 6.9 C 0 km/h
2695 29-03-2009 12:18:00 7.6 C 5.08 g/m*3 7.6 C 0 km/h
2696 29-03-2009 12:30:00 8.4 C 5.09 g/m*3 8.4 C 0 km/h
2697 29-03-2009 12:42:01 8 C 4.88 g/m*3 8 C 0 km/h
2698 29-03-2009 12:54:00 8.1 C 4.99 g/m*3 8.1 C 0 km/h
2699 29-03-2009 13:06:00 8.9 C 4.99 g/m*3 8.9 C 0 km/h
2700 29-03-2009 13:18:00 7.8 C 4.73 g/m*3 7.8 C 0 km/h
Sensor: Nr:Datum:Temp:Abs-Feuchte:Windchill:Wind:
Aussen-T/F 2701 29-03-2009 13:30:00 7.8 C 5.06 g/m*3 7.8 C 0 km/h
2702 29-03-2009 13:42:00 8.5 C 4.95 g/m*3 8.5 C 0 km/h
2703 29-03-2009 13:54:00 8.8 C 4.96 g/m*3 8.8 C 0 km/h
2704 29-03-2009 14:06:00 9 C 4.58 g/m*3 9 C 0 km/h
2705 29-03-2009 14:18:00 7.9 C 4.85 g/m*3 7.9 C 0 km/h
2706 29-03-2009 14:30:00 6.7 C 5.09 g/m*3 6.7 C 0 km/h
2707 29-03-2009 14:42:59 6.6 C 5.44 g/m*3 6.6 C 0 km/h
2708 29-03-2009 14:54:00 6.9 C 5.77 g/m*3 6.9 C 0 km/h
2709 29-03-2009 15:06:59 8.3 C 6.32 g/m*3 8.3 C 0 km/h
2710 29-03-2009 15:18:59 9 C 6.08 g/m*3 9 C 0 km/h
2711 29-03-2009 15:30:58 8.4 C 5.26 g/m*3 8.4 C 0 km/h
2712 29-03-2009 15:42:58 9 C 5.47 g/m*3 9 C 0 km/h
2713 29-03-2009 15:54:59 8.1 C 4.66 g/m*3 8.1 C 0 km/h
2714 29-03-2009 16:06:58 7.4 C 4.61 g/m*3 7.4 C 0 km/h
2715 29-03-2009 16:18:58 7.7 C 4.54 g/m*3 7.7 C 0 km/h
2716 29-03-2009 16:30:58 8.1 C 4.58 g/m*3 8.1 C 0 km/h
2717 29-03-2009 16:42:58 8.3 C 4.38 g/m*3 8.3 C 0 km/h
2718 29-03-2009 16:54:58 8.4 C 4.16 g/m*3 8.4 C 0 km/h
2719 29-03-2009 17:06:58 9 C 4.14 g/m*3 9 C 0 km/h
2720 29-03-2009 17:18:57 9.5 C 4.28 g/m*3 9.5 C 0 km/h
2721 29-03-2009 17:30:58 9.8 C 4.08 g/m*3 9.8 C 0 km/h
2722 29-03-2009 17:42:58 9 C 3.97 g/m*3 9 C 0 km/h
2723 29-03-2009 17:54:57 8.5 C 3.84 g/m*3 8.5 C 0 km/h
2724 29-03-2009 18:06:58 8.2 C 4.02 g/m*3 8.2 C 0 km/h
2725 29-03-2009 18:18:57 8 C 4.22 g/m*3 8 C 0 km/h
Sensor: Nr:Datum:Temp:Abs-Feuchte:Windchill:Wind:
Aussen-T/F 2726 29-03-2009 18:30:57 8 C 4.38 g/m*3 8 C 0 km/h
2727 29-03-2009 18:42:57 7.8 C 4.49 g/m*3 7.8 C 0 km/h
2728 29-03-2009 18:54:57 7.5 C 4.72 g/m*3 7.5 C 0 km/h
2729 29-03-2009 19:06:57 7.3 C 4.82 g/m*3 7.3 C 0 km/h
2730 29-03-2009 19:18:56 7 C 4.8 g/m*3 7 C 0 km/h
2731 29-03-2009 19:30:56 6.3 C 5.26 g/m*3 6.3 C 0 km/h
2732 29-03-2009 19:42:56 6.1 C 5.48 g/m*3 6.1 C 0 km/h
2733 29-03-2009 19:54:56 6 C 5.66 g/m*3 6 C 0 km/h
2734 29-03-2009 20:06:56 5.9 C 5.84 g/m*3 5.9 C 0 km/h
2735 29-03-2009 20:18:56 5.7 C 5.84 g/m*3 5.7 C 0 km/h
2736 29-03-2009 20:30:56 5.5 C 5.83 g/m*3 5.5 C 0 km/h
2737 29-03-2009 20:42:56 5.4 C 5.86 g/m*3 5.4 C 0 km/h
2738 29-03-2009 20:54:56 5.3 C 5.82 g/m*3 5.3 C 0 km/h
2739 29-03-2009 21:06:55 5 C 5.71 g/m*3 5 C 0 km/h
2740 29-03-2009 21:18:56 4.8 C 5.7 g/m*3 4.8 C 0 km/h
2741 29-03-2009 21:30:55 4.7 C 5.66 g/m*3 4.7 C 0 km/h
2742 29-03-2009 21:42:55 4.5 C 5.59 g/m*3 4.5 C 0 km/h
2743 29-03-2009 21:54:55 4.5 C 5.65 g/m*3 4.5 C 0 km/h
2744 29-03-2009 22:06:55 4.6 C 5.69 g/m*3 4.6 C 0 km/h
2745 29-03-2009 22:18:55 4.6 C 5.69 g/m*3 4.6 C 0 km/h
2746 29-03-2009 22:30:55 4.4 C 5.55 g/m*3 4.4 C 0 km/h
2747 29-03-2009 22:42:55 4.3 C 5.51 g/m*3 4.3 C 0 km/h
2748 29-03-2009 22:54:55 4.3 C 5.45 g/m*3 4.3 C 0 km/h
2749 29-03-2009 23:06:55 4.3 C 5.38 g/m*3 4.3 C 0 km/h
2750 29-03-2009 23:18:54 4.3 C 5.32 g/m*3 4.3 C 0 km/h
Sensor: Nr:Datum:Temp:Abs-Feuchte:Windchill:Wind:
Aussen-T/F 2751 29-03-2009 23:31:02 4.1 C 5.18 g/m*3 4.1 C 0 km/h
2752 29-03-2009 23:43:02 3.8 C 5.14 g/m*3 3.8 C 0 km/h
2753 29-03-2009 23:55:02 3.6 C 5.08 g/m*3 3.6 C 0 km/h
2754 30-03-2009 00:07:02 3.5 C 5.04 g/m*3 3.5 C 0 km/h
2755 30-03-2009 00:19:02 3.3 C 4.97 g/m*3 3.3 C 0 km/h
2756 30-03-2009 00:31:02 3.1 C 4.91 g/m*3 3.1 C 0 km/h
2757 30-03-2009 00:43:02 3 C 4.93 g/m*3 3 C 0 km/h
2758 30-03-2009 00:55:02 3 C 4.93 g/m*3 3 C 0 km/h
2759 30-03-2009 01:07:02 2.7 C 4.89 g/m*3 2.7 C 0 km/h
2760 30-03-2009 01:19:02 2.5 C 4.83 g/m*3 2.5 C 0 km/h
2761 30-03-2009 01:31:02 2.3 C 4.82 g/m*3 2.3 C 0 km/h
2762 30-03-2009 01:43:02 2.1 C 4.76 g/m*3 2.1 C 0 km/h
2763 30-03-2009 01:55:02 2 C 4.72 g/m*3 2 C 0 km/h
2764 30-03-2009 02:07:03 2 C 4.78 g/m*3 2 C 0 km/h
2765 30-03-2009 02:19:03 1.9 C 4.8 g/m*3 1.9 C 0 km/h
2766 30-03-2009 02:31:03 1.8 C 4.77 g/m*3 1.8 C 0 km/h
2767 30-03-2009 02:43:03 1.7 C 4.74 g/m*3 1.7 C 0 km/h
2768 30-03-2009 02:55:03 1.8 C 4.77 g/m*3 1.8 C 0 km/h
2769 30-03-2009 03:07:03 1.5 C 4.73 g/m*3 1.5 C 0 km/h
2770 30-03-2009 03:19:03 1.5 C 4.67 g/m*3 1.5 C 0 km/h
2771 30-03-2009 03:31:03 1.4 C 4.69 g/m*3 1.4 C 0 km/h
2772 30-03-2009 03:43:03 1.3 C 4.66 g/m*3 1.3 C 0 km/h
2773 30-03-2009 03:55:03 1.2 C 4.63 g/m*3 1.2 C 0 km/h
2774 30-03-2009 04:07:03 1.2 C 4.63 g/m*3 1.2 C 0 km/h
2775 30-03-2009 04:19:03 1.2 C 4.63 g/m*3 1.2 C 0 km/h
Sensor: Nr:Datum:Temp:Abs-Feuchte:Windchill:Wind:
Aussen-T/F 2776 30-03-2009 04:31:03 1.1 C 4.6 g/m*3 1.1 C 0 km/h
2777 30-03-2009 04:43:03 1.2 C 4.63 g/m*3 1.2 C 0 km/h
2778 30-03-2009 04:55:03 1.3 C 4.66 g/m*3 1.3 C 0 km/h
2779 30-03-2009 05:07:03 1 C 4.57 g/m*3 1 C 0 km/h
2780 30-03-2009 05:19:03 1 C 4.57 g/m*3 1 C 0 km/h
2781 30-03-2009 05:31:03 0.8 C 4.56 g/m*3 0.8 C 0 km/h
2782 30-03-2009 05:43:03 0.7 C 4.53 g/m*3 0.7 C 0 km/h
2783 30-03-2009 05:55:03 0.7 C 4.53 g/m*3 0.7 C 0 km/h
2784 30-03-2009 06:07:04 0.6 C 4.49 g/m*3 0.6 C 0 km/h
2785 30-03-2009 06:19:04 0.4 C 4.43 g/m*3 0.4 C 0 km/h
2786 30-03-2009 06:31:04 0.3 C 4.4 g/m*3 0.3 C 0 km/h
2787 30-03-2009 06:43:04 0.3 C 4.45 g/m*3 0.3 C 0 km/h
2788 30-03-2009 06:55:04 0 C 4.31 g/m*3 0 C 0 km/h
2789 30-03-2009 07:07:01 -0.2 C 4.25 g/m*3 -0.2 C 0 km/h
2790 30-03-2009 07:19:01 -0.2 C 4.25 g/m*3 -0.2 C 0 km/h
2791 30-03-2009 07:31:01 -0.2 C 4.25 g/m*3 -0.2 C 0 km/h
2792 30-03-2009 07:43:01 -0.2 C 4.3 g/m*3 -0.2 C 0 km/h
2793 30-03-2009 07:55:01 -0.2 C 4.3 g/m*3 -0.2 C 0 km/h
2794 30-03-2009 08:07:00 0 C 4.36 g/m*3 0 C 0 km/h
2795 30-03-2009 08:19:01 0.3 C 4.45 g/m*3 0.3 C 0 km/h
2796 30-03-2009 08:31:00 0.5 C 4.56 g/m*3 0.5 C 0 km/h
2797 30-03-2009 08:43:00 0.6 C 4.6 g/m*3 0.6 C 0 km/h
2798 30-03-2009 08:55:00 0.9 C 4.69 g/m*3 0.9 C 0 km/h
2799 30-03-2009 09:07:00 1.3 C 4.82 g/m*3 1.3 C 0 km/h
2800 30-03-2009 09:19:00 1.4 C 4.91 g/m*3 1.4 C 0 km/h
Sensor: Nr:Datum:Temp:Abs-Feuchte:Windchill:Wind:
Aussen-T/F 2801 30-03-2009 09:31:00 1.5 C 4.89 g/m*3 1.5 C 0 km/h
2802 30-03-2009 09:43:00 1.9 C 5.08 g/m*3 1.9 C 0 km/h
2803 30-03-2009 09:55:00 2.7 C 5.36 g/m*3 2.7 C 0 km/h
2804 30-03-2009 10:07:00 3.1 C 5.51 g/m*3 3.1 C 0 km/h
2805 30-03-2009 10:19:59 3.4 C 5.62 g/m*3 3.4 C 0 km/h
2806 30-03-2009 10:31:59 3.7 C 5.73 g/m*3 3.7 C 0 km/h
2807 30-03-2009 10:43:59 4.1 C 5.89 g/m*3 4.1 C 0 km/h
2808 30-03-2009 10:55:59 4.6 C 6.09 g/m*3 4.6 C 0 km/h
2809 30-03-2009 11:07:59 5.1 C 6.22 g/m*3 5.1 C 0 km/h
2810 30-03-2009 11:19:59 5.7 C 6.48 g/m*3 5.7 C 0 km/h
2811 30-03-2009 11:31:58 6.2 C 6.55 g/m*3 6.2 C 0 km/h
2812 30-03-2009 11:43:58 6.7 C 6.38 g/m*3 6.7 C 0 km/h
2813 30-03-2009 11:55:59 7 C 5.73 g/m*3 7 C 0 km/h
2814 30-03-2009 12:07:58 7.7 C 5.76 g/m*3 7.7 C 0 km/h
2815 30-03-2009 12:19:58 8.2 C 5.28 g/m*3 8.2 C 0 km/h
2816 30-03-2009 12:31:58 8.5 C 4.95 g/m*3 8.5 C 0 km/h
2817 30-03-2009 12:43:58 9.1 C 4.88 g/m*3 9.1 C 0 km/h
2818 30-03-2009 12:55:58 10.1 C 4.73 g/m*3 10.1 C 0 km/h
2819 30-03-2009 13:07:57 10.4 C 4.34 g/m*3 10.4 C 0 km/h
2820 30-03-2009 13:19:58 10 C 4.13 g/m*3 10 C 0 km/h
2821 30-03-2009 13:31:58 10.1 C 4.26 g/m*3 10.1 C 0 km/h
2822 30-03-2009 13:43:58 10.7 C 4.13 g/m*3 10.7 C 0 km/h
2823 30-03-2009 13:55:57 11.7 C 4.08 g/m*3 11.7 C 0 km/h
2824 30-03-2009 14:07:58 12.9 C 3.94 g/m*3 12.9 C 0 km/h
2825 30-03-2009 14:19:57 12.9 C 3.49 g/m*3 12.9 C 0 km/h
Sensor: Nr:Datum:Temp:Abs-Feuchte:Windchill:Wind:
Aussen-T/F 2826 30-03-2009 14:31:57 12.8 C 3.36 g/m*3 12.8 C 0 km/h
2827 30-03-2009 14:43:57 12.7 C 3.34 g/m*3 12.7 C 0 km/h
2828 30-03-2009 14:55:57 13.4 C 2.79 g/m*3 13.4 C 0 km/h
2829 30-03-2009 15:07:57 13.9 C 2.76 g/m*3 13.9 C 0 km/h
2830 30-03-2009 15:19:56 13.2 C 2.87 g/m*3 13.2 C 0 km/h
2831 30-03-2009 15:31:56 12.9 C 3.04 g/m*3 12.9 C 0 km/h
2832 30-03-2009 15:43:56 14.5 C 2.49 g/m*3 14.5 C 0 km/h
2833 30-03-2009 15:55:56 15.8 C 2.69 g/m*3 15.8 C 0 km/h
2834 30-03-2009 16:07:56 16.6 C 2.83 g/m*3 16.6 C 0 km/h
2835 30-03-2009 16:19:55 16.7 C 2.84 g/m*3 16.7 C 0 km/h
2836 30-03-2009 16:31:56 15.2 C 2.6 g/m*3 15.2 C 0 km/h
2837 30-03-2009 16:43:56 15 C 2.56 g/m*3 15 C 0 km/h
2838 30-03-2009 16:55:55 15.6 C 2.66 g/m*3 15.6 C 0 km/h
2839 30-03-2009 17:07:55 14.2 C 2.44 g/m*3 14.2 C 0 km/h
2840 30-03-2009 17:19:56 14.1 C 2.43 g/m*3 14.1 C 0 km/h
2841 30-03-2009 17:31:55 15.4 C 2.63 g/m*3 15.4 C 0 km/h
2842 30-03-2009 17:43:55 16.3 C 2.77 g/m*3 16.3 C 0 km/h
2843 30-03-2009 17:55:55 14.8 C 2.53 g/m*3 14.8 C 0 km/h
2844 30-03-2009 18:07:55 14.3 C 2.46 g/m*3 14.3 C 0 km/h
2845 30-03-2009 18:19:55 13.5 C 2.46 g/m*3 13.5 C 0 km/h
2846 30-03-2009 18:31:54 13.3 C 3 g/m*3 13.3 C 0 km/h
2847 30-03-2009 18:43:54 13.5 C 3.04 g/m*3 13.5 C 0 km/h
2848 30-03-2009 18:55:55 13.9 C 3.12 g/m*3 13.9 C 0 km/h
2849 30-03-2009 19:07:54 12.9 C 3.38 g/m*3 12.9 C 0 km/h
2850 30-03-2009 19:19:54 12.5 C 3.41 g/m*3 12.5 C 0 km/h
Sensor: Nr:Datum:Temp:Abs-Feuchte:Windchill:Wind:
Aussen-T/F 2851 30-03-2009 19:31:54 12.1 C 3.43 g/m*3 12.1 C 0 km/h
2852 30-03-2009 19:43:54 11.5 C 3.82 g/m*3 11.5 C 0 km/h
2853 30-03-2009 19:55:54 10.7 C 4.03 g/m*3 10.7 C 0 km/h
2854 30-03-2009 20:07:54 10.1 C 4.07 g/m*3 10.1 C 0 km/h
2855 30-03-2009 20:19:53 9.8 C 4.27 g/m*3 9.8 C 0 km/h
2856 30-03-2009 20:31:54 9.3 C 4.4 g/m*3 9.3 C 0 km/h
2857 30-03-2009 20:43:54 8.7 C 4.32 g/m*3 8.7 C 0 km/h
2858 30-03-2009 20:55:53 8.3 C 4.3 g/m*3 8.3 C 0 km/h
2859 30-03-2009 21:07:53 8 C 4.3 g/m*3 8 C 0 km/h
2860 30-03-2009 21:19:53 7.7 C 4.38 g/m*3 7.7 C 0 km/h
2861 30-03-2009 21:32:54 7.4 C 4.37 g/m*3 7.4 C 0 km/h
2862 30-03-2009 21:44:54 7.2 C 4.47 g/m*3 7.2 C 0 km/h
2863 30-03-2009 21:56:54 7 C 4.49 g/m*3 7 C 0 km/h
2864 30-03-2009 22:08:54 6.9 C 4.46 g/m*3 6.9 C 0 km/h
2865 30-03-2009 22:20:54 6.5 C 4.5 g/m*3 6.5 C 0 km/h
2866 30-03-2009 22:32:54 6.3 C 4.52 g/m*3 6.3 C 0 km/h
2867 30-03-2009 22:44:54 6.4 C 4.55 g/m*3 6.4 C 0 km/h
2868 30-03-2009 22:56:54 5.9 C 4.54 g/m*3 5.9 C 0 km/h
2869 30-03-2009 23:08:54 5.5 C 4.42 g/m*3 5.5 C 0 km/h
2870 30-03-2009 23:20:54 5.3 C 4.51 g/m*3 5.3 C 0 km/h
2871 30-03-2009 23:32:54 5.2 C 4.54 g/m*3 5.2 C 0 km/h
2872 30-03-2009 23:44:54 5.1 C 4.58 g/m*3 5.1 C 0 km/h
2873 30-03-2009 23:56:54 4.9 C 4.52 g/m*3 4.9 C 0 km/h
2874 31-03-2009 00:08:54 4.7 C 4.46 g/m*3 4.7 C 0 km/h
2875 31-03-2009 00:20:54 4.5 C 4.47 g/m*3 4.5 C 0 km/h
Sensor: Nr:Datum:Temp:Abs-Feuchte:Windchill:Wind:
Aussen-T/F 2876 31-03-2009 00:32:54 4.3 C 4.48 g/m*3 4.3 C 0 km/h
2877 31-03-2009 00:44:54 4 C 4.45 g/m*3 4 C 0 km/h
2878 31-03-2009 00:56:54 3.8 C 4.45 g/m*3 3.8 C 0 km/h
2879 31-03-2009 01:08:54 3.6 C 4.46 g/m*3 3.6 C 0 km/h
2880 31-03-2009 01:20:54 3.5 C 4.43 g/m*3 3.5 C 0 km/h
2881 31-03-2009 01:32:54 3.2 C 4.4 g/m*3 3.2 C 0 km/h
2882 31-03-2009 01:44:55 3.1 C 4.43 g/m*3 3.1 C 0 km/h
2883 31-03-2009 01:56:55 3 C 4.4 g/m*3 3 C 0 km/h
2884 31-03-2009 02:08:55 2.9 C 4.49 g/m*3 2.9 C 0 km/h
2885 31-03-2009 02:20:55 2.7 C 4.37 g/m*3 2.7 C 0 km/h
2886 31-03-2009 02:32:55 2.5 C 4.31 g/m*3 2.5 C 0 km/h
2887 31-03-2009 02:44:55 2.3 C 4.31 g/m*3 2.3 C 0 km/h
2888 31-03-2009 02:56:55 2.1 C 4.25 g/m*3 2.1 C 0 km/h
2889 31-03-2009 03:08:55 2.1 C 4.31 g/m*3 2.1 C 0 km/h
2890 31-03-2009 03:20:55 2 C 4.33 g/m*3 2 C 0 km/h
2891 31-03-2009 03:32:55 1.8 C 4.33 g/m*3 1.8 C 0 km/h
2892 31-03-2009 03:44:55 1.6 C 4.27 g/m*3 1.6 C 0 km/h
2893 31-03-2009 03:56:55 1.5 C 4.3 g/m*3 1.5 C 0 km/h
2894 31-03-2009 04:08:55 1.3 C 4.29 g/m*3 1.3 C 0 km/h
2895 31-03-2009 04:20:55 1.2 C 4.26 g/m*3 1.2 C 0 km/h
2896 31-03-2009 04:32:55 1 C 4.2 g/m*3 1 C 0 km/h
2897 31-03-2009 04:44:55 1 C 4.2 g/m*3 1 C 0 km/h
2898 31-03-2009 04:56:55 1 C 4.2 g/m*3 1 C 0 km/h
2899 31-03-2009 05:08:55 0.8 C 4.2 g/m*3 0.8 C 0 km/h
2900 31-03-2009 05:20:55 0.6 C 4.14 g/m*3 0.6 C 0 km/h
Sensor: Nr:Datum:Temp:Abs-Feuchte:Windchill:Wind:
Aussen-T/F 2901 31-03-2009 05:32:55 0.6 C 4.14 g/m*3 0.6 C 0 km/h
2902 31-03-2009 05:44:56 0.4 C 4.08 g/m*3 0.4 C 0 km/h
2903 31-03-2009 05:56:56 0.3 C 4.06 g/m*3 0.3 C 0 km/h
2904 31-03-2009 06:08:56 0.3 C 4.11 g/m*3 0.3 C 0 km/h
2905 31-03-2009 06:20:56 0.2 C 4.08 g/m*3 0.2 C 0 km/h
2906 31-03-2009 06:32:56 0 C 4.07 g/m*3 0 C 0 km/h
2907 31-03-2009 06:44:56 -0.2 C 3.97 g/m*3 -0.2 C 0 km/h
2908 31-03-2009 06:56:56 -0.3 C 3.94 g/m*3 -0.3 C 0 km/h
2909 31-03-2009 07:08:53 -0.3 C 3.99 g/m*3 -0.3 C 0 km/h
2910 31-03-2009 07:20:54 -0.3 C 3.99 g/m*3 -0.3 C 0 km/h
2911 31-03-2009 07:32:53 -0.5 C 3.93 g/m*3 -0.5 C 0 km/h
2912 31-03-2009 07:44:53 -0.4 C 3.96 g/m*3 -0.4 C 0 km/h
2913 31-03-2009 07:56:53 -0.3 C 3.99 g/m*3 -0.3 C 0 km/h
2914 31-03-2009 08:08:53 -0.1 C 4.09 g/m*3 -0.1 C 0 km/h
2915 31-03-2009 08:20:53 0 C 4.12 g/m*3 0 C 0 km/h
2916 31-03-2009 08:32:52 0.1 C 4.2 g/m*3 0.1 C 0 km/h
2917 31-03-2009 08:44:53 0.3 C 4.25 g/m*3 0.3 C 0 km/h
2918 31-03-2009 08:56:53 0.4 C 4.28 g/m*3 0.4 C 0 km/h
2919 31-03-2009 09:08:52 0.6 C 4.34 g/m*3 0.6 C 0 km/h
2920 31-03-2009 09:20:52 0.8 C 4.4 g/m*3 0.8 C 0 km/h
2921 31-03-2009 09:32:52 1.1 C 4.49 g/m*3 1.1 C 0 km/h
2922 31-03-2009 09:44:52 1.5 C 4.67 g/m*3 1.5 C 0 km/h
2923 31-03-2009 09:56:52 2.1 C 4.87 g/m*3 2.1 C 0 km/h
2924 31-03-2009 10:08:52 2.8 C 5.04 g/m*3 2.8 C 0 km/h
2925 31-03-2009 10:20:51 3.4 C 5.01 g/m*3 3.4 C 0 km/h
Sensor: Nr:Datum:Temp:Abs-Feuchte:Windchill:Wind:
Aussen-T/F 2926 31-03-2009 10:32:52 4.1 C 4.99 g/m*3 4.1 C 0 km/h
2927 31-03-2009 10:44:51 4.6 C 5.03 g/m*3 4.6 C 0 km/h
2928 31-03-2009 10:56:51 5.2 C 4.82 g/m*3 5.2 C 0 km/h
2929 31-03-2009 11:08:52 5.9 C 4.76 g/m*3 5.9 C 0 km/h
2930 31-03-2009 11:20:51 6.5 C 4.57 g/m*3 6.5 C 0 km/h
2931 31-03-2009 11:32:51 7.4 C 4.69 g/m*3 7.4 C 0 km/h
2932 31-03-2009 11:44:51 7.9 C 4.68 g/m*3 7.9 C 0 km/h
2933 31-03-2009 11:56:51 8.5 C 4.61 g/m*3 8.5 C 0 km/h
2934 31-03-2009 12:08:51 9.1 C 4.44 g/m*3 9.1 C 0 km/h
2935 31-03-2009 12:20:50 9.6 C 4.12 g/m*3 9.6 C 0 km/h
2936 31-03-2009 12:32:50 10.6 C 4 g/m*3 10.6 C 0 km/h
2937 31-03-2009 12:44:50 11 C 3.6 g/m*3 11 C 0 km/h
2938 31-03-2009 12:56:50 11.6 C 3.33 g/m*3 11.6 C 0 km/h
2939 31-03-2009 13:08:50 12.1 C 3.32 g/m*3 12.1 C 0 km/h
2940 31-03-2009 13:20:49 12.5 C 2.97 g/m*3 12.5 C 0 km/h
2941 31-03-2009 13:32:50 13.2 C 2.53 g/m*3 13.2 C 0 km/h
2942 31-03-2009 13:44:49 13.6 C 2.59 g/m*3 13.6 C 0 km/h
2943 31-03-2009 13:56:49 14.2 C 2.44 g/m*3 14.2 C 0 km/h
2944 31-03-2009 14:08:49 14.7 C 2.52 g/m*3 14.7 C 0 km/h
2945 31-03-2009 14:20:50 15.1 C 2.58 g/m*3 15.1 C 0 km/h
2946 31-03-2009 14:32:49 15.9 C 2.71 g/m*3 15.9 C 0 km/h
2947 31-03-2009 14:44:49 16 C 2.72 g/m*3 16 C 0 km/h
2948 31-03-2009 14:56:49 16.8 C 2.86 g/m*3 16.8 C 0 km/h
2949 31-03-2009 15:08:49 17.2 C 2.93 g/m*3 17.2 C 0 km/h
2950 31-03-2009 15:20:49 17.3 C 2.95 g/m*3 17.3 C 0 km/h
Sensor: Nr:Datum:Temp:Abs-Feuchte:Windchill:Wind:
Aussen-T/F 2951 31-03-2009 15:32:48 17.8 C 3.04 g/m*3 17.8 C 0 km/h
2952 31-03-2009 15:44:49 18.1 C 3.09 g/m*3 18.1 C 0 km/h
2953 31-03-2009 15:56:49 18.6 C 3.18 g/m*3 18.6 C 0 km/h
2954 31-03-2009 16:08:48 18.3 C 3.13 g/m*3 18.3 C 0 km/h
2955 31-03-2009 16:20:48 19 C 3.26 g/m*3 19 C 0 km/h
2956 31-03-2009 16:32:48 19.6 C 3.38 g/m*3 19.6 C 0 km/h
2957 31-03-2009 16:44:48 20 C 3.46 g/m*3 20 C 0 km/h
2958 31-03-2009 16:56:49 20.3 C 3.52 g/m*3 20.3 C 0 km/h
2959 31-03-2009 17:08:47 20.3 C 3.52 g/m*3 20.3 C 0 km/h
2960 31-03-2009 17:20:48 20.3 C 3.52 g/m*3 20.3 C 0 km/h
2961 31-03-2009 17:32:48 20 C 3.46 g/m*3 20 C 0 km/h
2962 31-03-2009 17:44:47 20.6 C 3.58 g/m*3 20.6 C 0 km/h
2963 31-03-2009 17:56:47 20.1 C 3.48 g/m*3 20.1 C 0 km/h
2964 31-03-2009 18:08:48 20 C 3.46 g/m*3 20 C 0 km/h
2965 31-03-2009 18:20:47 19.8 C 3.42 g/m*3 19.8 C 0 km/h
2966 31-03-2009 18:32:47 19.3 C 3.32 g/m*3 19.3 C 0 km/h
2967 31-03-2009 18:44:46 19.2 C 3.3 g/m*3 19.2 C 0 km/h
2968 31-03-2009 18:56:46 19 C 3.26 g/m*3 19 C 0 km/h
2969 31-03-2009 19:08:47 18.5 C 3.16 g/m*3 18.5 C 0 km/h
2970 31-03-2009 19:20:46 17.7 C 3.02 g/m*3 17.7 C 0 km/h
2971 31-03-2009 19:32:46 17 C 2.89 g/m*3 17 C 0 km/h
2972 31-03-2009 19:44:46 15.7 C 2.81 g/m*3 15.7 C 0 km/h
2973 31-03-2009 19:56:46 14.4 C 3.09 g/m*3 14.4 C 0 km/h
2974 31-03-2009 20:08:46 13.6 C 3.3 g/m*3 13.6 C 0 km/h
2975 31-03-2009 20:20:46 12.7 C 3.34 g/m*3 12.7 C 0 km/h
Sensor: Nr:Datum:Temp:Abs-Feuchte:Windchill:Wind:
Aussen-T/F 2976 31-03-2009 20:32:46 12.3 C 3.26 g/m*3 12.3 C 0 km/h
2977 31-03-2009 20:44:46 11.8 C 3.26 g/m*3 11.8 C 0 km/h
2978 31-03-2009 20:56:46 11.7 C 3.24 g/m*3 11.7 C 0 km/h
2979 31-03-2009 21:08:46 11.5 C 3.1 g/m*3 11.5 C 0 km/h
2980 31-03-2009 21:21:46 11.4 C 3.28 g/m*3 11.4 C 0 km/h
2981 31-03-2009 21:33:46 11.1 C 3.22 g/m*3 11.1 C 0 km/h
2982 31-03-2009 21:45:46 10.9 C 3.48 g/m*3 10.9 C 0 km/h
2983 31-03-2009 21:57:46 10.7 C 3.54 g/m*3 10.7 C 0 km/h
2984 31-03-2009 22:09:46 10.3 C 3.73 g/m*3 10.3 C 0 km/h
2985 31-03-2009 22:21:46 9.8 C 3.9 g/m*3 9.8 C 0 km/h
2986 31-03-2009 22:33:46 9.5 C 3.82 g/m*3 9.5 C 0 km/h
2987 31-03-2009 22:45:46 9.1 C 3.9 g/m*3 9.1 C 0 km/h
2988 31-03-2009 22:57:46 8.9 C 4.03 g/m*3 8.9 C 0 km/h
2989 31-03-2009 23:09:46 8.7 C 4.06 g/m*3 8.7 C 0 km/h
2990 31-03-2009 23:21:46 8.6 C 4.04 g/m*3 8.6 C 0 km/h
2991 31-03-2009 23:33:46 8.3 C 4.13 g/m*3 8.3 C 0 km/h
2992 31-03-2009 23:45:46 8.1 C 4.08 g/m*3 8.1 C 0 km/h
2993 31-03-2009 23:57:46 8.1 C 4.08 g/m*3 8.1 C 0 km/h
2994 01-04-2009 00:09:46 8 C 3.97 g/m*3 8 C 0 km/h
2995 01-04-2009 00:21:46 7.6 C 4.11 g/m*3 7.6 C 0 km/h
2996 01-04-2009 00:33:46 7.5 C 4.16 g/m*3 7.5 C 0 km/h
2997 01-04-2009 00:45:47 7.3 C 4.19 g/m*3 7.3 C 0 km/h
2998 01-04-2009 00:57:47 7.2 C 4.24 g/m*3 7.2 C 0 km/h
2999 01-04-2009 01:09:47 7 C 4.34 g/m*3 7 C 0 km/h
3000 01-04-2009 01:21:47 6.9 C 4.31 g/m*3 6.9 C 0 km/h
Sensor: Nr:Datum:Temp:Abs-Feuchte:Windchill:Wind:
Aussen-T/F 3001 01-04-2009 01:33:47 6.7 C 4.33 g/m*3 6.7 C 0 km/h
3002 01-04-2009 01:45:47 6.6 C 4.38 g/m*3 6.6 C 0 km/h
3003 01-04-2009 01:57:47 6.3 C 4.44 g/m*3 6.3 C 0 km/h
3004 01-04-2009 02:09:47 6.2 C 4.49 g/m*3 6.2 C 0 km/h
3005 01-04-2009 02:21:47 5.8 C 4.44 g/m*3 5.8 C 0 km/h
3006 01-04-2009 02:33:47 5.6 C 4.45 g/m*3 5.6 C 0 km/h
3007 01-04-2009 02:45:47 5.5 C 4.49 g/m*3 5.5 C 0 km/h
3008 01-04-2009 02:57:47 5.2 C 4.41 g/m*3 5.2 C 0 km/h
3009 01-04-2009 03:09:47 4.9 C 4.39 g/m*3 4.9 C 0 km/h
3010 01-04-2009 03:21:47 4.8 C 4.43 g/m*3 4.8 C 0 km/h
3011 01-04-2009 03:33:47 4.7 C 4.46 g/m*3 4.7 C 0 km/h
3012 01-04-2009 03:45:47 4.6 C 4.5 g/m*3 4.6 C 0 km/h
3013 01-04-2009 03:57:47 4.4 C 4.51 g/m*3 4.4 C 0 km/h
3014 01-04-2009 04:09:47 4 C 4.39 g/m*3 4 C 0 km/h
3015 01-04-2009 04:21:47 4.1 C 4.48 g/m*3 4.1 C 0 km/h
3016 01-04-2009 04:33:47 3.8 C 4.45 g/m*3 3.8 C 0 km/h
3017 01-04-2009 04:45:48 3.9 C 4.55 g/m*3 3.9 C 0 km/h
3018 01-04-2009 04:57:48 3.6 C 4.46 g/m*3 3.6 C 0 km/h
3019 01-04-2009 05:09:48 3.3 C 4.37 g/m*3 3.3 C 0 km/h
3020 01-04-2009 05:21:48 3.4 C 4.52 g/m*3 3.4 C 0 km/h
3021 01-04-2009 05:33:48 3.2 C 4.46 g/m*3 3.2 C 0 km/h
3022 01-04-2009 05:45:48 3.2 C 4.46 g/m*3 3.2 C 0 km/h
3023 01-04-2009 05:57:48 3.1 C 4.43 g/m*3 3.1 C 0 km/h
3024 01-04-2009 06:09:48 3.3 C 4.49 g/m*3 3.3 C 0 km/h
3025 01-04-2009 06:21:48 3.2 C 4.58 g/m*3 3.2 C 0 km/h
Sensor: Nr:Datum:Temp:Abs-Feuchte:Windchill:Wind:
Aussen-T/F 3026 01-04-2009 06:33:48 2.9 C 4.49 g/m*3 2.9 C 0 km/h
3027 01-04-2009 06:45:48 2.7 C 4.49 g/m*3 2.7 C 0 km/h
3028 01-04-2009 06:57:48 2.5 C 4.43 g/m*3 2.5 C 0 km/h
3029 01-04-2009 07:09:46 2.5 C 4.48 g/m*3 2.5 C 0 km/h
3030 01-04-2009 07:21:45 2.1 C 4.31 g/m*3 2.1 C 0 km/h
3031 01-04-2009 07:33:45 2.2 C 4.39 g/m*3 2.2 C 0 km/h
3032 01-04-2009 07:45:45 2.3 C 4.48 g/m*3 2.3 C 0 km/h
3033 01-04-2009 07:57:45 2.4 C 4.51 g/m*3 2.4 C 0 km/h
3034 01-04-2009 08:09:45 2.4 C 4.57 g/m*3 2.4 C 0 km/h
3035 01-04-2009 08:21:44 2.5 C 4.6 g/m*3 2.5 C 0 km/h
3036 01-04-2009 08:33:45 2.6 C 4.63 g/m*3 2.6 C 0 km/h
3037 01-04-2009 08:45:45 2.7 C 4.66 g/m*3 2.7 C 0 km/h
3038 01-04-2009 08:57:45 3 C 4.7 g/m*3 3 C 0 km/h
3039 01-04-2009 09:09:44 3.3 C 4.79 g/m*3 3.3 C 0 km/h
3040 01-04-2009 09:21:45 3.7 C 4.92 g/m*3 3.7 C 0 km/h
3041 01-04-2009 09:33:44 4.1 C 4.99 g/m*3 4.1 C 0 km/h
3042 01-04-2009 09:45:44 4.9 C 5.06 g/m*3 4.9 C 0 km/h
3043 01-04-2009 09:57:44 5.7 C 4.98 g/m*3 5.7 C 0 km/h
3044 01-04-2009 10:09:44 6.7 C 4.94 g/m*3 6.7 C 0 km/h
3045 01-04-2009 10:21:44 7.4 C 4.85 g/m*3 7.4 C 0 km/h
3046 01-04-2009 10:33:44 8.1 C 4.74 g/m*3 8.1 C 0 km/h
3047 01-04-2009 10:45:43 8.8 C 4.7 g/m*3 8.8 C 0 km/h
3048 01-04-2009 10:57:43 9.4 C 4.61 g/m*3 9.4 C 0 km/h
3049 01-04-2009 11:09:44 10.5 C 4.36 g/m*3 10.5 C 0 km/h
3050 01-04-2009 11:21:43 11.2 C 4.16 g/m*3 11.2 C 0 km/h
Sensor: Nr:Datum:Temp:Abs-Feuchte:Windchill:Wind:
Aussen-T/F 3051 01-04-2009 11:33:43 11.8 C 3.89 g/m*3 11.8 C 0 km/h
3052 01-04-2009 11:45:43 12.2 C 3.67 g/m*3 12.2 C 0 km/h
3053 01-04-2009 11:57:43 12.7 C 3.45 g/m*3 12.7 C 0 km/h
3054 01-04-2009 12:09:43 12.9 C 3.27 g/m*3 12.9 C 0 km/h
3055 01-04-2009 12:21:42 13.4 C 3.14 g/m*3 13.4 C 0 km/h
3056 01-04-2009 12:33:43 13.7 C 3.32 g/m*3 13.7 C 0 km/h
3057 01-04-2009 12:45:42 14.1 C 3.16 g/m*3 14.1 C 0 km/h
3058 01-04-2009 12:57:42 14.4 C 3.09 g/m*3 14.4 C 0 km/h
3059 01-04-2009 13:09:42 14.8 C 2.91 g/m*3 14.8 C 0 km/h
3060 01-04-2009 13:21:42 14.9 C 3.19 g/m*3 14.9 C 0 km/h
3061 01-04-2009 13:33:42 15.6 C 2.79 g/m*3 15.6 C 0 km/h
3062 01-04-2009 13:45:42 16 C 2.72 g/m*3 16 C 0 km/h
3063 01-04-2009 13:57:42 16.5 C 2.81 g/m*3 16.5 C 0 km/h
3064 01-04-2009 14:09:41 17.2 C 3.08 g/m*3 17.2 C 0 km/h
3065 01-04-2009 14:21:42 17.6 C 3 g/m*3 17.6 C 0 km/h
3066 01-04-2009 14:33:41 18.3 C 3.13 g/m*3 18.3 C 0 km/h
3067 01-04-2009 14:45:41 18.6 C 3.18 g/m*3 18.6 C 0 km/h
3068 01-04-2009 14:57:42 18.8 C 3.22 g/m*3 18.8 C 0 km/h
3069 01-04-2009 15:09:41 18.8 C 3.22 g/m*3 18.8 C 0 km/h
3070 01-04-2009 15:21:41 19.5 C 3.36 g/m*3 19.5 C 0 km/h
3071 01-04-2009 15:33:41 19.9 C 3.44 g/m*3 19.9 C 0 km/h
3072 01-04-2009 15:45:41 19.7 C 3.4 g/m*3 19.7 C 0 km/h
3073 01-04-2009 15:57:41 20.2 C 3.5 g/m*3 20.2 C 0 km/h
3074 01-04-2009 16:09:41 20.3 C 3.52 g/m*3 20.3 C 0 km/h
3075 01-04-2009 16:21:40 20.5 C 3.56 g/m*3 20.5 C 0 km/h
Sensor: Nr:Datum:Temp:Abs-Feuchte:Windchill:Wind:
Aussen-T/F 3076 01-04-2009 16:33:40 20.8 C 3.62 g/m*3 20.8 C 0 km/h
3077 01-04-2009 16:45:40 21.1 C 3.69 g/m*3 21.1 C 0 km/h
3078 01-04-2009 16:57:40 21.4 C 3.75 g/m*3 21.4 C 0 km/h
3079 01-04-2009 17:09:40 21.2 C 3.71 g/m*3 21.2 C 0 km/h
3080 01-04-2009 17:21:39 21.5 C 3.77 g/m*3 21.5 C 0 km/h
3081 01-04-2009 17:33:40 21.5 C 3.77 g/m*3 21.5 C 0 km/h
3082 01-04-2009 17:45:39 21.5 C 3.77 g/m*3 21.5 C 0 km/h
3083 01-04-2009 17:57:39 21.1 C 3.69 g/m*3 21.1 C 0 km/h
3084 01-04-2009 18:09:39 20.8 C 3.62 g/m*3 20.8 C 0 km/h
3085 01-04-2009 18:21:40 20.3 C 3.52 g/m*3 20.3 C 0 km/h
3086 01-04-2009 18:33:39 20.4 C 3.54 g/m*3 20.4 C 0 km/h
3087 01-04-2009 18:45:39 19.7 C 3.4 g/m*3 19.7 C 0 km/h
3088 01-04-2009 18:57:39 19.1 C 3.28 g/m*3 19.1 C 0 km/h
3089 01-04-2009 19:09:39 18.6 C 3.18 g/m*3 18.6 C 0 km/h
3090 01-04-2009 19:21:39 18.2 C 3.11 g/m*3 18.2 C 0 km/h
3091 01-04-2009 19:33:38 17.5 C 3.13 g/m*3 17.5 C 0 km/h
3092 01-04-2009 19:45:39 16.7 C 3.69 g/m*3 16.7 C 0 km/h
3093 01-04-2009 19:57:39 15.8 C 3.77 g/m*3 15.8 C 0 km/h
3094 01-04-2009 20:09:38 15.1 C 3.74 g/m*3 15.1 C 0 km/h
3095 01-04-2009 20:21:38 14.6 C 3.75 g/m*3 14.6 C 0 km/h
3096 01-04-2009 20:33:38 14.3 C 3.81 g/m*3 14.3 C 0 km/h
3097 01-04-2009 20:45:38 13.8 C 3.93 g/m*3 13.8 C 0 km/h
3098 01-04-2009 20:57:38 13.5 C 3.86 g/m*3 13.5 C 0 km/h
3099 01-04-2009 21:09:37 13.4 C 3.84 g/m*3 13.4 C 0 km/h
3100 01-04-2009 21:21:38 13.1 C 3.77 g/m*3 13.1 C 0 km/h
Sensor: Nr:Datum:Temp:Abs-Feuchte:Windchill:Wind:
Aussen-T/F 3101 01-04-2009 21:33:38 13 C 3.86 g/m*3 13 C 0 km/h
3102 01-04-2009 21:45:37 12.8 C 3.92 g/m*3 12.8 C 0 km/h
3103 01-04-2009 21:57:37 12.5 C 3.96 g/m*3 12.5 C 0 km/h
3104 01-04-2009 22:10:38 12.5 C 3.96 g/m*3 12.5 C 0 km/h
3105 01-04-2009 22:22:38 12.2 C 3.99 g/m*3 12.2 C 0 km/h
3106 01-04-2009 22:34:38 12.2 C 3.99 g/m*3 12.2 C 0 km/h
3107 01-04-2009 22:46:38 11.9 C 4.13 g/m*3 11.9 C 0 km/h
3108 01-04-2009 22:58:38 11.8 C 4.21 g/m*3 11.8 C 0 km/h
3109 01-04-2009 23:10:39 11.7 C 4.18 g/m*3 11.7 C 0 km/h
3110 01-04-2009 23:22:39 11.7 C 4.29 g/m*3 11.7 C 0 km/h
3111 01-04-2009 23:34:39 12 C 4.26 g/m*3 12 C 0 km/h
3112 01-04-2009 23:46:39 12.2 C 4.21 g/m*3 12.2 C 0 km/h
3113 01-04-2009 23:58:39 12.4 C 4.15 g/m*3 12.4 C 0 km/h
3114 02-04-2009 00:10:39 12.5 C 4.18 g/m*3 12.5 C 0 km/h
3115 02-04-2009 00:22:39 12.6 C 4.2 g/m*3 12.6 C 0 km/h
3116 02-04-2009 00:34:39 12.5 C 4.29 g/m*3 12.5 C 0 km/h
3117 02-04-2009 00:46:39 12.4 C 4.37 g/m*3 12.4 C 0 km/h
3118 02-04-2009 00:58:39 12.4 C 4.26 g/m*3 12.4 C 0 km/h
3119 02-04-2009 01:10:39 12 C 4.26 g/m*3 12 C 0 km/h
3120 02-04-2009 01:22:39 11.8 C 4.32 g/m*3 11.8 C 0 km/h
3121 02-04-2009 01:34:39 11.5 C 4.34 g/m*3 11.5 C 0 km/h
3122 02-04-2009 01:46:39 11.4 C 4.31 g/m*3 11.4 C 0 km/h
3123 02-04-2009 01:58:39 11.5 C 4.44 g/m*3 11.5 C 0 km/h
3124 02-04-2009 02:10:39 11.5 C 4.44 g/m*3 11.5 C 0 km/h
3125 02-04-2009 02:22:39 11.3 C 4.39 g/m*3 11.3 C 0 km/h
Sensor: Nr:Datum:Temp:Abs-Feuchte:Windchill:Wind:
Aussen-T/F 3126 02-04-2009 02:34:39 10.8 C 4.45 g/m*3 10.8 C 0 km/h
3127 02-04-2009 02:46:39 10.6 C 4.39 g/m*3 10.6 C 0 km/h
3128 02-04-2009 02:58:40 10.5 C 4.36 g/m*3 10.5 C 0 km/h
3129 02-04-2009 03:10:40 10.3 C 4.41 g/m*3 10.3 C 0 km/h
3130 02-04-2009 03:22:40 10.2 C 4.38 g/m*3 10.2 C 0 km/h
3131 02-04-2009 03:34:40 10.2 C 4.38 g/m*3 10.2 C 0 km/h
3132 02-04-2009 03:46:40 10.1 C 4.35 g/m*3 10.1 C 0 km/h
3133 02-04-2009 03:58:40 10 C 4.32 g/m*3 10 C 0 km/h
3134 02-04-2009 04:10:40 10 C 4.32 g/m*3 10 C 0 km/h
3135 02-04-2009 04:22:40 10 C 4.32 g/m*3 10 C 0 km/h
3136 02-04-2009 04:34:40 9.9 C 4.39 g/m*3 9.9 C 0 km/h
3137 02-04-2009 04:46:40 9.8 C 4.36 g/m*3 9.8 C 0 km/h
3138 02-04-2009 04:58:40 9.7 C 4.33 g/m*3 9.7 C 0 km/h
3139 02-04-2009 05:10:40 9.6 C 4.31 g/m*3 9.6 C 0 km/h
3140 02-04-2009 05:22:40 9.5 C 4.37 g/m*3 9.5 C 0 km/h
3141 02-04-2009 05:34:40 9.3 C 4.4 g/m*3 9.3 C 0 km/h
3142 02-04-2009 05:46:40 9.2 C 4.46 g/m*3 9.2 C 0 km/h
3143 02-04-2009 05:58:40 9.3 C 4.49 g/m*3 9.3 C 0 km/h
3144 02-04-2009 06:10:40 9.2 C 4.46 g/m*3 9.2 C 0 km/h
3145 02-04-2009 06:22:40 8.9 C 4.56 g/m*3 8.9 C 0 km/h
3146 02-04-2009 06:34:40 8.7 C 4.58 g/m*3 8.7 C 0 km/h
3147 02-04-2009 06:46:41 8.5 C 4.61 g/m*3 8.5 C 0 km/h
3148 02-04-2009 06:58:41 8.5 C 4.61 g/m*3 8.5 C 0 km/h
3149 02-04-2009 07:10:38 8.5 C 4.61 g/m*3 8.5 C 0 km/h
3150 02-04-2009 07:22:38 8.4 C 4.67 g/m*3 8.4 C 0 km/h
Sensor: Nr:Datum:Temp:Abs-Feuchte:Windchill:Wind:
Aussen-T/F 3151 02-04-2009 07:34:38 8.3 C 4.72 g/m*3 8.3 C 0 km/h
3152 02-04-2009 07:46:38 8.2 C 4.77 g/m*3 8.2 C 0 km/h
3153 02-04-2009 07:58:38 8.2 C 4.77 g/m*3 8.2 C 0 km/h
3154 02-04-2009 08:10:38 8.1 C 4.74 g/m*3 8.1 C 0 km/h
3155 02-04-2009 08:22:37 8.2 C 4.77 g/m*3 8.2 C 0 km/h
3156 02-04-2009 08:34:38 8.3 C 4.8 g/m*3 8.3 C 0 km/h
3157 02-04-2009 08:46:37 8.5 C 4.87 g/m*3 8.5 C 0 km/h
3158 02-04-2009 08:58:37 8.9 C 4.99 g/m*3 8.9 C 0 km/h
3159 02-04-2009 09:10:37 9.1 C 4.97 g/m*3 9.1 C 0 km/h
3160 02-04-2009 09:22:37 9.5 C 4.92 g/m*3 9.5 C 0 km/h
3161 02-04-2009 09:34:37 10.1 C 4.92 g/m*3 10.1 C 0 km/h
3162 02-04-2009 09:46:36 10.7 C 4.91 g/m*3 10.7 C 0 km/h
3163 02-04-2009 09:58:36 11.1 C 4.94 g/m*3 11.1 C 0 km/h
3164 02-04-2009 10:10:37 11.6 C 4.89 g/m*3 11.6 C 0 km/h
3165 02-04-2009 10:22:36 12.1 C 5.04 g/m*3 12.1 C 0 km/h
3166 02-04-2009 10:34:36 12.6 C 5.09 g/m*3 12.6 C 0 km/h
3167 02-04-2009 10:46:37 13.1 C 5.02 g/m*3 13.1 C 0 km/h
3168 02-04-2009 10:58:37 13.5 C 5.03 g/m*3 13.5 C 0 km/h
3169 02-04-2009 11:10:36 14 C 4.95 g/m*3 14 C 0 km/h
3170 02-04-2009 11:22:36 14.3 C 5.04 g/m*3 14.3 C 0 km/h
3171 02-04-2009 11:34:35 14.6 C 5.01 g/m*3 14.6 C 0 km/h
3172 02-04-2009 11:46:36 15.1 C 5.03 g/m*3 15.1 C 0 km/h
3173 02-04-2009 11:58:36 15.4 C 4.99 g/m*3 15.4 C 0 km/h
3174 02-04-2009 12:10:35 15.8 C 5.12 g/m*3 15.8 C 0 km/h
3175 02-04-2009 12:22:35 16.4 C 5.3 g/m*3 16.4 C 0 km/h
Sensor: Nr:Datum:Temp:Abs-Feuchte:Windchill:Wind:
Aussen-T/F 3176 02-04-2009 12:34:35 16.6 C 5.23 g/m*3 16.6 C 0 km/h
3177 02-04-2009 12:46:35 17 C 5.21 g/m*3 17 C 0 km/h
3178 02-04-2009 12:58:35 17.4 C 5.19 g/m*3 17.4 C 0 km/h
3179 02-04-2009 13:10:34 17.8 C 5.31 g/m*3 17.8 C 0 km/h
3180 02-04-2009 13:22:35 18.2 C 5.44 g/m*3 18.2 C 0 km/h
3181 02-04-2009 13:34:35 18.7 C 5.12 g/m*3 18.7 C 0 km/h
3182 02-04-2009 13:46:34 19.4 C 5.34 g/m*3 19.4 C 0 km/h
3183 02-04-2009 13:58:34 19.6 C 5.06 g/m*3 19.6 C 0 km/h
3184 02-04-2009 14:10:35 20 C 5.18 g/m*3 20 C 0 km/h
3185 02-04-2009 14:22:34 20.3 C 5.1 g/m*3 20.3 C 0 km/h
3186 02-04-2009 14:34:34 20.8 C 5.07 g/m*3 20.8 C 0 km/h
3187 02-04-2009 14:46:34 21.6 C 4.93 g/m*3 21.6 C 0 km/h
3188 02-04-2009 14:58:34 22.2 C 5.1 g/m*3 22.2 C 0 km/h
3189 02-04-2009 15:10:34 22.6 C 4.82 g/m*3 22.6 C 0 km/h
3190 02-04-2009 15:22:33 23 C 4.52 g/m*3 23 C 0 km/h
3191 02-04-2009 15:34:33 23.5 C 4.86 g/m*3 23.5 C 0 km/h
3192 02-04-2009 15:46:33 23.6 C 4.47 g/m*3 23.6 C 0 km/h
3193 02-04-2009 15:58:33 24.4 C 4.67 g/m*3 24.4 C 0 km/h
3194 02-04-2009 16:10:33 24.1 C 4.38 g/m*3 24.1 C 0 km/h
3195 02-04-2009 16:22:33 24.1 C 4.59 g/m*3 24.1 C 0 km/h
3196 02-04-2009 16:34:33 25.3 C 4.68 g/m*3 25.3 C 0 km/h
3197 02-04-2009 16:46:33 25.1 C 4.63 g/m*3 25.1 C 0 km/h
3198 02-04-2009 16:58:33 25.4 C 4.71 g/m*3 25.4 C 0 km/h
3199 02-04-2009 17:10:32 25.5 C 4.73 g/m*3 25.5 C 0 km/h
3200 02-04-2009 17:22:33 25.7 C 4.79 g/m*3 25.7 C 0 km/h
Sensor: Nr:Datum:Temp:Abs-Feuchte:Windchill:Wind:
Aussen-T/F 3201 02-04-2009 17:34:32 25.6 C 4.76 g/m*3 25.6 C 0 km/h
3202 02-04-2009 17:46:32 25.8 C 4.82 g/m*3 25.8 C 0 km/h
3203 02-04-2009 17:58:32 25.4 C 4.71 g/m*3 25.4 C 0 km/h
3204 02-04-2009 18:10:32 25.3 C 4.68 g/m*3 25.3 C 0 km/h
3205 02-04-2009 18:22:32 25.1 C 4.63 g/m*3 25.1 C 0 km/h
3206 02-04-2009 18:34:32 24.9 C 4.81 g/m*3 24.9 C 0 km/h
3207 02-04-2009 18:46:31 24.7 C 4.75 g/m*3 24.7 C 0 km/h
3208 02-04-2009 18:58:31 24.1 C 4.81 g/m*3 24.1 C 0 km/h
3209 02-04-2009 19:10:32 22.9 C 5.11 g/m*3 22.9 C 0 km/h
3210 02-04-2009 19:22:31 22.5 C 5.19 g/m*3 22.5 C 0 km/h
3211 02-04-2009 19:34:31 21.6 C 5.31 g/m*3 21.6 C 0 km/h
3212 02-04-2009 19:46:31 20.7 C 5.58 g/m*3 20.7 C 0 km/h
3213 02-04-2009 19:58:31 19.8 C 5.98 g/m*3 19.8 C 0 km/h
3214 02-04-2009 20:10:31 19.2 C 5.77 g/m*3 19.2 C 0 km/h
3215 02-04-2009 20:22:30 18.7 C 5.92 g/m*3 18.7 C 0 km/h
3216 02-04-2009 20:34:31 18.2 C 5.75 g/m*3 18.2 C 0 km/h
3217 02-04-2009 20:46:30 17.6 C 6 g/m*3 17.6 C 0 km/h
3218 02-04-2009 20:58:30 17.1 C 5.82 g/m*3 17.1 C 0 km/h
3219 02-04-2009 21:10:30 16.8 C 5.72 g/m*3 16.8 C 0 km/h
3220 02-04-2009 21:22:31 16.8 C 5.86 g/m*3 16.8 C 0 km/h
3221 02-04-2009 21:34:30 16.6 C 5.79 g/m*3 16.6 C 0 km/h
3222 02-04-2009 21:46:30 16.5 C 5.76 g/m*3 16.5 C 0 km/h
3223 02-04-2009 21:58:30 16.1 C 5.76 g/m*3 16.1 C 0 km/h
3224 02-04-2009 22:11:32 15.8 C 5.79 g/m*3 15.8 C 0 km/h
3225 02-04-2009 22:23:32 15.6 C 5.72 g/m*3 15.6 C 0 km/h
Sensor: Nr:Datum:Temp:Abs-Feuchte:Windchill:Wind:
Aussen-T/F 3226 02-04-2009 22:35:32 15.4 C 5.78 g/m*3 15.4 C 0 km/h
3227 02-04-2009 22:47:32 15.1 C 5.81 g/m*3 15.1 C 0 km/h
3228 02-04-2009 22:59:32 14.8 C 5.83 g/m*3 14.8 C 0 km/h
3229 02-04-2009 23:11:32 14.5 C 5.85 g/m*3 14.5 C 0 km/h
3230 02-04-2009 23:23:32 14.4 C 5.81 g/m*3 14.4 C 0 km/h
3231 02-04-2009 23:35:32 14 C 5.91 g/m*3 14 C 0 km/h
3232 02-04-2009 23:47:32 14 C 5.79 g/m*3 14 C 0 km/h
3233 02-04-2009 23:59:32 13.9 C 5.99 g/m*3 13.9 C 0 km/h
3234 03-04-2009 00:11:32 13.6 C 5.88 g/m*3 13.6 C 0 km/h
3235 03-04-2009 00:23:32 13.8 C 5.96 g/m*3 13.8 C 0 km/h
3236 03-04-2009 00:35:32 13.6 C 5.88 g/m*3 13.6 C 0 km/h
3237 03-04-2009 00:47:32 13.4 C 5.93 g/m*3 13.4 C 0 km/h
3238 03-04-2009 00:59:32 13.2 C 5.86 g/m*3 13.2 C 0 km/h
3239 03-04-2009 01:11:32 13.1 C 5.82 g/m*3 13.1 C 0 km/h
3240 03-04-2009 01:23:32 12.8 C 6.05 g/m*3 12.8 C 0 km/h
3241 03-04-2009 01:35:32 12.6 C 5.97 g/m*3 12.6 C 0 km/h
3242 03-04-2009 01:47:32 12.6 C 6.08 g/m*3 12.6 C 0 km/h
3243 03-04-2009 01:59:33 12.4 C 6.01 g/m*3 12.4 C 0 km/h
3244 03-04-2009 02:11:33 12.2 C 6.04 g/m*3 12.2 C 0 km/h
3245 03-04-2009 02:23:33 12 C 5.97 g/m*3 12 C 0 km/h
3246 03-04-2009 02:35:33 11.6 C 6.13 g/m*3 11.6 C 0 km/h
3247 03-04-2009 02:47:33 11.4 C 6.16 g/m*3 11.4 C 0 km/h
3248 03-04-2009 02:59:33 11.1 C 6.14 g/m*3 11.1 C 0 km/h
3249 03-04-2009 03:11:33 10.7 C 6.09 g/m*3